Time,TemperatureF,DewpointF,PressureIn,WindDirection,WindDirectionDegrees,WindSpeedMPH,WindSpeedGustMPH,Humidity,HourlyPrecipIn,Conditions,Clouds,dailyrainin,SoftwareType,DateUTC
2013-09-26 00:00:00,59.8,53.2,30.03,NNE,22,4.3,4.3,79,0.00,,CLR,0.00,VWS V14.01,2013-09-26 04:00:00,
2013-09-26 00:01:00,62.6,62.6,29.91,NNE,22,0.0,0.0,100,0.00,,-RA,0.00,VWS V14.01,2013-09-26 04:01:00,
2013-09-26 00:02:00,62.6,62.6,29.91,WNW,292,0.0,0.0,100,0.00,,-RA,0.00,VWS V14.01,2013-09-26 04:02:00,
2013-09-26 00:03:00,62.6,62.6,29.91,West,270,0.0,0.0,100,0.00,,-RA,0.00,VWS V14.01,2013-09-26 04:03:00,
2013-09-26 00:04:00,62.6,62.6,29.91,North,0,0.9,0.9,100,0.00,,CLR,0.00,VWS V14.01,2013-09-26 04:04:00,
2013-09-26 00:05:00,62.6,62.6,29.91,WNW,292,0.0,0.0,100,0.00,,CLR,0.00,VWS V14.01,2013-09-26 04:05:00,
2013-09-26 00:06:00,62.6,62.6,29.91,West,270,0.0,0.0,100,0.00,,CLR,0.00,VWS V14.01,2013-09-26 04:06:00,
2013-09-26 00:07:00,62.6,62.6,29.91,West,270,0.0,0.0,100,0.00,,CLR,0.00,VWS V14.01,2013-09-26 04:07:00,
2013-09-26 00:08:00,62.6,62.6,29.91,West,270,0.0,0.0,100,0.00,,-RA,0.00,VWS V14.01,2013-09-26 04:08:00,
2013-09-26 00:09:00,62.6,62.6,29.91,West,270,0.0,0.0,100,0.00,,CLR,0.00,VWS V14.01,2013-09-26 04:09:00,
2013-09-26 00:10:00,62.6,62.6,29.91,West,270,0.0,0.0,100,0.00,,CLR,0.00,VWS V14.01,2013-09-26 04:10:00,
2013-09-26 00:11:00,62.6,62.6,29.91,West,270,0.0,0.0,100,0.00,,CLR,0.00,VWS V14.01,2013-09-26 04:11:00,
2013-09-26 00:12:00,62.6,62.6,29.91,West,270,0.0,0.0,100,0.00,,CLR,0.00,VWS V14.01,2013-09-26 04:12:00,
2013-09-26 00:13:00,62.6,62.6,29.91,NNW,338,0.0,0.0,100,0.00,,-RA,0.00,VWS V14.01,2013-09-26 04:13:00,
2013-09-26 00:14:00,62.6,62.6,29.91,NNW,338,0.0,0.0,100,0.00,,CLR,0.00,VWS V14.01,2013-09-26 04:14:00,
2013-09-26 00:15:00,62.6,62.6,29.91,NNW,338,0.0,0.0,100,0.00,,CLR,0.00,VWS V14.01,2013-09-26 04:15:00,
2013-09-26 00:16:00,62.6,62.6,29.91,NNW,338,0.0,0.0,100,0.00,,CLR,0.00,VWS V14.01,2013-09-26 04:16:00,
2013-09-26 00:17:00,62.8,62.8,29.91,NNE,22,2.7,2.7,100,0.00,,CLR,0.00,VWS V14.01,2013-09-26 04:17:00,
2013-09-26 00:18:00,62.8,62.8,29.91,NNE,22,0.0,0.0,100,0.00,,-RA,0.00,VWS V14.01,2013-09-26 04:18:00,
2013-09-26 00:19:00,62.8,62.8,29.91,NNE,22,2.0,2.0,100,0.00,,CLR,0.00,VWS V14.01,2013-09-26 04:19:00,
2013-09-26 00:20:00,62.8,62.8,29.91,NNE,22,1.1,1.1,100,0.00,,CLR,0.00,VWS V14.01,2013-09-26 04:20:00,
2013-09-26 00:21:00,62.8,62.8,29.91,NNE,22,0.0,0.0,100,0.00,,CLR,0.00,VWS V14.01,2013-09-26 04:21:00,
2013-09-26 00:22:00,62.6,62.6,29.91,NNE,22,0.0,0.0,100,0.00,,CLR,0.00,VWS V14.01,2013-09-26 04:22:00,
2013-09-26 00:23:00,62.6,62.6,29.88,NNE,22,0.0,0.0,100,0.00,,-RA,0.00,VWS V14.01,2013-09-26 04:23:00,
2013-09-26 00:24:00,62.6,62.6,29.91,NNE,22,0.0,0.0,100,0.00,,CLR,0.00,VWS V14.01,2013-09-26 04:24:00,
2013-09-26 00:25:00,62.6,62.6,29.88,NNE,22,0.0,0.0,100,0.00,,CLR,0.00,VWS V14.01,2013-09-26 04:25:00,
2013-09-26 00:26:00,62.6,62.6,29.88,NNE,22,0.0,0.0,100,0.00,,CLR,0.00,VWS V14.01,2013-09-26 04:26:00,
2013-09-26 00:27:00,62.6,62.6,29.88,NNE,22,0.0,0.0,100,0.00,,CLR,0.00,VWS V14.01,2013-09-26 04:27:00,
2013-09-26 00:28:00,62.6,62.6,29.88,NNW,338,0.0,0.0,100,0.00,,-RA,0.00,VWS V14.01,2013-09-26 04:28:00,
2013-09-26 00:29:00,62.6,62.6,29.88,North,0,0.0,0.0,100,0.00,,CLR,0.00,VWS V14.01,2013-09-26 04:29:00,
2013-09-26 00:30:00,62.6,62.6,29.88,NNW,338,0.0,0.0,100,0.00,,CLR,0.00,VWS V14.01,2013-09-26 04:30:00,
2013-09-26 00:31:00,62.6,62.6,29.88,NNW,338,0.0,0.0,100,0.00,,CLR,0.00,VWS V14.01,2013-09-26 04:31:00,
2013-09-26 00:32:00,62.6,62.6,29.88,NNW,338,0.0,0.0,100,0.00,,CLR,0.00,VWS V14.01,2013-09-26 04:32:00,
2013-09-26 00:33:00,62.6,62.6,29.88,NNW,338,0.0,0.0,100,0.00,,-RA,0.00,VWS V14.01,2013-09-26 04:33:00,
2013-09-26 00:34:00,62.6,62.6,29.88,NNW,338,0.0,0.0,100,0.00,,CLR,0.00,VWS V14.01,2013-09-26 04:34:00,
2013-09-26 00:35:00,62.6,62.6,29.88,NNW,338,0.0,0.0,100,0.00,,CLR,0.00,VWS V14.01,2013-09-26 04:35:00,
2013-09-26 00:36:00,62.6,62.6,29.88,NNW,338,0.0,0.0,100,0.00,,CLR,0.00,VWS V14.01,2013-09-26 04:36:00,
2013-09-26 00:37:00,62.6,62.6,29.88,NNW,338,0.0,0.0,100,0.00,,CLR,0.00,VWS V14.01,2013-09-26 04:37:00,
2013-09-26 00:38:00,62.6,62.6,29.88,NNE,22,2.5,2.5,100,0.00,,,0.00,VWS V14.01,2013-09-26 04:38:00,
2013-09-26 00:39:00,62.6,62.6,29.88,North,0,1.6,1.6,100,0.00,,CLR,0.00,VWS V14.01,2013-09-26 04:39:00,
2013-09-26 00:40:00,62.6,62.6,29.88,NNE,22,2.2,2.2,100,0.00,,CLR,0.00,VWS V14.01,2013-09-26 04:40:00,
2013-09-26 00:41:00,62.6,62.6,29.88,NNE,22,2.5,2.5,100,0.00,,CLR,0.00,VWS V14.01,2013-09-26 04:41:00,
2013-09-26 00:42:00,62.6,62.6,29.88,NNE,22,2.9,2.9,100,0.00,,CLR,0.00,VWS V14.01,2013-09-26 04:42:00,
2013-09-26 00:43:00,62.6,62.6,29.88,NNW,338,0.0,0.0,100,0.00,,,0.00,VWS V14.01,2013-09-26 04:43:00,
2013-09-26 00:44:00,62.8,62.8,29.88,NNW,338,0.9,0.9,100,0.00,,CLR,0.00,VWS V14.01,2013-09-26 04:44:00,
2013-09-26 00:45:00,62.6,62.6,29.88,North,0,2.0,2.0,100,0.00,,CLR,0.00,VWS V14.01,2013-09-26 04:45:00,
2013-09-26 00:46:00,62.6,62.6,29.88,NNW,338,0.0,0.0,100,0.00,,CLR,0.00,VWS V14.01,2013-09-26 04:46:00,
2013-09-26 00:47:00,62.6,62.6,29.88,NNW,338,0.0,0.0,100,0.00,,CLR,0.00,VWS V14.01,2013-09-26 04:47:00,
2013-09-26 00:48:00,62.6,62.6,29.88,NNW,338,0.0,0.0,100,0.00,,,0.00,VWS V14.01,2013-09-26 04:48:00,
2013-09-26 00:49:00,62.6,62.6,29.88,WNW,292,0.0,0.0,100,0.00,,CLR,0.00,VWS V14.01,2013-09-26 04:49:00,
2013-09-26 00:50:00,62.6,62.6,29.88,NW,315,0.0,0.0,100,0.00,,CLR,0.00,VWS V14.01,2013-09-26 04:50:00,
2013-09-26 00:51:00,62.6,62.6,29.88,NNW,338,0.0,0.0,100,0.00,,CLR,0.00,VWS V14.01,2013-09-26 04:51:00,
2013-09-26 00:52:00,62.6,62.6,29.88,NNE,22,0.0,0.0,100,0.00,,CLR,0.00,VWS V14.01,2013-09-26 04:52:00,
2013-09-26 00:53:00,62.8,62.8,29.88,NNE,22,2.5,2.5,100,0.00,,,0.00,VWS V14.01,2013-09-26 04:53:00,
2013-09-26 00:54:00,62.8,62.8,29.88,North,0,2.5,2.5,100,0.00,,CLR,0.00,VWS V14.01,2013-09-26 04:54:00,
2013-09-26 00:55:00,62.6,62.6,29.88,North,0,2.2,2.2,100,0.00,,CLR,0.00,VWS V14.01,2013-09-26 04:55:00,
2013-09-26 00:56:00,62.8,62.8,29.88,NNE,22,2.5,2.5,100,0.00,,CLR,0.00,VWS V14.01,2013-09-26 04:56:00,
2013-09-26 00:57:00,62.8,62.8,29.88,NNE,22,2.0,2.0,100,0.00,,CLR,0.00,VWS V14.01,2013-09-26 04:57:00,
2013-09-26 00:58:00,62.6,62.6,29.88,NNW,338,0.0,0.0,100,0.00,,,0.00,VWS V14.01,2013-09-26 04:58:00,
2013-09-26 00:59:00,62.8,62.8,29.88,North,0,1.1,1.1,100,0.00,,CLR,0.00,VWS V14.01,2013-09-26 04:59:00,
2013-09-26 01:00:00,62.8,62.8,29.88,NNW,338,0.9,0.9,100,0.00,,CLR,0.00,VWS V14.01,2013-09-26 05:00:00,
2013-09-26 01:01:00,62.6,62.6,29.88,NNW,338,0.0,0.0,100,0.00,,CLR,0.00,VWS V14.01,2013-09-26 05:01:00,
2013-09-26 01:02:00,62.6,62.6,29.88,North,0,2.2,2.2,100,0.00,,CLR,0.00,VWS V14.01,2013-09-26 05:02:00,
2013-09-26 01:03:00,62.8,62.8,29.88,North,0,2.2,2.2,100,0.00,,,0.00,VWS V14.01,2013-09-26 05:03:00,
2013-09-26 01:04:00,62.8,62.8,29.88,North,0,1.1,1.1,100,0.00,,CLR,0.00,VWS V14.01,2013-09-26 05:04:00,
2013-09-26 01:05:00,62.8,62.8,29.88,North,0,0.0,0.0,100,0.00,,CLR,0.00,VWS V14.01,2013-09-26 05:05:00,
2013-09-26 01:06:00,62.8,62.8,29.88,North,0,2.2,2.2,100,0.00,,CLR,0.00,VWS V14.01,2013-09-26 05:06:00,
2013-09-26 01:07:00,62.8,62.8,29.88,North,0,2.0,2.0,100,0.00,,CLR,0.00,VWS V14.01,2013-09-26 05:07:00,
2013-09-26 01:08:00,62.8,62.8,29.88,North,0,1.1,1.1,100,0.00,,,0.00,VWS V14.01,2013-09-26 05:08:00,
2013-09-26 01:09:00,62.8,62.8,29.88,North,0,1.3,1.3,100,0.00,,CLR,0.00,VWS V14.01,2013-09-26 05:09:00,
2013-09-26 01:10:00,62.8,62.8,29.88,North,0,1.1,1.1,100,0.00,,CLR,0.00,VWS V14.01,2013-09-26 05:10:00,
2013-09-26 01:11:00,62.8,62.8,29.88,North,0,1.1,1.1,100,0.00,,CLR,0.00,VWS V14.01,2013-09-26 05:11:00,
2013-09-26 01:12:00,62.8,62.8,29.88,North,0,1.6,1.6,100,0.00,,CLR,0.00,VWS V14.01,2013-09-26 05:12:00,
2013-09-26 01:13:00,62.8,62.8,29.88,NNE,22,1.1,1.1,100,0.00,,,0.00,VWS V14.01,2013-09-26 05:13:00,
2013-09-26 01:14:00,62.8,62.8,29.88,North,0,0.0,0.0,100,0.00,,CLR,0.00,VWS V14.01,2013-09-26 05:14:00,
2013-09-26 01:15:00,62.8,62.8,29.88,North,0,0.9,0.9,100,0.00,,CLR,0.00,VWS V14.01,2013-09-26 05:15:00,
2013-09-26 01:16:00,62.8,62.8,29.88,NNE,22,1.1,1.1,100,0.00,,CLR,0.00,VWS V14.01,2013-09-26 05:16:00,
2013-09-26 01:17:00,62.8,62.8,29.88,NNE,22,2.7,2.7,100,0.00,,CLR,0.00,VWS V14.01,2013-09-26 05:17:00,
2013-09-26 01:18:00,62.8,62.8,29.88,NNE,22,0.0,0.0,100,0.00,,,0.00,VWS V14.01,2013-09-26 05:18:00,
2013-09-26 01:19:00,62.8,62.8,29.88,North,0,1.3,1.3,100,0.00,,CLR,0.00,VWS V14.01,2013-09-26 05:19:00,
2013-09-26 01:20:00,62.8,62.8,29.88,NNE,22,0.0,0.0,100,0.00,,CLR,0.00,VWS V14.01,2013-09-26 05:20:00,
2013-09-26 01:21:00,62.8,62.8,29.88,NNE,22,0.0,0.0,100,0.00,,CLR,0.00,VWS V14.01,2013-09-26 05:21:00,
2013-09-26 01:22:00,62.8,62.8,29.88,NNE,22,0.0,0.0,100,0.00,,CLR,0.00,VWS V14.01,2013-09-26 05:22:00,
2013-09-26 01:23:00,62.8,62.8,29.88,NNE,22,0.0,0.0,100,0.00,,,0.00,VWS V14.01,2013-09-26 05:23:00,
2013-09-26 01:24:00,62.8,62.8,29.88,NNE,22,0.0,0.0,100,0.00,,CLR,0.00,VWS V14.01,2013-09-26 05:24:00,
2013-09-26 01:25:00,62.8,62.8,29.88,NNE,22,0.0,0.0,100,0.00,,CLR,0.00,VWS V14.01,2013-09-26 05:25:00,
2013-09-26 01:26:00,62.8,62.8,29.88,NNE,22,0.0,0.0,100,0.00,,CLR,0.00,VWS V14.01,2013-09-26 05:26:00,
2013-09-26 01:27:00,62.8,62.8,29.88,NNE,22,0.0,0.0,100,0.00,,CLR,0.00,VWS V14.01,2013-09-26 05:27:00,
2013-09-26 01:28:00,62.8,62.8,29.88,NNE,22,0.0,0.0,100,0.00,,,0.00,VWS V14.01,2013-09-26 05:28:00,
2013-09-26 01:29:00,62.8,62.8,29.88,NNE,22,0.0,0.0,100,0.00,,CLR,0.00,VWS V14.01,2013-09-26 05:29:00,
2013-09-26 01:30:00,62.8,62.8,29.88,NNE,22,0.0,0.0,100,0.00,,CLR,0.00,VWS V14.01,2013-09-26 05:30:00,
2013-09-26 01:31:00,62.8,62.8,29.88,NNE,22,0.0,0.0,100,0.00,,CLR,0.00,VWS V14.01,2013-09-26 05:31:00,
2013-09-26 01:32:00,62.8,62.8,29.88,NNE,22,0.0,0.0,100,0.00,,CLR,0.00,VWS V14.01,2013-09-26 05:32:00,
2013-09-26 01:33:00,63.0,63.0,29.88,NNE,22,0.0,0.0,100,0.00,,,0.00,VWS V14.01,2013-09-26 05:33:00,
2013-09-26 01:34:00,63.0,63.0,29.88,NNE,22,2.2,2.2,100,0.00,,CLR,0.00,VWS V14.01,2013-09-26 05:34:00,
2013-09-26 01:35:00,63.0,63.0,29.88,NNE,22,0.0,0.0,100,0.00,,CLR,0.00,VWS V14.01,2013-09-26 05:35:00,
2013-09-26 01:36:00,63.0,63.0,29.88,NNE,22,0.0,0.0,100,0.00,,CLR,0.00,VWS V14.01,2013-09-26 05:36:00,
2013-09-26 01:37:00,63.0,63.0,29.88,NNE,22,1.6,1.6,100,0.00,,CLR,0.00,VWS V14.01,2013-09-26 05:37:00,
2013-09-26 01:38:00,63.0,63.0,29.88,NNE,22,1.3,1.3,100,0.00,,OVC055,0.00,VWS V14.01,2013-09-26 05:38:00,
2013-09-26 01:39:00,63.0,63.0,29.88,NNE,22,1.1,1.1,100,0.00,,CLR,0.00,VWS V14.01,2013-09-26 05:39:00,
2013-09-26 01:40:00,63.0,63.0,29.88,NNE,22,2.5,2.5,100,0.00,,CLR,0.00,VWS V14.01,2013-09-26 05:40:00,
2013-09-26 01:41:00,63.0,63.0,29.88,NNE,22,1.3,1.3,100,0.00,,CLR,0.00,VWS V14.01,2013-09-26 05:41:00,
2013-09-26 01:42:00,63.0,63.0,29.88,NNE,22,0.0,0.0,100,0.00,,CLR,0.00,VWS V14.01,2013-09-26 05:42:00,
2013-09-26 01:43:00,63.0,63.0,29.88,NNE,22,0.0,0.0,100,0.00,,OVC055,0.00,VWS V14.01,2013-09-26 05:43:00,
2013-09-26 01:44:00,63.0,63.0,29.88,NNE,22,0.0,0.0,100,0.00,,CLR,0.00,VWS V14.01,2013-09-26 05:44:00,
2013-09-26 01:45:00,63.0,63.0,29.88,NNE,22,0.0,0.0,100,0.00,,CLR,0.00,VWS V14.01,2013-09-26 05:45:00,
2013-09-26 01:46:00,63.0,63.0,29.88,NNE,22,0.0,0.0,100,0.00,,CLR,0.00,VWS V14.01,2013-09-26 05:46:00,
2013-09-26 01:47:00,63.0,63.0,29.88,NNE,22,0.0,0.0,100,0.00,,CLR,0.00,VWS V14.01,2013-09-26 05:47:00,
2013-09-26 01:48:00,63.0,63.0,29.88,South,180,0.0,0.0,100,0.00,,OVC055,0.00,VWS V14.01,2013-09-26 05:48:00,
2013-09-26 01:49:00,63.0,63.0,29.88,South,180,2.0,2.0,100,0.00,,CLR,0.00,VWS V14.01,2013-09-26 05:49:00,
2013-09-26 01:50:00,63.0,63.0,29.88,South,180,1.3,1.3,100,0.00,,CLR,0.00,VWS V14.01,2013-09-26 05:50:00,
2013-09-26 01:51:00,63.0,63.0,29.88,South,180,0.0,0.0,100,0.00,,CLR,0.00,VWS V14.01,2013-09-26 05:51:00,
2013-09-26 01:52:00,63.0,63.0,29.88,South,180,0.0,0.0,100,0.00,,CLR,0.00,VWS V14.01,2013-09-26 05:52:00,
2013-09-26 01:53:00,63.0,63.0,29.88,East,90,0.0,0.0,100,0.00,,OVC055,0.00,VWS V14.01,2013-09-26 05:53:00,
2013-09-26 01:54:00,63.0,63.0,29.88,South,180,0.0,0.0,100,0.00,,CLR,0.00,VWS V14.01,2013-09-26 05:54:00,
2013-09-26 01:55:00,63.0,63.0,29.88,East,90,0.0,0.0,100,0.00,,CLR,0.00,VWS V14.01,2013-09-26 05:55:00,
2013-09-26 01:56:00,63.0,63.0,29.88,East,90,0.0,0.0,100,0.00,,CLR,0.00,VWS V14.01,2013-09-26 05:56:00,
2013-09-26 01:57:00,63.0,63.0,29.88,East,90,0.0,0.0,100,0.00,,CLR,0.00,VWS V14.01,2013-09-26 05:57:00,
2013-09-26 01:58:00,63.0,63.0,29.88,ESE,112,1.3,1.3,100,0.00,,OVC055,0.00,VWS V14.01,2013-09-26 05:58:00,
2013-09-26 01:59:00,63.0,63.0,29.88,East,90,1.3,1.3,100,0.00,,CLR,0.00,VWS V14.01,2013-09-26 05:59:00,
2013-09-26 02:00:00,63.0,63.0,29.88,ESE,112,1.3,1.3,100,0.00,,CLR,0.00,VWS V14.01,2013-09-26 06:00:00,
2013-09-26 02:01:00,63.0,63.0,29.88,ESE,112,1.3,1.3,100,0.00,,CLR,0.00,VWS V14.01,2013-09-26 06:01:00,
2013-09-26 02:02:00,63.0,63.0,29.88,ESE,112,1.3,1.3,100,0.00,,CLR,0.00,VWS V14.01,2013-09-26 06:02:00,
2013-09-26 02:03:00,63.0,63.0,29.88,SSW,202,0.0,0.0,100,0.00,,OVC055,0.00,VWS V14.01,2013-09-26 06:03:00,
2013-09-26 02:04:00,63.0,63.0,29.88,SSE,158,1.6,1.6,100,0.00,,CLR,0.00,VWS V14.01,2013-09-26 06:04:00,
2013-09-26 02:05:00,63.0,63.0,29.88,SSW,202,1.3,1.3,100,0.00,,CLR,0.00,VWS V14.01,2013-09-26 06:05:00,
2013-09-26 02:06:00,63.0,63.0,29.88,SSW,202,0.0,0.0,100,0.00,,CLR,0.00,VWS V14.01,2013-09-26 06:06:00,
2013-09-26 02:07:00,63.0,63.0,29.88,SSW,202,1.3,1.3,100,0.00,,CLR,0.00,VWS V14.01,2013-09-26 06:07:00,
2013-09-26 02:08:00,63.0,63.0,29.88,SW,225,0.0,0.0,100,0.00,,OVC055,0.00,VWS V14.01,2013-09-26 06:08:00,
2013-09-26 02:09:00,63.0,63.0,29.88,SW,225,0.0,0.0,100,0.00,,CLR,0.00,VWS V14.01,2013-09-26 06:09:00,
2013-09-26 02:10:00,63.0,63.0,29.88,SW,225,0.0,0.0,100,0.00,,CLR,0.00,VWS V14.01,2013-09-26 06:10:00,
2013-09-26 02:11:00,63.0,63.0,29.88,SW,225,0.0,0.0,100,0.00,,CLR,0.00,VWS V14.01,2013-09-26 06:11:00,
2013-09-26 02:12:00,63.0,63.0,29.88,SSE,158,0.0,0.0,100,0.00,,CLR,0.00,VWS V14.01,2013-09-26 06:12:00,
2013-09-26 02:13:00,63.0,63.0,29.88,SSE,158,0.0,0.0,100,0.00,,OVC055,0.00,VWS V14.01,2013-09-26 06:13:00,
2013-09-26 02:14:00,63.0,63.0,29.88,SSE,158,0.0,0.0,100,0.00,,CLR,0.00,VWS V14.01,2013-09-26 06:14:00,
2013-09-26 02:15:00,63.0,63.0,29.88,SSE,158,0.0,0.0,100,0.00,,CLR,0.00,VWS V14.01,2013-09-26 06:15:00,
2013-09-26 02:16:00,63.0,63.0,29.88,SSE,158,0.0,0.0,100,0.00,,CLR,0.00,VWS V14.01,2013-09-26 06:16:00,
2013-09-26 02:17:00,63.0,63.0,29.88,ESE,112,0.0,0.0,100,0.00,,CLR,0.00,VWS V14.01,2013-09-26 06:17:00,
2013-09-26 02:18:00,63.0,63.0,29.88,SE,135,0.0,0.0,100,0.00,,OVC055,0.00,VWS V14.01,2013-09-26 06:18:00,
2013-09-26 02:19:00,63.0,63.0,29.88,ESE,112,0.0,0.0,100,0.00,,CLR,0.00,VWS V14.01,2013-09-26 06:19:00,
2013-09-26 02:20:00,63.0,63.0,29.88,SE,135,1.1,1.1,100,0.00,,CLR,0.00,VWS V14.01,2013-09-26 06:20:00,
2013-09-26 02:21:00,63.0,63.0,29.88,SE,135,0.0,0.0,100,0.00,,CLR,0.00,VWS V14.01,2013-09-26 06:21:00,
2013-09-26 02:22:00,63.0,63.0,29.88,ESE,112,0.0,0.0,100,0.00,,CLR,0.00,VWS V14.01,2013-09-26 06:22:00,
2013-09-26 02:23:00,63.2,63.2,29.88,ENE,68,1.3,1.3,100,0.00,,OVC055,0.00,VWS V14.01,2013-09-26 06:23:00,
2013-09-26 02:24:00,63.0,63.0,29.88,ESE,112,0.9,0.9,100,0.00,,CLR,0.00,VWS V14.01,2013-09-26 06:24:00,
2013-09-26 02:25:00,63.2,63.2,29.88,East,90,1.1,1.1,100,0.00,,CLR,0.00,VWS V14.01,2013-09-26 06:25:00,
2013-09-26 02:26:00,63.2,63.2,29.88,ENE,68,1.3,1.3,100,0.00,,CLR,0.00,VWS V14.01,2013-09-26 06:26:00,
2013-09-26 02:27:00,63.2,63.2,29.88,ENE,68,1.6,1.6,100,0.00,,CLR,0.00,VWS V14.01,2013-09-26 06:27:00,
2013-09-26 02:28:00,63.2,63.2,29.88,ENE,68,1.3,1.3,100,0.00,,OVC055,0.00,VWS V14.01,2013-09-26 06:28:00,
2013-09-26 02:29:00,63.2,63.2,29.88,ENE,68,1.6,1.6,100,0.00,,CLR,0.00,VWS V14.01,2013-09-26 06:29:00,
2013-09-26 02:30:00,63.2,63.2,29.88,ENE,68,1.1,1.1,100,0.00,,CLR,0.00,VWS V14.01,2013-09-26 06:30:00,
2013-09-26 02:31:00,63.2,63.2,29.88,ENE,68,1.3,1.3,100,0.00,,CLR,0.00,VWS V14.01,2013-09-26 06:31:00,
2013-09-26 02:32:00,63.2,63.2,29.88,ENE,68,0.0,0.0,100,0.00,,CLR,0.00,VWS V14.01,2013-09-26 06:32:00,
2013-09-26 02:33:00,63.2,63.2,29.88,ESE,112,0.0,0.0,100,0.00,,OVC055,0.00,VWS V14.01,2013-09-26 06:33:00,
2013-09-26 02:34:00,63.2,63.2,29.88,ENE,68,0.0,0.0,100,0.00,,CLR,0.00,VWS V14.01,2013-09-26 06:34:00,
2013-09-26 02:35:00,63.2,63.2,29.88,ENE,68,0.0,0.0,100,0.00,,CLR,0.00,VWS V14.01,2013-09-26 06:35:00,
2013-09-26 02:36:00,63.2,63.2,29.88,ENE,68,0.0,0.0,100,0.00,,CLR,0.00,VWS V14.01,2013-09-26 06:36:00,
2013-09-26 02:37:00,63.2,63.2,29.88,SSW,202,0.0,0.0,100,0.00,,CLR,0.00,VWS V14.01,2013-09-26 06:37:00,
2013-09-26 02:38:00,63.2,63.2,29.88,SSW,202,0.0,0.0,100,0.00,,,0.00,VWS V14.01,2013-09-26 06:38:00,
2013-09-26 02:39:00,63.2,63.2,29.88,SSW,202,0.0,0.0,100,0.00,,CLR,0.00,VWS V14.01,2013-09-26 06:39:00,
2013-09-26 02:40:00,63.2,63.2,29.88,SSW,202,0.0,0.0,100,0.00,,CLR,0.00,VWS V14.01,2013-09-26 06:40:00,
2013-09-26 02:41:00,63.2,63.2,29.88,SSW,202,0.0,0.0,100,0.00,,CLR,0.00,VWS V14.01,2013-09-26 06:41:00,
2013-09-26 02:42:00,63.2,63.2,29.88,SSW,202,0.0,0.0,100,0.00,,CLR,0.00,VWS V14.01,2013-09-26 06:42:00,
2013-09-26 02:43:00,63.2,63.2,29.88,ESE,112,0.0,0.0,100,0.00,,,0.00,VWS V14.01,2013-09-26 06:43:00,
2013-09-26 02:44:00,63.2,63.2,29.88,SSW,202,0.0,0.0,100,0.00,,CLR,0.00,VWS V14.01,2013-09-26 06:44:00,
2013-09-26 02:45:00,63.2,63.2,29.88,SE,135,0.0,0.0,100,0.00,,CLR,0.00,VWS V14.01,2013-09-26 06:45:00,
2013-09-26 02:46:00,63.2,63.2,29.88,ESE,112,0.0,0.0,100,0.00,,CLR,0.00,VWS V14.01,2013-09-26 06:46:00,
2013-09-26 02:47:00,63.2,63.2,29.88,ESE,112,0.0,0.0,100,0.00,,CLR,0.00,VWS V14.01,2013-09-26 06:47:00,
2013-09-26 02:48:00,63.2,63.2,29.88,ESE,112,0.0,0.0,100,0.00,,,0.00,VWS V14.01,2013-09-26 06:48:00,
2013-09-26 02:49:00,63.2,63.2,29.88,ESE,112,0.0,0.0,100,0.00,,CLR,0.00,VWS V14.01,2013-09-26 06:49:00,
2013-09-26 02:50:00,63.2,63.2,29.88,ESE,112,0.0,0.0,100,0.00,,CLR,0.00,VWS V14.01,2013-09-26 06:50:00,
2013-09-26 02:51:00,63.2,63.2,29.88,ESE,112,0.0,0.0,100,0.00,,CLR,0.00,VWS V14.01,2013-09-26 06:51:00,
2013-09-26 02:52:00,63.2,63.2,29.88,ESE,112,0.0,0.0,100,0.00,,CLR,0.00,VWS V14.01,2013-09-26 06:52:00,
2013-09-26 02:53:00,63.2,63.2,29.88,NNW,338,0.0,0.0,100,0.00,,,0.00,VWS V14.01,2013-09-26 06:53:00,
2013-09-26 02:54:00,63.2,63.2,29.88,WNW,292,0.0,0.0,100,0.00,,CLR,0.00,VWS V14.01,2013-09-26 06:54:00,
2013-09-26 02:55:00,63.2,63.2,29.88,NNW,338,0.0,0.0,100,0.00,,CLR,0.00,VWS V14.01,2013-09-26 06:55:00,
2013-09-26 02:56:00,63.2,63.2,29.88,NNW,338,0.0,0.0,100,0.00,,CLR,0.00,VWS V14.01,2013-09-26 06:56:00,
2013-09-26 02:57:00,63.2,63.2,29.88,NNW,338,0.0,0.0,100,0.00,,CLR,0.00,VWS V14.01,2013-09-26 06:57:00,
2013-09-26 02:58:00,63.2,63.2,29.88,NNW,338,0.0,0.0,100,0.00,,,0.00,VWS V14.01,2013-09-26 06:58:00,
2013-09-26 02:59:00,63.2,63.2,29.88,NNW,338,0.0,0.0,100,0.00,,CLR,0.00,VWS V14.01,2013-09-26 06:59:00,
2013-09-26 03:00:00,63.2,63.2,29.88,NNW,338,0.0,0.0,100,0.00,,CLR,0.00,VWS V14.01,2013-09-26 07:00:00,
2013-09-26 03:01:00,63.2,63.2,29.88,NNW,338,0.0,0.0,100,0.00,,CLR,0.00,VWS V14.01,2013-09-26 07:01:00,
2013-09-26 03:02:00,63.2,63.2,29.88,NNW,338,0.0,0.0,100,0.00,,CLR,0.00,VWS V14.01,2013-09-26 07:02:00,
2013-09-26 03:03:00,63.2,63.2,29.88,NNW,338,0.0,0.0,100,0.00,,,0.00,VWS V14.01,2013-09-26 07:03:00,
2013-09-26 03:04:00,63.2,63.2,29.88,NNW,338,0.0,0.0,100,0.00,,CLR,0.00,VWS V14.01,2013-09-26 07:04:00,
2013-09-26 03:05:00,63.2,63.2,29.88,NNW,338,0.0,0.0,100,0.00,,CLR,0.00,VWS V14.01,2013-09-26 07:05:00,
2013-09-26 03:06:00,63.2,63.2,29.88,NNW,338,0.0,0.0,100,0.00,,CLR,0.00,VWS V14.01,2013-09-26 07:06:00,
2013-09-26 03:07:00,63.2,63.2,29.88,NNW,338,0.0,0.0,100,0.00,,CLR,0.00,VWS V14.01,2013-09-26 07:07:00,
2013-09-26 03:08:00,63.2,63.2,29.88,NNW,338,0.0,0.0,100,0.00,,CLR,0.00,VWS V14.01,2013-09-26 07:08:00,
2013-09-26 03:09:00,63.2,63.2,29.88,NNW,338,0.0,0.0,100,0.00,,,0.00,VWS V14.01,2013-09-26 07:09:00,
2013-09-26 03:10:00,63.2,63.2,29.88,NNW,338,0.0,0.0,100,0.00,,CLR,0.00,VWS V14.01,2013-09-26 07:10:00,
2013-09-26 03:11:00,63.2,63.2,29.88,NNW,338,0.0,0.0,100,0.00,,CLR,0.00,VWS V14.01,2013-09-26 07:11:00,
2013-09-26 03:12:00,63.2,63.2,29.88,NNW,338,0.0,0.0,100,0.00,,CLR,0.00,VWS V14.01,2013-09-26 07:12:00,
2013-09-26 03:13:00,63.2,63.2,29.88,NNW,338,0.0,0.0,100,0.00,,CLR,0.00,VWS V14.01,2013-09-26 07:13:00,
2013-09-26 03:14:00,63.2,63.2,29.88,NNW,338,0.0,0.0,100,0.00,,,0.00,VWS V14.01,2013-09-26 07:14:00,
2013-09-26 03:15:00,63.2,63.2,29.88,NNW,338,0.0,0.0,100,0.00,,CLR,0.00,VWS V14.01,2013-09-26 07:15:00,
2013-09-26 03:16:00,63.2,63.2,29.88,NNW,338,0.0,0.0,100,0.00,,CLR,0.00,VWS V14.01,2013-09-26 07:16:00,
2013-09-26 03:17:00,63.2,63.2,29.88,NNW,338,0.0,0.0,100,0.00,,CLR,0.00,VWS V14.01,2013-09-26 07:17:00,
2013-09-26 03:18:00,63.2,63.2,29.88,NNW,338,0.0,0.0,100,0.00,,CLR,0.00,VWS V14.01,2013-09-26 07:18:00,
2013-09-26 03:19:00,63.2,63.2,29.88,NNW,338,0.0,0.0,100,0.00,,,0.00,VWS V14.01,2013-09-26 07:19:00,
2013-09-26 03:20:00,63.2,63.2,29.88,NNW,338,0.0,0.0,100,0.00,,CLR,0.00,VWS V14.01,2013-09-26 07:20:00,
2013-09-26 03:21:00,63.2,63.2,29.88,NNW,338,0.0,0.0,100,0.00,,CLR,0.00,VWS V14.01,2013-09-26 07:21:00,
2013-09-26 03:22:00,63.2,63.2,29.88,NNW,338,0.0,0.0,100,0.00,,CLR,0.00,VWS V14.01,2013-09-26 07:22:00,
2013-09-26 03:23:00,63.2,63.2,29.88,NNW,338,0.0,0.0,100,0.00,,CLR,0.00,VWS V14.01,2013-09-26 07:23:00,
2013-09-26 03:24:00,63.2,63.2,29.88,NW,315,0.0,0.0,100,0.00,,,0.00,VWS V14.01,2013-09-26 07:24:00,
2013-09-26 03:25:00,63.2,63.2,29.88,NW,315,0.0,0.0,100,0.00,,CLR,0.00,VWS V14.01,2013-09-26 07:25:00,
2013-09-26 03:26:00,63.2,63.2,29.88,NW,315,0.0,0.0,100,0.00,,CLR,0.00,VWS V14.01,2013-09-26 07:26:00,
2013-09-26 03:27:00,63.2,63.2,29.88,NW,315,0.0,0.0,100,0.00,,CLR,0.00,VWS V14.01,2013-09-26 07:27:00,
2013-09-26 03:28:00,63.2,63.2,29.88,NW,315,0.0,0.0,100,0.00,,CLR,0.00,VWS V14.01,2013-09-26 07:28:00,
2013-09-26 03:29:00,63.2,63.2,29.88,NW,315,0.0,0.0,100,0.00,,,0.00,VWS V14.01,2013-09-26 07:29:00,
2013-09-26 03:30:00,63.2,63.2,29.88,NW,315,0.0,0.0,100,0.00,,CLR,0.00,VWS V14.01,2013-09-26 07:30:00,
2013-09-26 03:31:00,63.2,63.2,29.88,NW,315,0.0,0.0,100,0.00,,CLR,0.00,VWS V14.01,2013-09-26 07:31:00,
2013-09-26 03:32:00,63.2,63.2,29.88,NW,315,0.0,0.0,100,0.00,,CLR,0.00,VWS V14.01,2013-09-26 07:32:00,
2013-09-26 03:33:00,63.2,63.2,29.88,NNW,338,0.0,0.0,100,0.00,,CLR,0.00,VWS V14.01,2013-09-26 07:33:00,
2013-09-26 03:34:00,63.2,63.2,29.88,NNW,338,0.0,0.0,100,0.00,,,0.00,VWS V14.01,2013-09-26 07:34:00,
2013-09-26 03:35:00,63.2,63.2,29.88,NNW,338,0.0,0.0,100,0.00,,CLR,0.00,VWS V14.01,2013-09-26 07:35:00,
2013-09-26 03:36:00,63.2,63.2,29.88,NNW,338,0.0,0.0,100,0.00,,CLR,0.00,VWS V14.01,2013-09-26 07:36:00,
2013-09-26 03:37:00,63.2,63.2,29.88,NNW,338,0.0,0.0,100,0.00,,CLR,0.00,VWS V14.01,2013-09-26 07:37:00,
2013-09-26 03:38:00,63.2,63.2,29.88,NNW,338,0.0,0.0,100,0.00,,CLR,0.00,VWS V14.01,2013-09-26 07:38:00,
2013-09-26 03:39:00,63.2,63.2,29.88,North,0,0.9,0.9,100,0.00,,,0.00,VWS V14.01,2013-09-26 07:39:00,
2013-09-26 03:40:00,63.2,63.2,29.88,North,0,0.0,0.0,100,0.00,,CLR,0.00,VWS V14.01,2013-09-26 07:40:00,
2013-09-26 03:41:00,63.2,63.2,29.88,NNE,22,1.6,1.6,100,0.00,,CLR,0.00,VWS V14.01,2013-09-26 07:41:00,
2013-09-26 03:42:00,63.2,63.2,29.88,North,0,0.9,0.9,100,0.00,,CLR,0.00,VWS V14.01,2013-09-26 07:42:00,
2013-09-26 03:43:00,63.2,63.2,29.88,North,0,2.0,2.0,100,0.00,,CLR,0.00,VWS V14.01,2013-09-26 07:43:00,
2013-09-26 03:44:00,63.2,63.2,29.88,North,0,1.3,1.3,100,0.00,,,0.00,VWS V14.01,2013-09-26 07:44:00,
2013-09-26 03:45:00,63.2,63.2,29.88,NNE,22,0.0,0.0,100,0.00,,CLR,0.00,VWS V14.01,2013-09-26 07:45:00,
2013-09-26 03:46:00,63.2,63.2,29.88,North,0,0.0,0.0,100,0.00,,CLR,0.00,VWS V14.01,2013-09-26 07:46:00,
2013-09-26 03:47:00,63.2,63.2,29.88,North,0,1.3,1.3,100,0.00,,CLR,0.00,VWS V14.01,2013-09-26 07:47:00,
2013-09-26 03:48:00,63.2,63.2,29.88,NNE,22,1.3,1.3,100,0.00,,CLR,0.00,VWS V14.01,2013-09-26 07:48:00,
2013-09-26 03:49:00,63.2,63.2,29.88,North,0,0.0,0.0,100,0.00,,,0.00,VWS V14.01,2013-09-26 07:49:00,
2013-09-26 03:50:00,63.2,63.2,29.88,NNE,22,0.0,0.0,100,0.00,,CLR,0.00,VWS V14.01,2013-09-26 07:50:00,
2013-09-26 03:51:00,63.2,63.2,29.88,North,0,0.0,0.0,100,0.00,,CLR,0.00,VWS V14.01,2013-09-26 07:51:00,
2013-09-26 03:52:00,63.2,63.2,29.88,North,0,0.0,0.0,100,0.00,,CLR,0.00,VWS V14.01,2013-09-26 07:52:00,
2013-09-26 03:53:00,63.2,63.2,29.88,North,0,0.0,0.0,100,0.00,,CLR,0.00,VWS V14.01,2013-09-26 07:53:00,
2013-09-26 03:54:00,63.0,63.0,29.88,North,0,0.0,0.0,100,0.00,,,0.00,VWS V14.01,2013-09-26 07:54:00,
2013-09-26 03:55:00,63.2,63.2,29.88,North,0,0.0,0.0,100,0.00,,CLR,0.00,VWS V14.01,2013-09-26 07:55:00,
2013-09-26 03:56:00,63.0,63.0,29.88,North,0,0.0,0.0,100,0.00,,CLR,0.00,VWS V14.01,2013-09-26 07:56:00,
2013-09-26 03:57:00,63.0,63.0,29.88,North,0,0.0,0.0,100,0.00,,CLR,0.00,VWS V14.01,2013-09-26 07:57:00,
2013-09-26 03:58:00,63.0,63.0,29.88,North,0,0.0,0.0,100,0.00,,CLR,0.00,VWS V14.01,2013-09-26 07:58:00,
2013-09-26 03:59:00,63.0,63.0,29.88,North,0,0.0,0.0,100,0.00,,,0.00,VWS V14.01,2013-09-26 07:59:00,
2013-09-26 04:00:00,63.0,63.0,29.88,North,0,0.0,0.0,100,0.00,,CLR,0.00,VWS V14.01,2013-09-26 08:00:00,
2013-09-26 04:01:00,63.0,63.0,29.88,North,0,0.0,0.0,100,0.00,,CLR,0.00,VWS V14.01,2013-09-26 08:01:00,
2013-09-26 04:02:00,63.0,63.0,29.88,North,0,0.0,0.0,100,0.00,,CLR,0.00,VWS V14.01,2013-09-26 08:02:00,
2013-09-26 04:03:00,63.0,63.0,29.88,North,0,0.0,0.0,100,0.00,,CLR,0.00,VWS V14.01,2013-09-26 08:03:00,
2013-09-26 04:04:00,63.0,63.0,29.88,North,0,0.0,0.0,100,0.00,,,0.00,VWS V14.01,2013-09-26 08:04:00,
2013-09-26 04:05:00,63.0,63.0,29.88,North,0,0.0,0.0,100,0.00,,CLR,0.00,VWS V14.01,2013-09-26 08:05:00,
2013-09-26 04:06:00,63.0,63.0,29.88,North,0,0.0,0.0,100,0.00,,CLR,0.00,VWS V14.01,2013-09-26 08:06:00,
2013-09-26 04:07:00,63.0,63.0,29.88,North,0,0.0,0.0,100,0.00,,CLR,0.00,VWS V14.01,2013-09-26 08:07:00,
2013-09-26 04:08:00,62.8,62.8,29.88,North,0,0.0,0.0,100,0.00,,CLR,0.00,VWS V14.01,2013-09-26 08:08:00,
2013-09-26 04:09:00,62.8,62.8,29.88,NE,45,0.0,0.0,100,0.00,,,0.00,VWS V14.01,2013-09-26 08:09:00,
2013-09-26 04:10:00,62.8,62.8,29.88,NNE,22,0.0,0.0,100,0.00,,CLR,0.00,VWS V14.01,2013-09-26 08:10:00,
2013-09-26 04:11:00,62.8,62.8,29.88,NNE,22,0.0,0.0,100,0.00,,CLR,0.00,VWS V14.01,2013-09-26 08:11:00,
2013-09-26 04:12:00,62.8,62.8,29.88,NE,45,0.0,0.0,100,0.00,,CLR,0.00,VWS V14.01,2013-09-26 08:12:00,
2013-09-26 04:13:00,62.8,62.8,29.88,NE,45,0.0,0.0,100,0.00,,CLR,0.00,VWS V14.01,2013-09-26 08:13:00,
2013-09-26 04:14:00,62.6,62.6,29.88,NE,45,0.0,0.0,100,0.00,,,0.00,VWS V14.01,2013-09-26 08:14:00,
2013-09-26 04:15:00,62.6,62.6,29.88,NE,45,0.0,0.0,100,0.00,,CLR,0.00,VWS V14.01,2013-09-26 08:15:00,
2013-09-26 04:16:00,62.6,62.6,29.88,NE,45,0.0,0.0,100,0.00,,CLR,0.00,VWS V14.01,2013-09-26 08:16:00,
2013-09-26 04:17:00,62.6,62.6,29.88,NE,45,0.0,0.0,100,0.00,,CLR,0.00,VWS V14.01,2013-09-26 08:17:00,
2013-09-26 04:18:00,62.5,62.5,29.88,NE,45,0.0,0.0,100,0.00,,CLR,0.00,VWS V14.01,2013-09-26 08:18:00,
2013-09-26 04:19:00,62.5,62.5,29.88,NE,45,0.0,0.0,100,0.00,,,0.00,VWS V14.01,2013-09-26 08:19:00,
2013-09-26 04:20:00,62.5,62.5,29.88,NE,45,0.0,0.0,100,0.00,,CLR,0.00,VWS V14.01,2013-09-26 08:20:00,
2013-09-26 04:21:00,62.5,62.5,29.88,NE,45,0.0,0.0,100,0.00,,CLR,0.00,VWS V14.01,2013-09-26 08:21:00,
2013-09-26 04:22:00,62.5,62.5,29.88,NE,45,0.0,0.0,100,0.00,,CLR,0.00,VWS V14.01,2013-09-26 08:22:00,
2013-09-26 04:23:00,62.5,62.5,29.88,NE,45,0.0,0.0,100,0.00,,CLR,0.00,VWS V14.01,2013-09-26 08:23:00,
2013-09-26 04:24:00,62.3,62.3,29.88,NE,45,0.0,0.0,100,0.00,,,0.00,VWS V14.01,2013-09-26 08:24:00,
2013-09-26 04:25:00,62.3,62.3,29.88,NE,45,0.0,0.0,100,0.00,,CLR,0.00,VWS V14.01,2013-09-26 08:25:00,
2013-09-26 04:26:00,62.3,62.3,29.88,NE,45,0.0,0.0,100,0.00,,CLR,0.00,VWS V14.01,2013-09-26 08:26:00,
2013-09-26 04:27:00,62.3,62.3,29.88,NE,45,0.0,0.0,100,0.00,,CLR,0.00,VWS V14.01,2013-09-26 08:27:00,
2013-09-26 04:28:00,62.3,62.3,29.88,NE,45,0.0,0.0,100,0.00,,CLR,0.00,VWS V14.01,2013-09-26 08:28:00,
2013-09-26 04:29:00,62.3,62.3,29.88,NE,45,0.0,0.0,100,0.00,,,0.00,VWS V14.01,2013-09-26 08:29:00,
2013-09-26 04:30:00,62.3,62.3,29.88,NE,45,0.0,0.0,100,0.00,,CLR,0.00,VWS V14.01,2013-09-26 08:30:00,
2013-09-26 04:31:00,62.3,62.3,29.88,NE,45,0.0,0.0,100,0.00,,CLR,0.00,VWS V14.01,2013-09-26 08:31:00,
2013-09-26 04:32:00,62.3,62.3,29.88,NE,45,0.0,0.0,100,0.00,,CLR,0.00,VWS V14.01,2013-09-26 08:32:00,
2013-09-26 04:33:00,62.3,62.3,29.88,NE,45,0.0,0.0,100,0.00,,CLR,0.00,VWS V14.01,2013-09-26 08:33:00,
2013-09-26 04:34:00,62.1,62.1,29.88,NE,45,0.0,0.0,100,0.00,,,0.00,VWS V14.01,2013-09-26 08:34:00,
2013-09-26 04:35:00,62.1,62.1,29.88,NE,45,0.0,0.0,100,0.00,,CLR,0.00,VWS V14.01,2013-09-26 08:35:00,
2013-09-26 04:36:00,62.1,62.1,29.88,NE,45,0.0,0.0,100,0.00,,CLR,0.00,VWS V14.01,2013-09-26 08:36:00,
2013-09-26 04:37:00,62.1,62.1,29.88,NE,45,0.0,0.0,100,0.00,,CLR,0.00,VWS V14.01,2013-09-26 08:37:00,
2013-09-26 04:38:00,62.1,62.1,29.88,NE,45,0.0,0.0,100,0.00,,CLR,0.00,VWS V14.01,2013-09-26 08:38:00,
2013-09-26 04:39:00,61.9,61.9,29.88,NE,45,0.0,0.0,100,0.00,,,0.00,VWS V14.01,2013-09-26 08:39:00,
2013-09-26 04:40:00,62.1,62.1,29.88,NE,45,0.0,0.0,100,0.00,,CLR,0.00,VWS V14.01,2013-09-26 08:40:00,
2013-09-26 04:41:00,61.9,61.9,29.88,NE,45,0.0,0.0,100,0.00,,CLR,0.00,VWS V14.01,2013-09-26 08:41:00,
2013-09-26 04:42:00,61.9,61.9,29.88,NE,45,0.0,0.0,100,0.00,,CLR,0.00,VWS V14.01,2013-09-26 08:42:00,
2013-09-26 04:43:00,61.7,61.7,29.88,NE,45,0.0,0.0,100,0.00,,CLR,0.00,VWS V14.01,2013-09-26 08:43:00,
2013-09-26 04:44:00,61.7,61.7,29.88,NE,45,0.0,0.0,100,0.00,,,0.00,VWS V14.01,2013-09-26 08:44:00,
2013-09-26 04:45:00,61.7,61.7,29.88,NE,45,0.0,0.0,100,0.00,,CLR,0.00,VWS V14.01,2013-09-26 08:45:00,
2013-09-26 04:46:00,61.7,61.7,29.88,NE,45,0.0,0.0,100,0.00,,CLR,0.00,VWS V14.01,2013-09-26 08:46:00,
2013-09-26 04:47:00,61.7,61.7,29.88,NE,45,0.0,0.0,100,0.00,,CLR,0.00,VWS V14.01,2013-09-26 08:47:00,
2013-09-26 04:48:00,61.7,61.7,29.88,NE,45,0.0,0.0,100,0.00,,CLR,0.00,VWS V14.01,2013-09-26 08:48:00,
2013-09-26 04:49:00,61.6,61.6,29.88,NE,45,0.0,0.0,100,0.00,,,0.00,VWS V14.01,2013-09-26 08:49:00,
2013-09-26 04:50:00,61.6,61.6,29.88,NE,45,0.0,0.0,100,0.00,,CLR,0.00,VWS V14.01,2013-09-26 08:50:00,
2013-09-26 04:51:00,61.6,61.6,29.88,NE,45,0.0,0.0,100,0.00,,CLR,0.00,VWS V14.01,2013-09-26 08:51:00,
2013-09-26 04:52:00,61.6,61.6,29.88,NE,45,0.0,0.0,100,0.00,,CLR,0.00,VWS V14.01,2013-09-26 08:52:00,
2013-09-26 04:53:00,61.6,61.6,29.88,NE,45,0.0,0.0,100,0.00,,CLR,0.00,VWS V14.01,2013-09-26 08:53:00,
2013-09-26 04:54:00,61.4,61.4,29.88,NE,45,0.0,0.0,100,0.00,,CLR,0.00,VWS V14.01,2013-09-26 08:54:00,
2013-09-26 04:55:00,61.2,61.2,29.88,NE,45,0.0,0.0,100,0.00,,,0.00,VWS V14.01,2013-09-26 08:55:00,
2013-09-26 04:56:00,61.2,61.2,29.88,NE,45,0.0,0.0,100,0.00,,CLR,0.00,VWS V14.01,2013-09-26 08:56:00,
2013-09-26 04:57:00,61.2,61.2,29.88,NE,45,0.0,0.0,100,0.00,,CLR,0.00,VWS V14.01,2013-09-26 08:57:00,
2013-09-26 04:58:00,61.2,61.2,29.88,NE,45,0.0,0.0,100,0.00,,CLR,0.00,VWS V14.01,2013-09-26 08:58:00,
2013-09-26 04:59:00,61.0,61.0,29.88,NE,45,0.0,0.0,100,0.00,,CLR,0.00,VWS V14.01,2013-09-26 08:59:00,
2013-09-26 05:00:00,60.8,60.8,29.88,NE,45,0.0,0.0,100,0.00,,,0.00,VWS V14.01,2013-09-26 09:00:00,
2013-09-26 05:01:00,61.0,61.0,29.88,NE,45,0.0,0.0,100,0.00,,CLR,0.00,VWS V14.01,2013-09-26 09:01:00,
2013-09-26 05:02:00,61.0,61.0,29.88,NE,45,0.0,0.0,100,0.00,,CLR,0.00,VWS V14.01,2013-09-26 09:02:00,
2013-09-26 05:03:00,60.8,60.8,29.88,NE,45,0.0,0.0,100,0.00,,CLR,0.00,VWS V14.01,2013-09-26 09:03:00,
2013-09-26 05:04:00,60.8,60.8,29.88,NE,45,0.0,0.0,100,0.00,,CLR,0.00,VWS V14.01,2013-09-26 09:04:00,
2013-09-26 05:05:00,60.7,60.7,29.88,NE,45,0.0,0.0,100,0.00,,,0.00,VWS V14.01,2013-09-26 09:05:00,
2013-09-26 05:06:00,60.8,60.8,29.88,NE,45,0.0,0.0,100,0.00,,CLR,0.00,VWS V14.01,2013-09-26 09:06:00,
2013-09-26 05:07:00,60.8,60.8,29.88,NE,45,0.0,0.0,100,0.00,,CLR,0.00,VWS V14.01,2013-09-26 09:07:00,
2013-09-26 05:08:00,60.7,60.7,29.88,NE,45,0.0,0.0,100,0.00,,CLR,0.00,VWS V14.01,2013-09-26 09:08:00,
2013-09-26 05:09:00,60.7,60.7,29.88,NE,45,0.0,0.0,100,0.00,,CLR,0.00,VWS V14.01,2013-09-26 09:09:00,
2013-09-26 05:10:00,60.5,60.5,29.88,NE,45,0.0,0.0,100,0.00,,,0.00,VWS V14.01,2013-09-26 09:10:00,
2013-09-26 05:11:00,60.7,60.7,29.88,NE,45,0.0,0.0,100,0.00,,CLR,0.00,VWS V14.01,2013-09-26 09:11:00,
2013-09-26 05:12:00,60.5,60.5,29.88,NE,45,0.0,0.0,100,0.00,,CLR,0.00,VWS V14.01,2013-09-26 09:12:00,
2013-09-26 05:13:00,60.5,60.5,29.88,NE,45,0.0,0.0,100,0.00,,CLR,0.00,VWS V14.01,2013-09-26 09:13:00,
2013-09-26 05:14:00,60.5,60.5,29.88,NE,45,0.0,0.0,100,0.00,,CLR,0.00,VWS V14.01,2013-09-26 09:14:00,
2013-09-26 05:15:00,60.5,60.5,29.88,NNE,22,0.0,0.0,100,0.00,,,0.00,VWS V14.01,2013-09-26 09:15:00,
2013-09-26 05:16:00,60.5,60.5,29.88,NNE,22,0.0,0.0,100,0.00,,CLR,0.00,VWS V14.01,2013-09-26 09:16:00,
2013-09-26 05:17:00,60.5,60.5,29.88,NNE,22,0.0,0.0,100,0.00,,CLR,0.00,VWS V14.01,2013-09-26 09:17:00,
2013-09-26 05:18:00,60.5,60.5,29.88,NNE,22,0.0,0.0,100,0.00,,CLR,0.00,VWS V14.01,2013-09-26 09:18:00,
2013-09-26 05:19:00,60.5,60.5,29.88,NNE,22,0.0,0.0,100,0.00,,CLR,0.00,VWS V14.01,2013-09-26 09:19:00,
2013-09-26 05:20:00,60.7,60.7,29.88,NNE,22,0.0,0.0,100,0.00,,,0.00,VWS V14.01,2013-09-26 09:20:00,
2013-09-26 05:21:00,60.5,60.5,29.88,NNE,22,0.9,0.9,100,0.00,,CLR,0.00,VWS V14.01,2013-09-26 09:21:00,
2013-09-26 05:22:00,60.7,60.7,29.88,NNE,22,0.0,0.0,100,0.00,,CLR,0.00,VWS V14.01,2013-09-26 09:22:00,
2013-09-26 05:23:00,60.7,60.7,29.88,NNE,22,0.0,0.0,100,0.00,,CLR,0.00,VWS V14.01,2013-09-26 09:23:00,
2013-09-26 05:24:00,60.7,60.7,29.88,NNE,22,1.1,1.1,100,0.00,,CLR,0.00,VWS V14.01,2013-09-26 09:24:00,
2013-09-26 05:25:00,61.0,61.0,29.88,North,0,2.0,2.0,100,0.00,,,0.00,VWS V14.01,2013-09-26 09:25:00,
2013-09-26 05:26:00,60.8,60.8,29.88,North,0,0.9,0.9,100,0.00,,CLR,0.00,VWS V14.01,2013-09-26 09:26:00,
2013-09-26 05:27:00,60.8,60.8,29.88,North,0,0.0,0.0,100,0.00,,CLR,0.00,VWS V14.01,2013-09-26 09:27:00,
2013-09-26 05:28:00,61.0,61.0,29.88,North,0,2.0,2.0,100,0.00,,CLR,0.00,VWS V14.01,2013-09-26 09:28:00,
2013-09-26 05:29:00,61.0,61.0,29.88,North,0,2.0,2.0,100,0.00,,CLR,0.00,VWS V14.01,2013-09-26 09:29:00,
2013-09-26 05:30:00,61.4,61.4,29.88,NNE,22,1.1,1.1,100,0.00,,,0.00,VWS V14.01,2013-09-26 09:30:00,
2013-09-26 05:31:00,61.2,61.2,29.88,North,0,2.0,2.0,100,0.00,,CLR,0.00,VWS V14.01,2013-09-26 09:31:00,
2013-09-26 05:32:00,61.4,61.4,29.88,NNE,22,2.5,2.5,100,0.00,,CLR,0.00,VWS V14.01,2013-09-26 09:32:00,
2013-09-26 05:33:00,61.4,61.4,29.88,NNE,22,1.1,1.1,100,0.00,,CLR,0.00,VWS V14.01,2013-09-26 09:33:00,
2013-09-26 05:34:00,61.4,61.4,29.88,NNE,22,2.7,2.7,100,0.00,,CLR,0.00,VWS V14.01,2013-09-26 09:34:00,
2013-09-26 05:35:00,61.4,61.4,29.88,North,0,3.8,3.8,100,0.00,,,0.00,VWS V14.01,2013-09-26 09:35:00,
2013-09-26 05:36:00,61.4,61.4,29.88,North,0,2.2,2.2,100,0.00,,CLR,0.00,VWS V14.01,2013-09-26 09:36:00,
2013-09-26 05:37:00,61.4,61.4,29.88,North,0,1.3,1.3,100,0.00,,CLR,0.00,VWS V14.01,2013-09-26 09:37:00,
2013-09-26 05:38:00,61.4,61.4,29.88,North,0,3.8,3.8,100,0.00,,CLR,0.00,VWS V14.01,2013-09-26 09:38:00,
2013-09-26 05:39:00,61.6,61.6,29.88,NNE,22,1.3,1.3,100,0.00,,CLR,0.00,VWS V14.01,2013-09-26 09:39:00,
2013-09-26 05:40:00,61.6,61.6,29.88,NNE,22,2.2,2.2,100,0.00,,,0.00,VWS V14.01,2013-09-26 09:40:00,
2013-09-26 05:41:00,61.6,61.6,29.88,NNE,22,2.5,2.5,100,0.00,,CLR,0.00,VWS V14.01,2013-09-26 09:41:00,
2013-09-26 05:42:00,61.6,61.6,29.88,NNE,22,2.2,2.2,100,0.00,,CLR,0.00,VWS V14.01,2013-09-26 09:42:00,
2013-09-26 05:43:00,61.6,61.6,29.88,NNE,22,2.2,2.2,100,0.00,,CLR,0.00,VWS V14.01,2013-09-26 09:43:00,
2013-09-26 05:44:00,61.4,61.4,29.88,North,0,1.1,1.1,100,0.00,,CLR,0.00,VWS V14.01,2013-09-26 09:44:00,
2013-09-26 05:45:00,61.4,61.4,29.88,North,0,2.0,2.0,100,0.00,,,0.00,VWS V14.01,2013-09-26 09:45:00,
2013-09-26 05:46:00,61.4,61.4,29.88,NNE,22,1.3,1.3,100,0.00,,CLR,0.00,VWS V14.01,2013-09-26 09:46:00,
2013-09-26 05:47:00,61.4,61.4,29.88,NNE,22,3.1,3.1,100,0.00,,CLR,0.00,VWS V14.01,2013-09-26 09:47:00,
2013-09-26 05:48:00,61.4,61.4,29.88,North,0,1.6,1.6,100,0.00,,CLR,0.00,VWS V14.01,2013-09-26 09:48:00,
2013-09-26 05:49:00,61.4,61.4,29.88,NNE,22,2.7,2.7,100,0.00,,CLR,0.00,VWS V14.01,2013-09-26 09:49:00,
2013-09-26 05:50:00,61.4,61.4,29.88,NNE,22,3.4,3.4,100,0.00,,,0.00,VWS V14.01,2013-09-26 09:50:00,
2013-09-26 05:51:00,61.4,61.4,29.88,NNE,22,3.4,3.4,100,0.00,,CLR,0.00,VWS V14.01,2013-09-26 09:51:00,
2013-09-26 05:52:00,61.4,61.4,29.88,NNE,22,2.7,2.7,100,0.00,,CLR,0.00,VWS V14.01,2013-09-26 09:52:00,
2013-09-26 05:53:00,61.4,61.4,29.88,NNE,22,3.4,3.4,100,0.00,,CLR,0.00,VWS V14.01,2013-09-26 09:53:00,
2013-09-26 05:54:00,61.4,61.4,29.88,NNE,22,1.1,1.1,100,0.00,,CLR,0.00,VWS V14.01,2013-09-26 09:54:00,
2013-09-26 05:55:00,61.4,61.4,29.88,North,0,1.1,1.1,100,0.00,,,0.00,VWS V14.01,2013-09-26 09:55:00,
2013-09-26 05:56:00,61.4,61.4,29.88,North,0,2.0,2.0,100,0.00,,CLR,0.00,VWS V14.01,2013-09-26 09:56:00,
2013-09-26 05:57:00,61.4,61.4,29.88,North,0,1.6,1.6,100,0.00,,CLR,0.00,VWS V14.01,2013-09-26 09:57:00,
2013-09-26 05:58:00,61.4,61.4,29.88,North,0,3.1,3.1,100,0.00,,CLR,0.00,VWS V14.01,2013-09-26 09:58:00,
2013-09-26 05:59:00,61.4,61.4,29.88,North,0,0.9,0.9,100,0.00,,CLR,0.00,VWS V14.01,2013-09-26 09:59:00,
2013-09-26 06:00:00,61.4,61.4,29.88,North,0,1.3,1.3,100,0.00,,CLR,0.00,VWS V14.01,2013-09-26 10:00:00,
2013-09-26 06:01:00,61.6,61.6,29.88,North,0,3.4,3.4,100,0.00,,,0.00,VWS V14.01,2013-09-26 10:01:00,
2013-09-26 06:02:00,61.6,61.6,29.88,NNE,22,3.1,3.1,100,0.00,,CLR,0.00,VWS V14.01,2013-09-26 10:02:00,
2013-09-26 06:03:00,61.6,61.6,29.88,NNW,338,3.1,3.1,100,0.00,,CLR,0.00,VWS V14.01,2013-09-26 10:03:00,
2013-09-26 06:04:00,61.6,61.6,29.88,North,0,3.6,3.6,100,0.00,,CLR,0.00,VWS V14.01,2013-09-26 10:04:00,
2013-09-26 06:05:00,61.6,61.6,29.88,NNE,22,2.9,2.9,100,0.00,,CLR,0.00,VWS V14.01,2013-09-26 10:05:00,
2013-09-26 06:06:00,61.6,61.6,29.88,NNE,22,2.9,2.9,100,0.00,,,0.00,VWS V14.01,2013-09-26 10:06:00,
2013-09-26 06:07:00,61.6,61.6,29.88,North,0,2.9,2.9,100,0.00,,CLR,0.00,VWS V14.01,2013-09-26 10:07:00,
2013-09-26 06:08:00,61.6,61.6,29.88,North,0,2.0,2.0,100,0.00,,CLR,0.00,VWS V14.01,2013-09-26 10:08:00,
2013-09-26 06:09:00,61.6,61.6,29.88,North,0,2.7,2.7,100,0.00,,CLR,0.00,VWS V14.01,2013-09-26 10:09:00,
2013-09-26 06:10:00,61.6,61.6,29.88,North,0,2.5,2.5,100,0.00,,CLR,0.00,VWS V14.01,2013-09-26 10:10:00,
2013-09-26 06:11:00,61.6,61.6,29.88,NNE,22,2.5,2.5,100,0.00,,,0.00,VWS V14.01,2013-09-26 10:11:00,
2013-09-26 06:12:00,61.6,61.6,29.88,North,0,4.3,4.3,100,0.00,,CLR,0.00,VWS V14.01,2013-09-26 10:12:00,
2013-09-26 06:13:00,61.6,61.6,29.88,NNE,22,3.1,3.1,100,0.00,,CLR,0.00,VWS V14.01,2013-09-26 10:13:00,
2013-09-26 06:14:00,61.6,61.6,29.88,NNE,22,2.2,2.2,100,0.00,,CLR,0.00,VWS V14.01,2013-09-26 10:14:00,
2013-09-26 06:15:00,61.6,61.6,29.88,NNE,22,2.7,2.7,100,0.00,,CLR,0.00,VWS V14.01,2013-09-26 10:15:00,
2013-09-26 06:16:00,61.6,61.6,29.88,NNE,22,2.9,2.9,100,0.00,,,0.00,VWS V14.01,2013-09-26 10:16:00,
2013-09-26 06:17:00,61.6,61.6,29.88,NNE,22,2.5,2.5,100,0.00,,CLR,0.00,VWS V14.01,2013-09-26 10:17:00,
2013-09-26 06:18:00,61.6,61.6,29.88,NNE,22,3.1,3.1,100,0.00,,CLR,0.00,VWS V14.01,2013-09-26 10:18:00,
2013-09-26 06:19:00,61.6,61.6,29.88,NNE,22,2.9,2.9,100,0.00,,CLR,0.00,VWS V14.01,2013-09-26 10:19:00,
2013-09-26 06:20:00,61.6,61.6,29.88,NNW,338,2.7,2.7,100,0.00,,CLR,0.00,VWS V14.01,2013-09-26 10:20:00,
2013-09-26 06:21:00,61.6,61.6,29.88,North,0,1.6,1.6,100,0.00,,,0.00,VWS V14.01,2013-09-26 10:21:00,
2013-09-26 06:22:00,61.6,61.6,29.88,NNE,22,2.0,2.0,100,0.00,,CLR,0.00,VWS V14.01,2013-09-26 10:22:00,
2013-09-26 06:23:00,61.6,61.6,29.88,NNE,22,2.0,2.0,100,0.00,,CLR,0.00,VWS V14.01,2013-09-26 10:23:00,
2013-09-26 06:24:00,61.6,61.6,29.88,North,0,1.6,1.6,100,0.00,,CLR,0.00,VWS V14.01,2013-09-26 10:24:00,
2013-09-26 06:25:00,61.6,61.6,29.88,North,0,2.5,2.5,100,0.00,,CLR,0.00,VWS V14.01,2013-09-26 10:25:00,
2013-09-26 06:26:00,61.4,61.4,29.88,NNE,22,1.3,1.3,100,0.00,,,0.00,VWS V14.01,2013-09-26 10:26:00,
2013-09-26 06:27:00,61.4,61.4,29.88,North,0,2.5,2.5,100,0.00,,CLR,0.00,VWS V14.01,2013-09-26 10:27:00,
2013-09-26 06:28:00,61.4,61.4,29.88,North,0,4.0,4.0,100,0.00,,CLR,0.00,VWS V14.01,2013-09-26 10:28:00,
2013-09-26 06:29:00,61.4,61.4,29.88,NNE,22,1.3,1.3,100,0.00,,CLR,0.00,VWS V14.01,2013-09-26 10:29:00,
2013-09-26 06:30:00,61.6,61.6,29.88,North,0,3.8,3.8,100,0.00,,CLR,0.00,VWS V14.01,2013-09-26 10:30:00,
2013-09-26 06:31:00,61.4,61.4,29.88,NNE,22,2.9,2.9,100,0.00,,,0.00,VWS V14.01,2013-09-26 10:31:00,
2013-09-26 06:32:00,61.4,61.4,29.88,NNE,22,3.6,3.6,100,0.00,,CLR,0.00,VWS V14.01,2013-09-26 10:32:00,
2013-09-26 06:33:00,61.4,61.4,29.88,North,0,3.1,3.1,100,0.00,,CLR,0.00,VWS V14.01,2013-09-26 10:33:00,
2013-09-26 06:34:00,61.4,61.4,29.88,NNE,22,2.9,2.9,100,0.00,,CLR,0.00,VWS V14.01,2013-09-26 10:34:00,
2013-09-26 06:35:00,61.4,61.4,29.88,NNE,22,3.4,3.4,100,0.00,,CLR,0.00,VWS V14.01,2013-09-26 10:35:00,
2013-09-26 06:36:00,61.6,61.6,29.88,NNE,22,2.5,2.5,100,0.00,,,0.00,VWS V14.01,2013-09-26 10:36:00,
2013-09-26 06:37:00,61.6,61.6,29.88,North,0,3.4,3.4,100,0.00,,CLR,0.00,VWS V14.01,2013-09-26 10:37:00,
2013-09-26 06:38:00,61.6,61.6,29.88,NNE,22,3.1,3.1,100,0.00,,CLR,0.00,VWS V14.01,2013-09-26 10:38:00,
2013-09-26 06:39:00,61.6,61.6,29.88,NNE,22,2.5,2.5,100,0.00,,CLR,0.00,VWS V14.01,2013-09-26 10:39:00,
2013-09-26 06:40:00,61.6,61.6,29.88,NNE,22,3.1,3.1,100,0.00,,CLR,0.00,VWS V14.01,2013-09-26 10:40:00,
2013-09-26 06:41:00,61.4,61.4,29.88,NNE,22,2.5,2.5,100,0.00,,,0.00,VWS V14.01,2013-09-26 10:41:00,
2013-09-26 06:42:00,61.6,61.6,29.88,North,0,2.0,2.0,100,0.00,,CLR,0.00,VWS V14.01,2013-09-26 10:42:00,
2013-09-26 06:43:00,61.4,61.4,29.88,NNE,22,3.8,3.8,100,0.00,,CLR,0.00,VWS V14.01,2013-09-26 10:43:00,
2013-09-26 06:44:00,61.4,61.4,29.88,NNE,22,2.5,2.5,100,0.00,,CLR,0.00,VWS V14.01,2013-09-26 10:44:00,
2013-09-26 06:45:00,61.4,61.4,29.88,NNE,22,2.7,2.7,100,0.00,,CLR,0.00,VWS V14.01,2013-09-26 10:45:00,
2013-09-26 06:46:00,61.4,61.4,29.88,NE,45,3.6,3.6,100,0.00,,,0.00,VWS V14.01,2013-09-26 10:46:00,
2013-09-26 06:47:00,61.4,61.4,29.88,NNE,22,1.3,1.3,100,0.00,,CLR,0.00,VWS V14.01,2013-09-26 10:47:00,
2013-09-26 06:48:00,61.4,61.4,29.88,NNE,22,2.0,2.0,100,0.00,,CLR,0.00,VWS V14.01,2013-09-26 10:48:00,
2013-09-26 06:49:00,61.4,61.4,29.88,NE,45,3.6,3.6,100,0.00,,CLR,0.00,VWS V14.01,2013-09-26 10:49:00,
2013-09-26 06:50:00,61.4,61.4,29.88,NNE,22,2.9,2.9,100,0.00,,CLR,0.00,VWS V14.01,2013-09-26 10:50:00,
2013-09-26 06:51:00,61.4,61.4,29.88,North,0,1.1,1.1,100,0.00,,,0.00,VWS V14.01,2013-09-26 10:51:00,
2013-09-26 06:52:00,61.4,61.4,29.88,NNE,22,1.3,1.3,100,0.00,,CLR,0.00,VWS V14.01,2013-09-26 10:52:00,
2013-09-26 06:53:00,61.4,61.4,29.88,NNE,22,1.1,1.1,100,0.00,,CLR,0.00,VWS V14.01,2013-09-26 10:53:00,
2013-09-26 06:54:00,61.4,61.4,29.88,North,0,1.1,1.1,100,0.00,,CLR,0.00,VWS V14.01,2013-09-26 10:54:00,
2013-09-26 06:55:00,61.4,61.4,29.91,NNE,22,1.3,1.3,100,0.00,,CLR,0.00,VWS V14.01,2013-09-26 10:55:00,
2013-09-26 06:56:00,61.4,61.4,29.91,North,0,1.1,1.1,100,0.00,,,0.00,VWS V14.01,2013-09-26 10:56:00,
2013-09-26 06:57:00,61.6,61.6,29.91,NE,45,3.1,3.1,100,0.00,,CLR,0.00,VWS V14.01,2013-09-26 10:57:00,
2013-09-26 06:58:00,61.6,61.6,29.91,NNE,22,2.0,2.0,100,0.00,,CLR,0.00,VWS V14.01,2013-09-26 10:58:00,
2013-09-26 06:59:00,61.4,61.4,29.91,North,0,1.1,1.1,100,0.00,,CLR,0.00,VWS V14.01,2013-09-26 10:59:00,
2013-09-26 07:00:00,61.6,61.6,29.91,NNE,22,2.5,2.5,100,0.00,,CLR,0.00,VWS V14.01,2013-09-26 11:00:00,
2013-09-26 07:01:00,61.6,61.6,29.91,NNE,22,2.5,2.5,100,0.00,,,0.00,VWS V14.01,2013-09-26 11:01:00,
2013-09-26 07:02:00,61.6,61.6,29.91,NNE,22,3.6,3.6,100,0.00,,CLR,0.00,VWS V14.01,2013-09-26 11:02:00,
2013-09-26 07:03:00,61.6,61.6,29.91,NNE,22,2.5,2.5,100,0.00,,CLR,0.00,VWS V14.01,2013-09-26 11:03:00,
2013-09-26 07:04:00,61.6,61.6,29.91,NNE,22,2.5,2.5,100,0.00,,CLR,0.00,VWS V14.01,2013-09-26 11:04:00,
2013-09-26 07:05:00,61.6,61.6,29.91,NNE,22,2.7,2.7,100,0.00,,CLR,0.00,VWS V14.01,2013-09-26 11:05:00,
2013-09-26 07:06:00,61.6,61.6,29.91,NNE,22,2.5,2.5,100,0.00,,,0.00,VWS V14.01,2013-09-26 11:06:00,
2013-09-26 07:07:00,61.6,61.6,29.91,NNE,22,1.6,1.6,100,0.00,,CLR,0.00,VWS V14.01,2013-09-26 11:07:00,
2013-09-26 07:08:00,61.6,61.6,29.91,NNE,22,2.5,2.5,100,0.00,,CLR,0.00,VWS V14.01,2013-09-26 11:08:00,
2013-09-26 07:09:00,61.6,61.6,29.91,NNE,22,2.5,2.5,100,0.00,,CLR,0.00,VWS V14.01,2013-09-26 11:09:00,
2013-09-26 07:10:00,61.6,61.6,29.91,NNE,22,2.9,2.9,100,0.00,,CLR,0.00,VWS V14.01,2013-09-26 11:10:00,
2013-09-26 07:11:00,61.6,61.6,29.91,NNE,22,2.0,2.0,100,0.00,,,0.00,VWS V14.01,2013-09-26 11:11:00,
2013-09-26 07:12:00,61.6,61.6,29.91,North,0,1.3,1.3,100,0.00,,CLR,0.00,VWS V14.01,2013-09-26 11:12:00,
2013-09-26 07:13:00,61.6,61.6,29.91,NNE,22,2.5,2.5,100,0.00,,CLR,0.00,VWS V14.01,2013-09-26 11:13:00,
2013-09-26 07:14:00,61.6,61.6,29.91,NNE,22,2.0,2.0,100,0.00,,CLR,0.00,VWS V14.01,2013-09-26 11:14:00,
2013-09-26 07:15:00,61.6,61.6,29.91,NNW,338,2.7,2.7,100,0.00,,CLR,0.00,VWS V14.01,2013-09-26 11:15:00,
2013-09-26 07:16:00,61.6,61.6,29.91,NNE,22,2.7,2.7,100,0.00,,,0.00,VWS V14.01,2013-09-26 11:16:00,
2013-09-26 07:17:00,61.6,61.6,29.91,NE,45,3.1,3.1,100,0.00,,CLR,0.00,VWS V14.01,2013-09-26 11:17:00,
2013-09-26 07:18:00,61.6,61.6,29.91,NNE,22,1.3,1.3,100,0.00,,CLR,0.00,VWS V14.01,2013-09-26 11:18:00,
2013-09-26 07:19:00,61.6,61.6,29.91,NNE,22,2.9,2.9,100,0.00,,CLR,0.00,VWS V14.01,2013-09-26 11:19:00,
2013-09-26 07:20:00,61.6,61.6,29.91,NE,45,1.6,1.6,100,0.00,,CLR,0.00,VWS V14.01,2013-09-26 11:20:00,
2013-09-26 07:21:00,61.6,61.6,29.91,NE,45,2.2,2.2,100,0.00,,,0.00,VWS V14.01,2013-09-26 11:21:00,
2013-09-26 07:22:00,61.6,61.6,29.91,NE,45,3.8,3.8,100,0.00,,CLR,0.00,VWS V14.01,2013-09-26 11:22:00,
2013-09-26 07:23:00,61.6,61.6,29.91,NE,45,6.3,6.3,100,0.00,,CLR,0.00,VWS V14.01,2013-09-26 11:23:00,
2013-09-26 07:24:00,61.6,61.6,29.91,NNE,22,2.7,2.7,100,0.00,,CLR,0.00,VWS V14.01,2013-09-26 11:24:00,
2013-09-26 07:25:00,61.6,61.6,29.91,NE,45,2.7,2.7,100,0.00,,CLR,0.00,VWS V14.01,2013-09-26 11:25:00,
2013-09-26 07:26:00,61.6,61.6,29.91,NE,45,2.5,2.5,100,0.00,,,0.00,VWS V14.01,2013-09-26 11:26:00,
2013-09-26 07:27:00,61.6,61.6,29.91,NE,45,3.4,3.4,100,0.00,,CLR,0.00,VWS V14.01,2013-09-26 11:27:00,
2013-09-26 07:28:00,61.6,61.6,29.91,NNE,22,2.5,2.5,100,0.00,,CLR,0.00,VWS V14.01,2013-09-26 11:28:00,
2013-09-26 07:29:00,61.6,61.6,29.91,NE,45,2.9,2.9,100,0.00,,CLR,0.00,VWS V14.01,2013-09-26 11:29:00,
2013-09-26 07:30:00,61.7,61.7,29.91,NNE,22,2.7,2.7,100,0.00,,CLR,0.00,VWS V14.01,2013-09-26 11:30:00,
2013-09-26 07:31:00,61.7,61.7,29.91,NNE,22,1.6,1.6,100,0.00,,,0.00,VWS V14.01,2013-09-26 11:31:00,
2013-09-26 07:32:00,61.7,61.7,29.91,NNE,22,2.2,2.2,100,0.00,,CLR,0.00,VWS V14.01,2013-09-26 11:32:00,
2013-09-26 07:33:00,61.7,61.7,29.91,NNE,22,0.9,0.9,100,0.00,,CLR,0.00,VWS V14.01,2013-09-26 11:33:00,
2013-09-26 07:34:00,61.7,61.7,29.91,NNE,22,1.6,1.6,100,0.00,,CLR,0.00,VWS V14.01,2013-09-26 11:34:00,
2013-09-26 07:35:00,61.7,61.7,29.91,NE,45,2.0,2.0,100,0.00,,CLR,0.00,VWS V14.01,2013-09-26 11:35:00,
2013-09-26 07:36:00,61.7,61.7,29.91,NE,45,3.6,3.6,100,0.00,,,0.00,VWS V14.01,2013-09-26 11:36:00,
2013-09-26 07:37:00,61.7,61.7,29.91,NE,45,1.3,1.3,100,0.00,,CLR,0.00,VWS V14.01,2013-09-26 11:37:00,
2013-09-26 07:38:00,61.7,61.7,29.91,NE,45,3.8,3.8,100,0.00,,CLR,0.00,VWS V14.01,2013-09-26 11:38:00,
2013-09-26 07:39:00,61.7,61.7,29.91,NNE,22,2.7,2.7,100,0.00,,CLR,0.00,VWS V14.01,2013-09-26 11:39:00,
2013-09-26 07:40:00,61.7,61.7,29.91,NNE,22,2.7,2.7,100,0.00,,CLR,0.00,VWS V14.01,2013-09-26 11:40:00,
2013-09-26 07:41:00,61.7,61.7,29.91,NNE,22,2.2,2.2,100,0.00,,,0.00,VWS V14.01,2013-09-26 11:41:00,
2013-09-26 07:42:00,61.7,61.7,29.91,NE,45,1.6,1.6,100,0.00,,CLR,0.00,VWS V14.01,2013-09-26 11:42:00,
2013-09-26 07:43:00,61.7,61.7,29.91,NNE,22,2.7,2.7,100,0.00,,CLR,0.00,VWS V14.01,2013-09-26 11:43:00,
2013-09-26 07:44:00,61.7,61.7,29.91,NNE,22,2.7,2.7,100,0.00,,CLR,0.00,VWS V14.01,2013-09-26 11:44:00,
2013-09-26 07:45:00,61.7,61.7,29.91,NNE,22,1.3,1.3,100,0.00,,CLR,0.00,VWS V14.01,2013-09-26 11:45:00,
2013-09-26 07:46:00,61.7,61.7,29.91,NNE,22,2.5,2.5,100,0.00,,CLR,0.00,VWS V14.01,2013-09-26 11:46:00,
2013-09-26 07:47:00,61.7,61.7,29.91,NNE,22,2.5,2.5,100,0.00,,,0.00,VWS V14.01,2013-09-26 11:47:00,
2013-09-26 07:48:00,61.7,61.7,29.91,NNE,22,1.1,1.1,100,0.00,,CLR,0.00,VWS V14.01,2013-09-26 11:48:00,
2013-09-26 07:49:00,61.7,61.7,29.91,NNE,22,2.5,2.5,100,0.00,,CLR,0.00,VWS V14.01,2013-09-26 11:49:00,
2013-09-26 07:50:00,61.7,61.7,29.91,NNE,22,2.5,2.5,100,0.00,,CLR,0.00,VWS V14.01,2013-09-26 11:50:00,
2013-09-26 07:51:00,61.9,61.9,29.91,NNE,22,2.0,2.0,100,0.00,,CLR,0.00,VWS V14.01,2013-09-26 11:51:00,
2013-09-26 07:52:00,61.9,61.9,29.91,NNE,22,2.7,2.7,100,0.00,,,0.00,VWS V14.01,2013-09-26 11:52:00,
2013-09-26 07:53:00,61.9,61.9,29.91,NNE,22,2.5,2.5,100,0.00,,CLR,0.00,VWS V14.01,2013-09-26 11:53:00,
2013-09-26 07:54:00,61.9,61.9,29.91,NNE,22,2.2,2.2,100,0.00,,CLR,0.00,VWS V14.01,2013-09-26 11:54:00,
2013-09-26 07:55:00,61.9,61.9,29.91,NE,45,2.5,2.5,100,0.00,,CLR,0.00,VWS V14.01,2013-09-26 11:55:00,
2013-09-26 07:56:00,61.9,61.9,29.91,NNE,22,2.0,2.0,100,0.00,,CLR,0.00,VWS V14.01,2013-09-26 11:56:00,
2013-09-26 07:57:00,61.9,61.9,29.91,North,0,3.6,3.6,100,0.00,,,0.12,VWS V14.01,2013-09-26 11:57:00,
2013-09-26 07:58:00,61.9,61.9,29.91,NNE,22,2.7,2.7,100,0.00,,CLR,0.00,VWS V14.01,2013-09-26 11:58:00,
2013-09-26 07:59:00,61.9,61.9,29.91,NNE,22,3.1,3.1,100,0.00,,CLR,0.00,VWS V14.01,2013-09-26 11:59:00,
2013-09-26 08:00:00,61.9,61.9,29.91,North,0,2.7,2.7,100,0.00,,CLR,0.00,VWS V14.01,2013-09-26 12:00:00,
2013-09-26 08:01:00,61.9,61.9,29.91,NNE,22,2.5,2.5,100,0.00,,CLR,0.00,VWS V14.01,2013-09-26 12:01:00,
2013-09-26 08:02:00,62.1,62.1,29.91,North,0,3.1,3.1,100,0.00,,,0.00,VWS V14.01,2013-09-26 12:02:00,
2013-09-26 08:03:00,61.9,61.9,29.91,NNE,22,2.0,2.0,100,0.00,,CLR,0.00,VWS V14.01,2013-09-26 12:03:00,
2013-09-26 08:04:00,62.1,62.1,29.91,NNE,22,1.6,1.6,100,0.00,,CLR,0.00,VWS V14.01,2013-09-26 12:04:00,
2013-09-26 08:05:00,62.1,62.1,29.91,NNE,22,2.9,2.9,100,0.00,,CLR,0.00,VWS V14.01,2013-09-26 12:05:00,
2013-09-26 08:06:00,62.1,62.1,29.91,NNE,22,1.3,1.3,100,0.00,,CLR,0.00,VWS V14.01,2013-09-26 12:06:00,
2013-09-26 08:07:00,62.3,62.3,29.91,NNE,22,2.5,2.5,100,0.00,,,0.00,VWS V14.01,2013-09-26 12:07:00,
2013-09-26 08:08:00,62.3,62.3,29.91,North,0,2.7,2.7,100,0.00,,CLR,0.00,VWS V14.01,2013-09-26 12:08:00,
2013-09-26 08:09:00,62.3,62.3,29.91,North,0,3.1,3.1,100,0.00,,CLR,0.00,VWS V14.01,2013-09-26 12:09:00,
2013-09-26 08:10:00,62.3,62.3,29.91,North,0,2.7,2.7,100,0.00,,CLR,0.00,VWS V14.01,2013-09-26 12:10:00,
2013-09-26 08:11:00,62.3,62.3,29.91,North,0,5.6,5.6,100,0.00,,CLR,0.00,VWS V14.01,2013-09-26 12:11:00,
2013-09-26 08:12:00,62.6,62.6,29.91,North,0,2.2,2.2,100,0.00,,,0.00,VWS V14.01,2013-09-26 12:12:00,
2013-09-26 08:13:00,62.5,62.5,29.91,NNE,22,3.6,3.6,100,0.00,,CLR,0.00,VWS V14.01,2013-09-26 12:13:00,
2013-09-26 08:14:00,62.6,62.6,29.91,NW,315,1.6,1.6,100,0.00,,CLR,0.00,VWS V14.01,2013-09-26 12:14:00,
2013-09-26 08:15:00,62.6,62.6,29.91,North,0,2.2,2.2,100,0.00,,CLR,0.00,VWS V14.01,2013-09-26 12:15:00,
2013-09-26 08:16:00,62.8,62.8,29.91,NNE,22,2.0,2.0,100,0.00,,CLR,0.00,VWS V14.01,2013-09-26 12:16:00,
2013-09-26 08:17:00,63.0,63.0,29.91,NE,45,2.5,2.5,100,0.00,,,0.00,VWS V14.01,2013-09-26 12:17:00,
2013-09-26 08:18:00,62.8,62.8,29.91,NNE,22,3.4,3.4,100,0.00,,CLR,0.00,VWS V14.01,2013-09-26 12:18:00,
2013-09-26 08:19:00,62.8,62.8,29.91,NNE,22,2.9,2.9,100,0.00,,CLR,0.00,VWS V14.01,2013-09-26 12:19:00,
2013-09-26 08:20:00,63.0,63.0,29.91,NE,45,2.9,2.9,100,0.00,,CLR,0.00,VWS V14.01,2013-09-26 12:20:00,
2013-09-26 08:21:00,62.8,62.8,29.91,NE,45,4.3,4.3,100,0.00,,CLR,0.00,VWS V14.01,2013-09-26 12:21:00,
2013-09-26 08:22:00,63.2,63.2,29.91,NNE,22,2.9,2.9,100,0.00,,,0.00,VWS V14.01,2013-09-26 12:22:00,
2013-09-26 08:23:00,63.0,63.0,29.91,ENE,68,3.6,3.6,100,0.00,,CLR,0.00,VWS V14.01,2013-09-26 12:23:00,
2013-09-26 08:24:00,63.2,63.2,29.91,North,0,3.1,3.1,100,0.00,,CLR,0.00,VWS V14.01,2013-09-26 12:24:00,
2013-09-26 08:25:00,63.2,63.2,29.91,NNE,22,2.9,2.9,100,0.00,,CLR,0.00,VWS V14.01,2013-09-26 12:25:00,
2013-09-26 08:26:00,63.4,63.4,29.91,NNE,22,1.6,1.6,100,0.00,,CLR,0.00,VWS V14.01,2013-09-26 12:26:00,
2013-09-26 08:27:00,63.4,63.4,29.91,NNE,22,2.5,2.5,100,0.00,,,0.00,VWS V14.01,2013-09-26 12:27:00,
2013-09-26 08:28:00,63.2,63.2,29.91,NNE,22,5.6,5.6,100,0.00,,CLR,0.00,VWS V14.01,2013-09-26 12:28:00,
2013-09-26 08:29:00,63.4,63.4,29.91,North,0,3.4,3.4,100,0.00,,CLR,0.00,VWS V14.01,2013-09-26 12:29:00,
2013-09-26 08:30:00,63.4,63.4,29.91,NNE,22,2.5,2.5,100,0.00,,CLR,0.00,VWS V14.01,2013-09-26 12:30:00,
2013-09-26 08:31:00,63.4,63.4,29.91,NNE,22,2.9,2.9,100,0.00,,CLR,0.00,VWS V14.01,2013-09-26 12:31:00,
2013-09-26 08:32:00,63.5,63.5,29.91,NNE,22,1.3,1.3,100,0.00,,,0.00,VWS V14.01,2013-09-26 12:32:00,
2013-09-26 08:33:00,63.7,63.7,29.91,NNE,22,2.9,2.9,100,0.00,,CLR,0.00,VWS V14.01,2013-09-26 12:33:00,
2013-09-26 08:34:00,63.5,63.5,29.91,North,0,3.1,3.1,100,0.00,,CLR,0.00,VWS V14.01,2013-09-26 12:34:00,
2013-09-26 08:35:00,63.5,63.5,29.91,NNE,22,1.3,1.3,100,0.00,,CLR,0.00,VWS V14.01,2013-09-26 12:35:00,
2013-09-26 08:36:00,63.5,63.5,29.91,NNE,22,3.8,3.8,100,0.00,,CLR,0.00,VWS V14.01,2013-09-26 12:36:00,
2013-09-26 08:37:00,63.7,63.7,29.91,NE,45,3.6,3.6,100,0.00,,,0.00,VWS V14.01,2013-09-26 12:37:00,
2013-09-26 08:38:00,63.5,63.5,29.91,North,0,3.8,3.8,100,0.00,,CLR,0.00,VWS V14.01,2013-09-26 12:38:00,
2013-09-26 08:39:00,63.5,63.5,29.91,NNE,22,2.9,2.9,100,0.00,,CLR,0.00,VWS V14.01,2013-09-26 12:39:00,
2013-09-26 08:40:00,63.7,63.7,29.91,NE,45,3.6,3.6,100,0.00,,CLR,0.00,VWS V14.01,2013-09-26 12:40:00,
2013-09-26 08:41:00,63.5,63.5,29.91,NNE,22,2.9,2.9,100,0.00,,CLR,0.00,VWS V14.01,2013-09-26 12:41:00,
2013-09-26 08:42:00,64.1,64.1,29.91,NNE,22,3.8,3.8,100,0.00,,,0.00,VWS V14.01,2013-09-26 12:42:00,
2013-09-26 08:43:00,63.9,63.9,29.91,North,0,3.1,3.1,100,0.00,,CLR,0.00,VWS V14.01,2013-09-26 12:43:00,
2013-09-26 08:44:00,64.1,64.1,29.91,North,0,2.5,2.5,100,0.00,,CLR,0.00,VWS V14.01,2013-09-26 12:44:00,
2013-09-26 08:45:00,64.1,64.1,29.91,NNE,22,3.8,3.8,100,0.00,,CLR,0.00,VWS V14.01,2013-09-26 12:45:00,
2013-09-26 08:46:00,63.7,63.7,29.91,NW,315,4.0,4.0,100,0.00,,CLR,0.00,VWS V14.01,2013-09-26 12:46:00,
2013-09-26 08:47:00,64.1,64.1,29.91,NNE,22,3.6,3.6,100,0.00,,,0.00,VWS V14.01,2013-09-26 12:47:00,
2013-09-26 08:48:00,63.9,63.9,29.91,North,0,2.7,2.7,100,0.00,,CLR,0.00,VWS V14.01,2013-09-26 12:48:00,
2013-09-26 08:49:00,63.9,63.9,29.91,NNE,22,2.9,2.9,100,0.00,,CLR,0.00,VWS V14.01,2013-09-26 12:49:00,
2013-09-26 08:50:00,64.1,64.1,29.91,NNE,22,3.6,3.6,100,0.00,,CLR,0.00,VWS V14.01,2013-09-26 12:50:00,
2013-09-26 08:51:00,63.7,63.7,29.91,NNE,22,4.3,4.3,100,0.00,,CLR,0.00,VWS V14.01,2013-09-26 12:51:00,
2013-09-26 08:52:00,63.5,63.5,29.91,NNE,22,5.4,5.4,100,0.00,,,0.00,VWS V14.01,2013-09-26 12:52:00,
2013-09-26 08:53:00,63.5,63.5,29.91,NNW,338,4.3,4.3,100,0.00,,CLR,0.00,VWS V14.01,2013-09-26 12:53:00,
2013-09-26 08:54:00,63.7,63.7,29.91,North,0,3.8,3.8,100,0.00,,CLR,0.00,VWS V14.01,2013-09-26 12:54:00,
2013-09-26 08:55:00,63.5,63.5,29.91,NNE,22,5.4,5.4,100,0.00,,CLR,0.00,VWS V14.01,2013-09-26 12:55:00,
2013-09-26 08:56:00,63.2,62.9,29.91,North,0,4.0,4.0,99,0.00,,CLR,0.00,VWS V14.01,2013-09-26 12:56:00,
2013-09-26 08:57:00,63.5,62.7,29.91,NNE,22,3.6,3.6,97,0.00,,,0.00,VWS V14.01,2013-09-26 12:57:00,
2013-09-26 08:58:00,63.2,62.3,29.91,NNE,22,3.8,3.8,97,0.00,,CLR,0.00,VWS V14.01,2013-09-26 12:58:00,
2013-09-26 08:59:00,63.4,62.5,29.91,NNE,22,3.4,3.4,97,0.00,,CLR,0.00,VWS V14.01,2013-09-26 12:59:00,
2013-09-26 09:00:00,63.5,62.7,29.91,NNE,22,3.6,3.6,97,0.00,,CLR,0.00,VWS V14.01,2013-09-26 13:00:00,
2013-09-26 09:01:00,63.2,61.4,29.91,NNE,22,6.3,6.3,94,0.00,,CLR,0.00,VWS V14.01,2013-09-26 13:01:00,
2013-09-26 09:02:00,63.7,62.3,29.91,NNE,22,4.3,4.3,95,0.00,,,0.00,VWS V14.01,2013-09-26 13:02:00,
2013-09-26 09:03:00,63.5,62.4,29.91,NE,45,4.3,4.3,96,0.00,,CLR,0.00,VWS V14.01,2013-09-26 13:03:00,
2013-09-26 09:04:00,63.5,61.8,29.91,NE,45,4.0,4.0,94,0.00,,CLR,0.00,VWS V14.01,2013-09-26 13:04:00,
2013-09-26 09:05:00,63.7,62.3,29.91,NNE,22,4.3,4.3,95,0.00,,CLR,0.00,VWS V14.01,2013-09-26 13:05:00,
2013-09-26 09:06:00,63.9,62.4,29.91,NE,45,3.1,3.1,95,0.00,,CLR,0.00,VWS V14.01,2013-09-26 13:06:00,
2013-09-26 09:07:00,63.9,61.8,29.91,NNE,22,3.8,3.8,93,0.00,,,0.00,VWS V14.01,2013-09-26 13:07:00,
2013-09-26 09:08:00,63.7,61.4,29.91,NNE,22,3.8,3.8,92,0.00,,CLR,0.00,VWS V14.01,2013-09-26 13:08:00,
2013-09-26 09:09:00,63.7,61.4,29.91,NE,45,3.4,3.4,92,0.00,,CLR,0.00,VWS V14.01,2013-09-26 13:09:00,
2013-09-26 09:10:00,63.9,61.8,29.91,NNE,22,3.8,3.8,93,0.00,,CLR,0.00,VWS V14.01,2013-09-26 13:10:00,
2013-09-26 09:11:00,63.9,61.8,29.91,NE,45,3.1,3.1,93,0.00,,CLR,0.00,VWS V14.01,2013-09-26 13:11:00,
2013-09-26 09:12:00,64.3,61.6,29.91,NNE,22,3.6,3.6,91,0.00,,,0.00,VWS V14.01,2013-09-26 13:12:00,
2013-09-26 09:13:00,64.3,62.8,29.91,NE,45,2.9,2.9,95,0.00,,CLR,0.00,VWS V14.01,2013-09-26 13:13:00,
2013-09-26 09:14:00,64.1,61.1,29.91,NE,45,5.4,5.4,90,0.00,,CLR,0.00,VWS V14.01,2013-09-26 13:14:00,
2013-09-26 09:15:00,64.3,61.6,29.91,NNE,22,6.5,6.5,91,0.00,,CLR,0.00,VWS V14.01,2013-09-26 13:15:00,
2013-09-26 09:16:00,64.6,63.2,29.91,NE,45,6.3,6.3,95,0.00,,CLR,0.00,VWS V14.01,2013-09-26 13:16:00,
2013-09-26 09:17:00,64.4,60.8,29.91,NNE,22,3.4,3.4,88,0.00,,,0.00,VWS V14.01,2013-09-26 13:17:00,
2013-09-26 09:18:00,64.8,63.0,29.91,NNE,22,8.1,8.1,94,0.00,,CLR,0.00,VWS V14.01,2013-09-26 13:18:00,
2013-09-26 09:19:00,64.4,60.8,29.91,North,0,6.3,6.3,88,0.00,,CLR,0.00,VWS V14.01,2013-09-26 13:19:00,
2013-09-26 09:20:00,64.4,60.8,29.91,NE,45,4.7,4.7,88,0.00,,CLR,0.00,VWS V14.01,2013-09-26 13:20:00,
2013-09-26 09:21:00,64.4,60.8,29.91,NNE,22,5.8,5.8,88,0.00,,CLR,0.00,VWS V14.01,2013-09-26 13:21:00,
2013-09-26 09:22:00,64.6,61.0,29.94,NNE,22,4.3,4.3,88,0.00,,,0.00,VWS V14.01,2013-09-26 13:22:00,
2013-09-26 09:23:00,64.6,61.6,29.91,NNE,22,3.1,3.1,90,0.00,,CLR,0.00,VWS V14.01,2013-09-26 13:23:00,
2013-09-26 09:24:00,64.6,61.6,29.91,ENE,68,4.9,4.9,90,0.00,,CLR,0.00,VWS V14.01,2013-09-26 13:24:00,
2013-09-26 09:25:00,64.6,61.3,29.94,NE,45,5.4,5.4,89,0.00,,CLR,0.00,VWS V14.01,2013-09-26 13:25:00,
2013-09-26 09:26:00,64.6,61.0,29.94,NNE,22,3.6,3.6,88,0.00,,CLR,0.00,VWS V14.01,2013-09-26 13:26:00,
2013-09-26 09:27:00,64.4,59.2,29.94,NE,45,6.0,6.0,83,0.00,,,0.00,VWS V14.01,2013-09-26 13:27:00,
2013-09-26 09:28:00,64.6,60.0,29.94,NE,45,6.3,6.3,85,0.00,,CLR,0.00,VWS V14.01,2013-09-26 13:28:00,
2013-09-26 09:29:00,64.4,59.2,29.94,ENE,68,7.4,7.4,83,0.00,,CLR,0.00,VWS V14.01,2013-09-26 13:29:00,
2013-09-26 09:30:00,64.4,59.2,29.94,ENE,68,4.9,4.9,83,0.00,,CLR,0.00,VWS V14.01,2013-09-26 13:30:00,
2013-09-26 09:31:00,64.6,60.0,29.94,NE,45,7.2,7.2,85,0.00,,CLR,0.00,VWS V14.01,2013-09-26 13:31:00,
2013-09-26 09:32:00,64.8,59.5,29.94,NE,45,4.3,4.3,83,0.00,,,0.00,VWS V14.01,2013-09-26 13:32:00,
2013-09-26 09:33:00,64.4,58.5,29.94,NE,45,5.8,5.8,81,0.00,,CLR,0.00,VWS V14.01,2013-09-26 13:33:00,
2013-09-26 09:34:00,64.6,59.3,29.94,NNE,22,5.4,5.4,83,0.00,,CLR,0.00,VWS V14.01,2013-09-26 13:34:00,
2013-09-26 09:35:00,64.8,59.9,29.94,NNE,22,5.4,5.4,84,0.00,,CLR,0.00,VWS V14.01,2013-09-26 13:35:00,
2013-09-26 09:36:00,65.0,60.7,29.94,NNE,22,4.9,4.9,86,0.00,,CLR,0.00,VWS V14.01,2013-09-26 13:36:00,
2013-09-26 09:37:00,65.0,59.4,29.94,NE,45,5.6,5.6,82,0.00,,OVC085,0.00,VWS V14.01,2013-09-26 13:37:00,
2013-09-26 09:38:00,65.0,59.4,29.94,NNE,22,6.3,6.3,82,0.00,,CLR,0.00,VWS V14.01,2013-09-26 13:38:00,
2013-09-26 09:39:00,65.0,59.4,29.94,NE,45,4.9,4.9,82,0.00,,CLR,0.00,VWS V14.01,2013-09-26 13:39:00,
2013-09-26 09:40:00,65.0,58.7,29.94,NE,45,6.5,6.5,80,0.00,,CLR,0.00,VWS V14.01,2013-09-26 13:40:00,
2013-09-26 09:41:00,65.0,59.4,29.94,NE,45,6.9,6.9,82,0.00,,CLR,0.00,VWS V14.01,2013-09-26 13:41:00,
2013-09-26 09:42:00,64.6,58.0,29.94,NE,45,5.4,5.4,79,0.00,,CLR,0.00,VWS V14.01,2013-09-26 13:42:00,
2013-09-26 09:43:00,64.8,57.4,29.94,NNE,22,3.8,3.8,77,0.00,,OVC085,0.00,VWS V14.01,2013-09-26 13:43:00,
2013-09-26 09:44:00,64.8,57.4,29.94,NE,45,5.6,5.6,77,0.00,,CLR,0.00,VWS V14.01,2013-09-26 13:44:00,
2013-09-26 09:45:00,64.8,57.4,29.94,NE,45,3.8,3.8,77,0.00,,CLR,0.00,VWS V14.01,2013-09-26 13:45:00,
2013-09-26 09:46:00,65.2,58.5,29.94,North,0,6.0,6.0,79,0.00,,CLR,0.00,VWS V14.01,2013-09-26 13:46:00,
2013-09-26 09:47:00,65.2,57.8,29.94,NNE,22,4.9,4.9,77,0.00,,CLR,0.00,VWS V14.01,2013-09-26 13:47:00,
2013-09-26 09:48:00,65.5,58.1,29.94,NNE,22,2.7,2.7,77,0.00,,OVC085,0.00,VWS V14.01,2013-09-26 13:48:00,
2013-09-26 09:49:00,65.3,57.6,29.94,NE,45,4.9,4.9,76,0.00,,CLR,0.00,VWS V14.01,2013-09-26 13:49:00,
2013-09-26 09:50:00,65.3,57.6,29.94,NNE,22,3.1,3.1,76,0.00,,CLR,0.00,VWS V14.01,2013-09-26 13:50:00,
2013-09-26 09:51:00,65.5,58.1,29.94,NNE,22,3.6,3.6,77,0.00,,CLR,0.00,VWS V14.01,2013-09-26 13:51:00,
2013-09-26 09:52:00,65.7,58.3,29.94,North,0,6.0,6.0,77,0.00,,CLR,0.00,VWS V14.01,2013-09-26 13:52:00,
2013-09-26 09:53:00,65.5,57.0,29.94,NE,45,5.8,5.8,74,0.00,,OVC085,0.00,VWS V14.01,2013-09-26 13:53:00,
2013-09-26 09:54:00,65.7,57.9,29.94,NE,45,5.8,5.8,76,0.00,,CLR,0.00,VWS V14.01,2013-09-26 13:54:00,
2013-09-26 09:55:00,65.5,56.7,29.94,NE,45,4.9,4.9,73,0.00,,CLR,0.00,VWS V14.01,2013-09-26 13:55:00,
2013-09-26 09:56:00,65.5,57.0,29.94,NE,45,4.3,4.3,74,0.00,,CLR,0.00,VWS V14.01,2013-09-26 13:56:00,
2013-09-26 09:57:00,65.7,57.6,29.94,NE,45,3.8,3.8,75,0.00,,CLR,0.00,VWS V14.01,2013-09-26 13:57:00,
2013-09-26 09:58:00,65.9,57.0,29.94,NE,45,4.9,4.9,73,0.00,,OVC085,0.00,VWS V14.01,2013-09-26 13:58:00,
2013-09-26 09:59:00,66.1,56.8,29.94,ENE,68,4.0,4.0,72,0.00,,CLR,0.00,VWS V14.01,2013-09-26 13:59:00,
2013-09-26 10:00:00,65.9,57.0,29.94,NE,45,5.4,5.4,73,0.00,,CLR,0.00,VWS V14.01,2013-09-26 14:00:00,
2013-09-26 10:01:00,65.9,57.0,29.94,NE,45,4.9,4.9,73,0.00,,CLR,0.00,VWS V14.01,2013-09-26 14:01:00,
2013-09-26 10:02:00,65.9,57.0,29.94,ENE,68,4.3,4.3,73,0.00,,CLR,0.00,VWS V14.01,2013-09-26 14:02:00,
2013-09-26 10:03:00,66.2,57.3,29.94,NE,45,4.9,4.9,73,0.00,,OVC085,0.00,VWS V14.01,2013-09-26 14:03:00,
2013-09-26 10:04:00,65.9,56.6,29.94,NNE,22,4.9,4.9,72,0.00,,CLR,0.00,VWS V14.01,2013-09-26 14:04:00,
2013-09-26 10:05:00,66.1,57.5,29.94,NNE,22,2.5,2.5,74,0.00,,CLR,0.00,VWS V14.01,2013-09-26 14:05:00,
2013-09-26 10:06:00,66.2,57.3,29.94,NE,45,4.9,4.9,73,0.00,,CLR,0.00,VWS V14.01,2013-09-26 14:06:00,
2013-09-26 10:07:00,66.4,58.3,29.94,North,0,3.8,3.8,75,0.00,,CLR,0.00,VWS V14.01,2013-09-26 14:07:00,
2013-09-26 10:08:00,66.8,57.9,29.97,NNE,22,4.5,4.5,73,0.00,,OVC085,0.00,VWS V14.01,2013-09-26 14:08:00,
2013-09-26 10:09:00,66.4,57.9,29.94,NNE,22,2.7,2.7,74,0.00,,CLR,0.00,VWS V14.01,2013-09-26 14:09:00,
2013-09-26 10:10:00,66.8,59.0,29.97,NE,45,4.9,4.9,76,0.00,,CLR,0.00,VWS V14.01,2013-09-26 14:10:00,
2013-09-26 10:11:00,66.8,57.9,29.97,NNE,22,4.5,4.5,73,0.00,,CLR,0.00,VWS V14.01,2013-09-26 14:11:00,
2013-09-26 10:12:00,66.6,56.9,29.97,NE,45,2.7,2.7,71,0.00,,CLR,0.00,VWS V14.01,2013-09-26 14:12:00,
2013-09-26 10:13:00,66.8,57.1,29.97,NNE,22,5.8,5.8,71,0.00,,OVC085,0.00,VWS V14.01,2013-09-26 14:13:00,
2013-09-26 10:14:00,66.6,56.9,29.97,North,0,6.0,6.0,71,0.00,,CLR,0.00,VWS V14.01,2013-09-26 14:14:00,
2013-09-26 10:15:00,66.8,57.1,29.97,North,0,5.4,5.4,71,0.00,,CLR,0.00,VWS V14.01,2013-09-26 14:15:00,
2013-09-26 10:16:00,66.8,57.1,29.97,NNE,22,5.8,5.8,71,0.00,,CLR,0.00,VWS V14.01,2013-09-26 14:16:00,
2013-09-26 10:17:00,66.8,57.1,29.97,NNE,22,3.1,3.1,71,0.00,,CLR,0.00,VWS V14.01,2013-09-26 14:17:00,
2013-09-26 10:18:00,67.3,58.0,29.97,NNE,22,3.4,3.4,72,0.00,,OVC085,0.00,VWS V14.01,2013-09-26 14:18:00,
2013-09-26 10:19:00,67.0,57.7,29.97,North,0,4.5,4.5,72,0.00,,CLR,0.00,VWS V14.01,2013-09-26 14:19:00,
2013-09-26 10:20:00,67.1,57.8,29.97,North,0,3.4,3.4,72,0.00,,CLR,0.00,VWS V14.01,2013-09-26 14:20:00,
2013-09-26 10:21:00,67.3,58.0,29.97,NNE,22,3.4,3.4,72,0.00,,CLR,0.00,VWS V14.01,2013-09-26 14:21:00,
2013-09-26 10:22:00,67.5,58.2,29.97,North,0,3.6,3.6,72,0.00,,CLR,0.00,VWS V14.01,2013-09-26 14:22:00,
2013-09-26 10:23:00,67.9,58.1,29.94,North,0,5.4,5.4,71,0.00,,OVC085,0.00,VWS V14.01,2013-09-26 14:23:00,
2013-09-26 10:24:00,67.5,57.8,29.97,NNE,22,3.4,3.4,71,0.00,,CLR,0.00,VWS V14.01,2013-09-26 14:24:00,
2013-09-26 10:25:00,67.7,57.6,29.94,NNE,22,3.8,3.8,70,0.00,,CLR,0.00,VWS V14.01,2013-09-26 14:25:00,
2013-09-26 10:26:00,67.9,58.1,29.94,North,0,5.4,5.4,71,0.00,,CLR,0.00,VWS V14.01,2013-09-26 14:26:00,
2013-09-26 10:27:00,67.9,57.7,29.94,NNE,22,4.0,4.0,70,0.00,,CLR,0.00,VWS V14.01,2013-09-26 14:27:00,
2013-09-26 10:28:00,67.9,57.7,29.94,North,0,3.1,3.1,70,0.00,,OVC085,0.00,VWS V14.01,2013-09-26 14:28:00,
2013-09-26 10:29:00,67.7,56.3,29.94,NNE,22,4.5,4.5,67,0.00,,CLR,0.00,VWS V14.01,2013-09-26 14:29:00,
2013-09-26 10:30:00,67.7,57.2,29.94,NE,45,4.0,4.0,69,0.00,,CLR,0.00,VWS V14.01,2013-09-26 14:30:00,
2013-09-26 10:31:00,67.9,57.7,29.94,North,0,3.1,3.1,70,0.00,,CLR,0.00,VWS V14.01,2013-09-26 14:31:00,
2013-09-26 10:32:00,68.2,58.9,29.94,NE,45,3.4,3.4,72,0.00,,CLR,0.00,VWS V14.01,2013-09-26 14:32:00,
2013-09-26 10:33:00,68.6,58.0,29.94,North,0,3.4,3.4,69,0.00,,OVC085,0.00,VWS V14.01,2013-09-26 14:33:00,
2013-09-26 10:34:00,68.4,58.2,29.94,NE,45,3.1,3.1,70,0.00,,CLR,0.00,VWS V14.01,2013-09-26 14:34:00,
2013-09-26 10:35:00,68.4,58.2,29.94,NNE,22,2.9,2.9,70,0.00,,CLR,0.00,VWS V14.01,2013-09-26 14:35:00,
2013-09-26 10:36:00,68.6,58.0,29.94,North,0,3.4,3.4,69,0.00,,CLR,0.00,VWS V14.01,2013-09-26 14:36:00,
2013-09-26 10:37:00,68.2,58.5,29.94,North,0,4.9,4.9,71,0.00,,CLR,0.00,VWS V14.01,2013-09-26 14:37:00,
2013-09-26 10:38:00,68.6,57.2,29.97,NE,45,5.6,5.6,67,0.00,,CLR,0.00,VWS V14.01,2013-09-26 14:38:00,
2013-09-26 10:39:00,68.6,58.0,29.94,NNW,338,2.9,2.9,69,0.00,,CLR,0.00,VWS V14.01,2013-09-26 14:39:00,
2013-09-26 10:40:00,68.6,57.6,29.94,NE,45,3.6,3.6,68,0.00,,CLR,0.00,VWS V14.01,2013-09-26 14:40:00,
2013-09-26 10:41:00,68.6,57.2,29.97,NE,45,5.6,5.6,67,0.00,,CLR,0.00,VWS V14.01,2013-09-26 14:41:00,
2013-09-26 10:42:00,68.8,59.0,29.97,NNE,22,6.5,6.5,71,0.00,,CLR,0.00,VWS V14.01,2013-09-26 14:42:00,
2013-09-26 10:43:00,68.6,57.2,29.97,North,0,4.0,4.0,67,0.00,,CLR,0.00,VWS V14.01,2013-09-26 14:43:00,
2013-09-26 10:44:00,68.9,58.8,29.97,NE,45,4.9,4.9,70,0.00,,CLR,0.00,VWS V14.01,2013-09-26 14:44:00,
2013-09-26 10:45:00,68.4,56.6,29.97,NNE,22,5.8,5.8,66,0.00,,CLR,0.00,VWS V14.01,2013-09-26 14:45:00,
2013-09-26 10:46:00,68.6,57.2,29.97,North,0,4.0,4.0,67,0.00,,CLR,0.00,VWS V14.01,2013-09-26 14:46:00,
2013-09-26 10:47:00,68.6,57.2,29.97,North,0,4.0,4.0,67,0.00,,CLR,0.00,VWS V14.01,2013-09-26 14:47:00,
2013-09-26 10:48:00,68.8,57.4,29.97,NNE,22,8.1,8.1,67,0.00,,CLR,0.00,VWS V14.01,2013-09-26 14:48:00,
2013-09-26 10:49:00,68.9,57.5,29.97,North,0,3.6,3.6,67,0.00,,CLR,0.00,VWS V14.01,2013-09-26 14:49:00,
2013-09-26 10:50:00,68.9,57.5,29.97,NNE,22,8.5,8.5,67,0.00,,CLR,0.00,VWS V14.01,2013-09-26 14:50:00,
2013-09-26 10:51:00,68.8,57.4,29.97,NNE,22,8.1,8.1,67,0.00,,CLR,0.00,VWS V14.01,2013-09-26 14:51:00,
2013-09-26 10:52:00,68.8,57.4,29.97,NNE,22,5.6,5.6,67,0.00,,CLR,0.00,VWS V14.01,2013-09-26 14:52:00,
2013-09-26 10:53:00,69.1,56.4,29.97,NNE,22,5.6,5.6,64,0.00,,CLR,0.00,VWS V14.01,2013-09-26 14:53:00,
2013-09-26 10:54:00,69.1,57.3,29.97,NNE,22,6.0,6.0,66,0.00,,CLR,0.00,VWS V14.01,2013-09-26 14:54:00,
2013-09-26 10:55:00,68.9,55.0,29.97,NE,45,6.3,6.3,61,0.00,,CLR,0.00,VWS V14.01,2013-09-26 14:55:00,
2013-09-26 10:56:00,69.1,56.4,29.97,NE,45,5.6,5.6,64,0.00,,CLR,0.00,VWS V14.01,2013-09-26 14:56:00,
2013-09-26 10:57:00,69.1,56.4,29.97,NE,45,8.1,8.1,64,0.00,,CLR,0.00,VWS V14.01,2013-09-26 14:57:00,
2013-09-26 10:58:00,68.8,56.1,29.97,NE,45,8.1,8.1,64,0.00,,CLR,0.00,VWS V14.01,2013-09-26 14:58:00,
2013-09-26 10:59:00,69.1,56.9,29.97,ENE,68,5.6,5.6,65,0.00,,CLR,0.00,VWS V14.01,2013-09-26 14:59:00,
2013-09-26 11:00:00,68.8,55.2,29.97,East,90,6.0,6.0,62,0.00,,CLR,0.00,VWS V14.01,2013-09-26 15:00:00,
2013-09-26 11:01:00,68.8,56.1,29.97,NNE,22,4.3,4.3,64,0.00,,CLR,0.00,VWS V14.01,2013-09-26 15:01:00,
2013-09-26 11:02:00,68.9,56.3,29.97,ENE,68,4.7,4.7,64,0.00,,CLR,0.00,VWS V14.01,2013-09-26 15:02:00,
2013-09-26 11:03:00,70.2,60.0,29.97,North,0,4.9,4.9,70,0.00,,CLR,0.00,VWS V14.01,2013-09-26 15:03:00,
2013-09-26 11:04:00,69.1,56.4,29.97,ENE,68,7.2,7.2,64,0.00,,CLR,0.00,VWS V14.01,2013-09-26 15:04:00,
2013-09-26 11:05:00,69.7,59.8,29.97,NE,45,5.6,5.6,71,0.00,,CLR,0.00,VWS V14.01,2013-09-26 15:05:00,
2013-09-26 11:06:00,69.8,59.6,29.97,NNE,22,8.7,8.7,70,0.00,,CLR,0.00,VWS V14.01,2013-09-26 15:06:00,
2013-09-26 11:07:00,70.0,57.3,29.97,NNE,22,2.9,2.9,64,0.00,,CLR,0.00,VWS V14.01,2013-09-26 15:07:00,
2013-09-26 11:08:00,70.4,59.3,29.97,North,0,3.1,3.1,68,0.00,,CLR,0.00,VWS V14.01,2013-09-26 15:08:00,
2013-09-26 11:09:00,70.0,58.6,29.97,NNE,22,3.8,3.8,67,0.00,,CLR,0.00,VWS V14.01,2013-09-26 15:09:00,
2013-09-26 11:10:00,70.0,59.4,29.97,NE,45,2.9,2.9,69,0.00,,CLR,0.00,VWS V14.01,2013-09-26 15:10:00,
2013-09-26 11:11:00,70.4,59.3,29.97,NNE,22,3.6,3.6,68,0.00,,CLR,0.00,VWS V14.01,2013-09-26 15:11:00,
2013-09-26 11:12:00,70.4,59.3,29.97,North,0,4.0,4.0,68,0.00,,CLR,0.00,VWS V14.01,2013-09-26 15:12:00,
2013-09-26 11:13:00,70.0,57.3,29.97,NE,45,5.4,5.4,64,0.00,,CLR,0.00,VWS V14.01,2013-09-26 15:13:00,
2013-09-26 11:14:00,70.4,59.3,29.97,NE,45,5.8,5.8,68,0.00,,CLR,0.00,VWS V14.01,2013-09-26 15:14:00,
2013-09-26 11:15:00,70.0,57.3,29.97,NE,45,6.5,6.5,64,0.00,,CLR,0.00,VWS V14.01,2013-09-26 15:15:00,
2013-09-26 11:16:00,70.0,57.3,29.97,ENE,68,7.4,7.4,64,0.00,,CLR,0.00,VWS V14.01,2013-09-26 15:16:00,
2013-09-26 11:17:00,70.0,57.3,29.97,NE,45,5.6,5.6,64,0.00,,CLR,0.00,VWS V14.01,2013-09-26 15:17:00,
2013-09-26 11:18:00,70.0,57.3,29.97,NNE,22,3.8,3.8,64,0.00,,CLR,0.00,VWS V14.01,2013-09-26 15:18:00,
2013-09-26 11:19:00,69.8,56.2,29.97,NNE,22,5.6,5.6,62,0.00,,CLR,0.00,VWS V14.01,2013-09-26 15:19:00,
2013-09-26 11:20:00,69.8,57.1,29.97,North,0,4.7,4.7,64,0.00,,CLR,0.00,VWS V14.01,2013-09-26 15:20:00,
2013-09-26 11:21:00,70.0,57.7,29.97,NNE,22,4.9,4.9,65,0.00,,CLR,0.00,VWS V14.01,2013-09-26 15:21:00,
2013-09-26 11:22:00,70.0,57.3,29.97,North,0,4.3,4.3,64,0.00,,CLR,0.00,VWS V14.01,2013-09-26 15:22:00,
2013-09-26 11:23:00,70.4,58.5,29.97,North,0,3.6,3.6,66,0.00,,CLR,0.00,VWS V14.01,2013-09-26 15:23:00,
2013-09-26 11:24:00,70.2,57.5,29.97,NNE,22,6.5,6.5,64,0.00,,CLR,0.00,VWS V14.01,2013-09-26 15:24:00,
2013-09-26 11:25:00,70.2,57.5,29.97,North,0,5.6,5.6,64,0.00,,CLR,0.00,VWS V14.01,2013-09-26 15:25:00,
2013-09-26 11:26:00,70.4,58.5,29.97,NNE,22,7.2,7.2,66,0.00,,CLR,0.00,VWS V14.01,2013-09-26 15:26:00,
2013-09-26 11:27:00,70.4,58.5,29.97,North,0,7.8,7.8,66,0.00,,CLR,0.00,VWS V14.01,2013-09-26 15:27:00,
2013-09-26 11:28:00,70.2,57.5,29.97,NE,45,3.1,3.1,64,0.00,,CLR,0.00,VWS V14.01,2013-09-26 15:28:00,
2013-09-26 11:29:00,70.2,57.9,29.97,North,0,6.5,6.5,65,0.00,,CLR,0.00,VWS V14.01,2013-09-26 15:29:00,
2013-09-26 11:30:00,70.2,57.5,29.97,NNE,22,6.0,6.0,64,0.00,,CLR,0.00,VWS V14.01,2013-09-26 15:30:00,
2013-09-26 11:31:00,70.2,57.5,29.97,NNW,338,6.3,6.3,64,0.00,,CLR,0.00,VWS V14.01,2013-09-26 15:31:00,
2013-09-26 11:32:00,70.2,56.6,29.97,North,0,7.2,7.2,62,0.00,,CLR,0.00,VWS V14.01,2013-09-26 15:32:00,
2013-09-26 11:33:00,70.2,56.6,29.97,NNE,22,10.5,10.5,62,0.00,,CLR,0.00,VWS V14.01,2013-09-26 15:33:00,
2013-09-26 11:34:00,69.8,56.7,29.97,NE,45,7.8,7.8,63,0.00,,CLR,0.00,VWS V14.01,2013-09-26 15:34:00,
2013-09-26 11:35:00,70.2,58.3,29.97,NNE,22,7.2,7.2,66,0.00,,CLR,0.00,VWS V14.01,2013-09-26 15:35:00,
2013-09-26 11:36:00,69.8,56.2,29.97,NNE,22,8.5,8.5,62,0.00,,CLR,0.00,VWS V14.01,2013-09-26 15:36:00,
2013-09-26 11:37:00,69.8,56.7,29.97,NNW,338,8.1,8.1,63,0.00,,CLR,0.00,VWS V14.01,2013-09-26 15:37:00,
2013-09-26 11:38:00,70.2,56.6,29.97,NE,45,7.2,7.2,62,0.00,,CLR,0.00,VWS V14.01,2013-09-26 15:38:00,
2013-09-26 11:39:00,70.6,57.4,29.97,NNE,22,4.0,4.0,63,0.00,,FEW085,0.00,VWS V14.01,2013-09-26 15:39:00,
2013-09-26 11:40:00,70.2,57.5,29.97,North,0,6.0,6.0,64,0.00,,CLR,0.00,VWS V14.01,2013-09-26 15:40:00,
2013-09-26 11:41:00,70.2,57.5,29.97,North,0,6.5,6.5,64,0.00,,CLR,0.00,VWS V14.01,2013-09-26 15:41:00,
2013-09-26 11:42:00,70.6,57.4,29.97,NNE,22,5.6,5.6,63,0.00,,CLR,0.00,VWS V14.01,2013-09-26 15:42:00,
2013-09-26 11:43:00,70.4,55.8,29.97,NE,45,6.5,6.5,60,0.00,,CLR,0.00,VWS V14.01,2013-09-26 15:43:00,
2013-09-26 11:44:00,70.6,57.4,29.97,NNE,22,5.4,5.4,63,0.00,,FEW085,0.00,VWS V14.01,2013-09-26 15:44:00,
2013-09-26 11:45:00,70.6,56.0,29.97,NNE,22,5.4,5.4,60,0.00,,CLR,0.00,VWS V14.01,2013-09-26 15:45:00,
2013-09-26 11:46:00,70.6,56.9,29.97,NNE,22,4.0,4.0,62,0.00,,CLR,0.00,VWS V14.01,2013-09-26 15:46:00,
2013-09-26 11:47:00,70.6,57.4,29.97,NNE,22,5.6,5.6,63,0.00,,CLR,0.00,VWS V14.01,2013-09-26 15:47:00,
2013-09-26 11:48:00,70.6,57.4,29.97,NNE,22,4.3,4.3,63,0.00,,CLR,0.00,VWS V14.01,2013-09-26 15:48:00,
2013-09-26 11:49:00,71.5,57.8,29.97,NNE,22,6.5,6.5,62,0.00,,FEW085,0.00,VWS V14.01,2013-09-26 15:49:00,
2013-09-26 11:50:00,70.9,57.3,29.97,North,0,3.1,3.1,62,0.00,,CLR,0.00,VWS V14.01,2013-09-26 15:50:00,
2013-09-26 11:51:00,71.3,58.0,29.97,NNE,22,3.6,3.6,63,0.00,,CLR,0.00,VWS V14.01,2013-09-26 15:51:00,
2013-09-26 11:52:00,71.5,57.8,29.97,NNE,22,6.5,6.5,62,0.00,,CLR,0.00,VWS V14.01,2013-09-26 15:52:00,
2013-09-26 11:53:00,71.5,58.2,29.97,North,0,5.4,5.4,63,0.00,,CLR,0.00,VWS V14.01,2013-09-26 15:53:00,
2013-09-26 11:54:00,71.1,57.4,29.97,North,0,7.2,7.2,62,0.00,,FEW085,0.00,VWS V14.01,2013-09-26 15:54:00,
2013-09-26 11:55:00,71.1,57.4,29.97,NE,45,6.5,6.5,62,0.00,,CLR,0.00,VWS V14.01,2013-09-26 15:55:00,
2013-09-26 11:56:00,71.1,56.5,29.97,NNE,22,5.4,5.4,60,0.00,,CLR,0.00,VWS V14.01,2013-09-26 15:56:00,
2013-09-26 11:57:00,71.1,57.4,29.97,North,0,7.2,7.2,62,0.00,,CLR,0.00,VWS V14.01,2013-09-26 15:57:00,
2013-09-26 11:58:00,71.3,58.0,29.97,North,0,4.0,4.0,63,0.00,,CLR,0.00,VWS V14.01,2013-09-26 15:58:00,
2013-09-26 11:59:00,71.1,56.5,29.97,ENE,68,5.4,5.4,60,0.00,,FEW085,0.00,VWS V14.01,2013-09-26 15:59:00,
2013-09-26 12:00:00,71.1,56.5,29.97,NNE,22,7.8,7.8,60,0.00,,CLR,0.00,VWS V14.01,2013-09-26 16:00:00,
2013-09-26 12:01:00,71.1,56.5,29.97,East,90,8.7,8.7,60,0.00,,CLR,0.00,VWS V14.01,2013-09-26 16:01:00,
2013-09-26 12:02:00,71.1,56.5,29.97,ENE,68,5.4,5.4,60,0.00,,CLR,0.00,VWS V14.01,2013-09-26 16:02:00,
2013-09-26 12:03:00,71.1,57.4,29.97,NE,45,5.6,5.6,62,0.00,,CLR,0.00,VWS V14.01,2013-09-26 16:03:00,
2013-09-26 12:04:00,71.1,56.5,29.97,ENE,68,5.6,5.6,60,0.00,,FEW085,0.00,VWS V14.01,2013-09-26 16:04:00,
2013-09-26 12:05:00,70.7,55.7,29.97,ENE,68,5.4,5.4,59,0.00,,CLR,0.00,VWS V14.01,2013-09-26 16:05:00,
2013-09-26 12:06:00,71.5,56.9,29.97,NE,45,4.0,4.0,60,0.00,,CLR,0.00,VWS V14.01,2013-09-26 16:06:00,
2013-09-26 12:07:00,71.1,56.5,29.97,ENE,68,5.6,5.6,60,0.00,,CLR,0.00,VWS V14.01,2013-09-26 16:07:00,
2013-09-26 12:08:00,71.1,57.0,29.97,NNE,22,4.7,4.7,61,0.00,,CLR,0.00,VWS V14.01,2013-09-26 16:08:00,
2013-09-26 12:09:00,71.6,57.0,29.97,North,0,2.7,2.7,60,0.00,,FEW085,0.00,VWS V14.01,2013-09-26 16:09:00,
2013-09-26 12:10:00,71.8,55.8,29.97,ENE,68,3.4,3.4,57,0.00,,CLR,0.00,VWS V14.01,2013-09-26 16:10:00,
2013-09-26 12:11:00,71.8,58.1,29.97,North,0,5.4,5.4,62,0.00,,CLR,0.00,VWS V14.01,2013-09-26 16:11:00,
2013-09-26 12:12:00,71.6,57.0,29.97,NNE,22,1.3,1.3,60,0.00,,CLR,0.00,VWS V14.01,2013-09-26 16:12:00,
2013-09-26 12:13:00,71.8,57.7,29.97,NNE,22,3.6,3.6,61,0.00,,CLR,0.00,VWS V14.01,2013-09-26 16:13:00,
2013-09-26 12:14:00,71.6,57.5,29.97,North,0,5.6,5.6,61,0.00,,FEW085,0.00,VWS V14.01,2013-09-26 16:14:00,
2013-09-26 12:15:00,71.8,57.7,29.97,North,0,3.6,3.6,61,0.00,,CLR,0.00,VWS V14.01,2013-09-26 16:15:00,
2013-09-26 12:16:00,71.5,57.3,29.97,NW,315,6.5,6.5,61,0.00,,CLR,0.00,VWS V14.01,2013-09-26 16:16:00,
2013-09-26 12:17:00,71.6,57.5,29.97,North,0,7.2,7.2,61,0.00,,CLR,0.00,VWS V14.01,2013-09-26 16:17:00,
2013-09-26 12:18:00,71.8,57.7,29.97,North,0,4.3,4.3,61,0.00,,CLR,0.00,VWS V14.01,2013-09-26 16:18:00,
2013-09-26 12:19:00,71.5,57.3,29.97,NNE,22,2.9,2.9,61,0.00,,FEW085,0.00,VWS V14.01,2013-09-26 16:19:00,
2013-09-26 12:20:00,71.3,57.2,29.97,NE,45,7.6,7.6,61,0.00,,CLR,0.00,VWS V14.01,2013-09-26 16:20:00,
2013-09-26 12:21:00,71.1,57.0,29.97,NNE,22,7.6,7.6,61,0.00,,CLR,0.00,VWS V14.01,2013-09-26 16:21:00,
2013-09-26 12:22:00,71.5,57.3,29.97,NNE,22,6.0,6.0,61,0.00,,CLR,0.00,VWS V14.01,2013-09-26 16:22:00,
2013-09-26 12:23:00,71.8,57.7,29.97,NNW,338,4.9,4.9,61,0.00,,CLR,0.00,VWS V14.01,2013-09-26 16:23:00,
2013-09-26 12:24:00,72.5,57.9,29.97,East,90,4.9,4.9,60,0.00,,FEW085,0.00,VWS V14.01,2013-09-26 16:24:00,
2013-09-26 12:25:00,71.8,57.2,29.97,NNE,22,5.6,5.6,60,0.00,,CLR,0.00,VWS V14.01,2013-09-26 16:25:00,
2013-09-26 12:26:00,72.4,59.5,29.97,North,0,4.3,4.3,64,0.00,,CLR,0.00,VWS V14.01,2013-09-26 16:26:00,
2013-09-26 12:27:00,72.5,57.9,29.97,NNE,22,5.6,5.6,60,0.00,,CLR,0.00,VWS V14.01,2013-09-26 16:27:00,
2013-09-26 12:28:00,72.7,58.5,29.97,NNE,22,5.8,5.8,61,0.00,,CLR,0.00,VWS V14.01,2013-09-26 16:28:00,
2013-09-26 12:29:00,71.5,56.4,29.97,NNE,22,4.9,4.9,59,0.00,,FEW085,0.00,VWS V14.01,2013-09-26 16:29:00,
2013-09-26 12:30:00,72.4,58.2,29.97,NE,45,8.1,8.1,61,0.00,,CLR,0.00,VWS V14.01,2013-09-26 16:30:00,
2013-09-26 12:31:00,71.8,57.7,29.97,ENE,68,6.5,6.5,61,0.00,,CLR,0.00,VWS V14.01,2013-09-26 16:31:00,
2013-09-26 12:32:00,71.5,56.4,29.97,NE,45,6.3,6.3,59,0.00,,CLR,0.00,VWS V14.01,2013-09-26 16:32:00,
2013-09-26 12:33:00,71.5,56.4,29.97,NE,45,6.0,6.0,59,0.00,,CLR,0.00,VWS V14.01,2013-09-26 16:33:00,
2013-09-26 12:34:00,72.0,55.5,29.97,NE,45,6.3,6.3,56,0.00,,FEW085,0.00,VWS V14.01,2013-09-26 16:34:00,
2013-09-26 12:35:00,72.0,56.9,29.97,North,0,4.7,4.7,59,0.00,,CLR,0.00,VWS V14.01,2013-09-26 16:35:00,
2013-09-26 12:36:00,72.2,57.5,29.97,NE,45,4.3,4.3,60,0.00,,CLR,0.00,VWS V14.01,2013-09-26 16:36:00,
2013-09-26 12:37:00,72.4,56.3,29.97,NE,45,7.8,7.8,57,0.00,,CLR,0.00,VWS V14.01,2013-09-26 16:37:00,
2013-09-26 12:38:00,72.0,55.5,29.97,NE,45,6.3,6.3,56,0.00,,CLR,0.00,VWS V14.01,2013-09-26 16:38:00,
2013-09-26 12:39:00,72.2,54.6,29.94,East,90,6.0,6.0,54,0.00,,CLR,0.00,VWS V14.01,2013-09-26 16:39:00,
2013-09-26 12:40:00,72.2,55.6,29.94,NE,45,5.4,5.4,56,0.00,,CLR,0.00,VWS V14.01,2013-09-26 16:40:00,
2013-09-26 12:41:00,72.2,57.5,29.94,NE,45,3.8,3.8,60,0.00,,CLR,0.00,VWS V14.01,2013-09-26 16:41:00,
2013-09-26 12:42:00,72.0,54.5,29.94,NE,45,5.6,5.6,54,0.00,,CLR,0.00,VWS V14.01,2013-09-26 16:42:00,
2013-09-26 12:43:00,72.2,54.6,29.94,ENE,68,5.4,5.4,54,0.00,,CLR,0.00,VWS V14.01,2013-09-26 16:43:00,
2013-09-26 12:44:00,72.2,57.5,29.94,East,90,2.7,2.7,60,0.00,,CLR,0.00,VWS V14.01,2013-09-26 16:44:00,
2013-09-26 12:45:00,72.4,55.3,29.94,NNE,22,7.4,7.4,55,0.00,,CLR,0.00,VWS V14.01,2013-09-26 16:45:00,
2013-09-26 12:46:00,72.2,57.5,29.94,NE,45,8.1,8.1,60,0.00,,CLR,0.00,VWS V14.01,2013-09-26 16:46:00,
2013-09-26 12:47:00,72.2,57.5,29.94,East,90,3.8,3.8,60,0.00,,CLR,0.00,VWS V14.01,2013-09-26 16:47:00,
2013-09-26 12:48:00,72.0,56.9,29.94,ESE,112,1.3,1.3,59,0.00,,CLR,0.00,VWS V14.01,2013-09-26 16:48:00,
2013-09-26 12:49:00,72.0,56.9,29.94,ESE,112,2.7,2.7,59,0.00,,CLR,0.00,VWS V14.01,2013-09-26 16:49:00,
2013-09-26 12:50:00,73.1,57.4,29.94,NNE,22,4.0,4.0,58,0.00,,CLR,0.00,VWS V14.01,2013-09-26 16:50:00,
2013-09-26 12:51:00,72.4,57.7,29.94,North,0,5.6,5.6,60,0.00,,CLR,0.00,VWS V14.01,2013-09-26 16:51:00,
2013-09-26 12:52:00,72.7,58.0,29.94,ENE,68,5.4,5.4,60,0.00,,CLR,0.00,VWS V14.01,2013-09-26 16:52:00,
2013-09-26 12:53:00,73.1,58.4,29.94,NE,45,1.3,1.3,60,0.00,,CLR,0.00,VWS V14.01,2013-09-26 16:53:00,
2013-09-26 12:54:00,72.5,56.0,29.94,NNE,22,5.4,5.4,56,0.00,,CLR,0.00,VWS V14.01,2013-09-26 16:54:00,
2013-09-26 12:55:00,72.4,57.7,29.94,NE,45,5.8,5.8,60,0.00,,CLR,0.00,VWS V14.01,2013-09-26 16:55:00,
2013-09-26 12:56:00,72.2,56.6,29.94,NNE,22,6.0,6.0,58,0.00,,CLR,0.00,VWS V14.01,2013-09-26 16:56:00,
2013-09-26 12:57:00,72.4,57.2,29.94,North,0,5.6,5.6,59,0.00,,CLR,0.00,VWS V14.01,2013-09-26 16:57:00,
2013-09-26 12:58:00,72.4,57.7,29.94,NE,45,9.0,9.0,60,0.00,,CLR,0.00,VWS V14.01,2013-09-26 16:58:00,
2013-09-26 12:59:00,72.2,57.5,29.94,NE,45,6.5,6.5,60,0.00,,CLR,0.00,VWS V14.01,2013-09-26 16:59:00,
2013-09-26 13:00:00,72.4,56.3,29.94,NNE,22,6.7,6.7,57,0.00,,CLR,0.00,VWS V14.01,2013-09-26 17:00:00,
2013-09-26 13:01:00,72.2,57.1,29.94,NNE,22,4.3,4.3,59,0.00,,CLR,0.00,VWS V14.01,2013-09-26 17:01:00,
2013-09-26 13:02:00,72.2,56.6,29.94,North,0,4.3,4.3,58,0.00,,CLR,0.00,VWS V14.01,2013-09-26 17:02:00,
2013-09-26 13:03:00,72.4,56.3,29.94,NNE,22,6.7,6.7,57,0.00,,CLR,0.00,VWS V14.01,2013-09-26 17:03:00,
2013-09-26 13:04:00,72.2,56.1,29.94,East,90,6.0,6.0,57,0.00,,CLR,0.00,VWS V14.01,2013-09-26 17:04:00,
2013-09-26 13:05:00,72.7,59.0,29.94,NNE,22,3.8,3.8,62,0.00,,CLR,0.00,VWS V14.01,2013-09-26 17:05:00,
2013-09-26 13:06:00,72.4,57.7,29.94,NE,45,7.6,7.6,60,0.00,,CLR,0.00,VWS V14.01,2013-09-26 17:06:00,
2013-09-26 13:07:00,72.0,56.9,29.94,NE,45,4.0,4.0,59,0.00,,CLR,0.00,VWS V14.01,2013-09-26 17:07:00,
2013-09-26 13:08:00,72.7,59.0,29.94,NNE,22,3.8,3.8,62,0.00,,CLR,0.00,VWS V14.01,2013-09-26 17:08:00,
2013-09-26 13:09:00,72.5,56.0,29.94,East,90,8.1,8.1,56,0.00,,CLR,0.00,VWS V14.01,2013-09-26 17:09:00,
2013-09-26 13:10:00,72.0,56.9,29.97,NNE,22,5.4,5.4,59,0.00,,CLR,0.00,VWS V14.01,2013-09-26 17:10:00,
2013-09-26 13:11:00,72.5,57.9,29.97,NE,45,4.5,4.5,60,0.00,,CLR,0.00,VWS V14.01,2013-09-26 17:11:00,
2013-09-26 13:12:00,72.4,56.8,29.97,NE,45,4.9,4.9,58,0.00,,CLR,0.00,VWS V14.01,2013-09-26 17:12:00,
2013-09-26 13:13:00,72.0,56.9,29.97,NNE,22,5.4,5.4,59,0.00,,CLR,0.00,VWS V14.01,2013-09-26 17:13:00,
2013-09-26 13:14:00,72.0,57.4,29.97,North,0,5.4,5.4,60,0.00,,CLR,0.00,VWS V14.01,2013-09-26 17:14:00,
2013-09-26 13:15:00,72.9,58.7,29.97,NNE,22,6.3,6.3,61,0.00,,CLR,0.00,VWS V14.01,2013-09-26 17:15:00,
2013-09-26 13:16:00,72.4,58.2,29.97,NNE,22,5.4,5.4,61,0.00,,CLR,0.00,VWS V14.01,2013-09-26 17:16:00,
2013-09-26 13:17:00,72.4,58.2,29.97,NNE,22,4.7,4.7,61,0.00,,CLR,0.00,VWS V14.01,2013-09-26 17:17:00,
2013-09-26 13:18:00,72.9,58.7,29.97,NNE,22,6.3,6.3,61,0.00,,CLR,0.00,VWS V14.01,2013-09-26 17:18:00,
2013-09-26 13:19:00,72.7,57.6,29.97,NNE,22,5.8,5.8,59,0.00,,CLR,0.00,VWS V14.01,2013-09-26 17:19:00,
2013-09-26 13:20:00,72.4,57.2,29.97,NE,45,6.0,6.0,59,0.00,,CLR,0.00,VWS V14.01,2013-09-26 17:20:00,
2013-09-26 13:21:00,72.7,57.6,29.97,North,0,5.8,5.8,59,0.00,,CLR,0.00,VWS V14.01,2013-09-26 17:21:00,
2013-09-26 13:22:00,72.4,57.2,29.97,NNE,22,5.6,5.6,59,0.00,,CLR,0.00,VWS V14.01,2013-09-26 17:22:00,
2013-09-26 13:23:00,72.4,57.2,29.97,NE,45,6.0,6.0,59,0.00,,CLR,0.00,VWS V14.01,2013-09-26 17:23:00,
2013-09-26 13:24:00,72.7,56.6,29.97,NE,45,5.4,5.4,57,0.00,,CLR,0.00,VWS V14.01,2013-09-26 17:24:00,
2013-09-26 13:25:00,72.4,55.8,29.94,ENE,68,3.6,3.6,56,0.00,,CLR,0.00,VWS V14.01,2013-09-26 17:25:00,
2013-09-26 13:26:00,72.5,57.9,29.94,NNE,22,7.6,7.6,60,0.00,,CLR,0.00,VWS V14.01,2013-09-26 17:26:00,
2013-09-26 13:27:00,72.4,55.8,29.94,NE,45,4.9,4.9,56,0.00,,CLR,0.00,VWS V14.01,2013-09-26 17:27:00,
2013-09-26 13:28:00,72.4,55.8,29.94,ENE,68,3.6,3.6,56,0.00,,CLR,0.00,VWS V14.01,2013-09-26 17:28:00,
2013-09-26 13:29:00,72.4,55.8,29.94,East,90,3.1,3.1,56,0.00,,CLR,0.00,VWS V14.01,2013-09-26 17:29:00,
2013-09-26 13:30:00,73.1,58.4,29.94,NE,45,5.4,5.4,60,0.00,,CLR,0.00,VWS V14.01,2013-09-26 17:30:00,
2013-09-26 13:31:00,72.9,57.8,29.94,ENE,68,6.0,6.0,59,0.00,,CLR,0.00,VWS V14.01,2013-09-26 17:31:00,
2013-09-26 13:32:00,72.9,56.3,29.94,NE,45,6.7,6.7,56,0.00,,CLR,0.00,VWS V14.01,2013-09-26 17:32:00,
2013-09-26 13:33:00,73.1,58.4,29.94,NE,45,5.4,5.4,60,0.00,,CLR,0.00,VWS V14.01,2013-09-26 17:33:00,
2013-09-26 13:34:00,73.6,57.0,29.94,NE,45,6.5,6.5,56,0.00,,CLR,0.00,VWS V14.01,2013-09-26 17:34:00,
2013-09-26 13:35:00,73.6,55.5,29.94,NE,45,8.1,8.1,53,0.00,,FEW038,0.00,VWS V14.01,2013-09-26 17:35:00,
2013-09-26 13:36:00,73.4,55.3,29.94,NE,45,4.9,4.9,53,0.00,,CLR,0.00,VWS V14.01,2013-09-26 17:36:00,
2013-09-26 13:37:00,73.6,55.5,29.94,NNE,22,9.8,9.8,53,0.00,,CLR,0.00,VWS V14.01,2013-09-26 17:37:00,
2013-09-26 13:38:00,73.6,55.5,29.94,NE,45,8.1,8.1,53,0.00,,CLR,0.00,VWS V14.01,2013-09-26 17:38:00,
2013-09-26 13:39:00,73.3,55.6,29.94,East,90,8.7,8.7,54,0.00,,CLR,0.00,VWS V14.01,2013-09-26 17:39:00,
2013-09-26 13:40:00,74.0,57.8,29.94,North,0,6.3,6.3,57,0.00,,FEW038,0.00,VWS V14.01,2013-09-26 17:40:00,
2013-09-26 13:41:00,73.6,57.5,29.94,ENE,68,9.2,9.2,57,0.00,,CLR,0.00,VWS V14.01,2013-09-26 17:41:00,
2013-09-26 13:42:00,73.6,58.4,29.94,NE,45,8.1,8.1,59,0.00,,CLR,0.00,VWS V14.01,2013-09-26 17:42:00,
2013-09-26 13:43:00,74.0,57.8,29.94,North,0,6.3,6.3,57,0.00,,CLR,0.00,VWS V14.01,2013-09-26 17:43:00,
2013-09-26 13:44:00,74.0,53.6,29.94,ENE,68,9.8,9.8,49,0.00,,CLR,0.00,VWS V14.01,2013-09-26 17:44:00,
2013-09-26 13:45:00,73.8,54.0,29.94,NE,45,6.3,6.3,50,0.00,,FEW038,0.00,VWS V14.01,2013-09-26 17:45:00,
2013-09-26 13:46:00,74.0,55.8,29.94,NE,45,4.3,4.3,53,0.00,,CLR,0.00,VWS V14.01,2013-09-26 17:46:00,
2013-09-26 13:47:00,74.0,55.8,29.94,NE,45,6.3,6.3,53,0.00,,CLR,0.00,VWS V14.01,2013-09-26 17:47:00,
2013-09-26 13:48:00,73.8,54.0,29.94,NE,45,6.3,6.3,50,0.00,,CLR,0.00,VWS V14.01,2013-09-26 17:48:00,
2013-09-26 13:49:00,73.4,54.2,29.94,East,90,8.7,8.7,51,0.00,,CLR,0.00,VWS V14.01,2013-09-26 17:49:00,
2013-09-26 13:50:00,74.2,55.4,29.94,ENE,68,7.6,7.6,52,0.00,,FEW038,0.00,VWS V14.01,2013-09-26 17:50:00,
2013-09-26 13:51:00,73.6,49.1,29.94,NE,45,7.6,7.6,42,0.00,,CLR,0.00,VWS V14.01,2013-09-26 17:51:00,
2013-09-26 13:52:00,73.6,53.8,29.94,ENE,68,3.1,3.1,50,0.00,,CLR,0.00,VWS V14.01,2013-09-26 17:52:00,
2013-09-26 13:53:00,73.8,51.8,29.94,ENE,68,7.6,7.6,46,0.00,,CLR,0.00,VWS V14.01,2013-09-26 17:53:00,
2013-09-26 13:54:00,74.3,54.0,29.94,NE,45,6.7,6.7,49,0.00,,CLR,0.00,VWS V14.01,2013-09-26 17:54:00,
2013-09-26 13:55:00,74.3,56.1,29.94,NNE,22,5.6,5.6,53,0.00,,FEW038,0.00,VWS V14.01,2013-09-26 17:55:00,
2013-09-26 13:56:00,74.2,47.6,29.94,NE,45,8.7,8.7,39,0.00,,CLR,0.00,VWS V14.01,2013-09-26 17:56:00,
2013-09-26 13:57:00,74.2,47.6,29.94,NE,45,10.7,10.7,39,0.00,,CLR,0.00,VWS V14.01,2013-09-26 17:57:00,
2013-09-26 13:58:00,74.3,55.1,29.94,NNW,338,8.1,8.1,51,0.00,,CLR,0.00,VWS V14.01,2013-09-26 17:58:00,
2013-09-26 13:59:00,74.3,56.1,29.94,NNE,22,6.9,6.9,53,0.00,,CLR,0.00,VWS V14.01,2013-09-26 17:59:00,
2013-09-26 14:00:00,74.7,54.3,29.94,NNE,22,7.6,7.6,49,0.00,,FEW038,0.00,VWS V14.01,2013-09-26 18:00:00,
2013-09-26 14:01:00,74.5,54.1,29.94,WNW,292,7.8,7.8,49,0.00,,CLR,0.00,VWS V14.01,2013-09-26 18:01:00,
2013-09-26 14:02:00,74.7,54.3,29.94,North,0,5.4,5.4,49,0.00,,CLR,0.00,VWS V14.01,2013-09-26 18:02:00,
2013-09-26 14:03:00,74.7,54.3,29.94,NNE,22,4.3,4.3,49,0.00,,CLR,0.00,VWS V14.01,2013-09-26 18:03:00,
2013-09-26 14:04:00,74.7,54.3,29.94,NE,45,6.0,6.0,49,0.00,,CLR,0.00,VWS V14.01,2013-09-26 18:04:00,
2013-09-26 14:05:00,74.0,50.7,29.94,NE,45,4.9,4.9,44,0.00,,FEW038,0.00,VWS V14.01,2013-09-26 18:05:00,
2013-09-26 14:06:00,74.2,53.8,29.94,NE,45,6.5,6.5,49,0.00,,CLR,0.00,VWS V14.01,2013-09-26 18:06:00,
2013-09-26 14:07:00,74.2,53.8,29.94,NE,45,6.0,6.0,49,0.00,,CLR,0.00,VWS V14.01,2013-09-26 18:07:00,
2013-09-26 14:08:00,74.0,50.7,29.94,NNE,22,7.4,7.4,44,0.00,,CLR,0.00,VWS V14.01,2013-09-26 18:08:00,
2013-09-26 14:09:00,74.5,49.3,29.94,North,0,3.8,3.8,41,0.00,,CLR,0.00,VWS V14.01,2013-09-26 18:09:00,
2013-09-26 14:10:00,74.7,54.3,29.91,NNE,22,5.8,5.8,49,0.00,,CLR,0.00,VWS V14.01,2013-09-26 18:10:00,
2013-09-26 14:11:00,74.7,49.5,29.91,North,0,2.7,2.7,41,0.00,,FEW038,0.00,VWS V14.01,2013-09-26 18:11:00,
2013-09-26 14:12:00,74.7,54.3,29.91,NE,45,4.0,4.0,49,0.00,,CLR,0.00,VWS V14.01,2013-09-26 18:12:00,
2013-09-26 14:13:00,75.2,55.3,29.91,NNE,22,5.4,5.4,50,0.00,,CLR,0.00,VWS V14.01,2013-09-26 18:13:00,
2013-09-26 14:14:00,74.7,49.5,29.91,NNE,22,8.1,8.1,41,0.00,,CLR,0.00,VWS V14.01,2013-09-26 18:14:00,
2013-09-26 14:15:00,74.7,42.1,29.91,North,0,4.0,4.0,31,0.00,,CLR,0.00,VWS V14.01,2013-09-26 18:15:00,
2013-09-26 14:16:00,75.2,55.3,29.91,NNE,22,3.1,3.1,50,0.00,,FEW038,0.00,VWS V14.01,2013-09-26 18:16:00,
2013-09-26 14:17:00,74.7,48.1,29.91,NNE,22,4.0,4.0,39,0.00,,CLR,0.00,VWS V14.01,2013-09-26 18:17:00,
2013-09-26 14:18:00,74.9,54.5,29.91,ENE,68,1.6,1.6,49,0.00,,CLR,0.00,VWS V14.01,2013-09-26 18:18:00,
2013-09-26 14:19:00,75.2,55.3,29.91,ENE,68,8.1,8.1,50,0.00,,CLR,0.00,VWS V14.01,2013-09-26 18:19:00,
2013-09-26 14:20:00,74.7,48.1,29.91,NE,45,7.2,7.2,39,0.00,,CLR,0.00,VWS V14.01,2013-09-26 18:20:00,
2013-09-26 14:21:00,74.5,52.4,29.91,ESE,112,6.0,6.0,46,0.00,,FEW038,0.00,VWS V14.01,2013-09-26 18:21:00,
2013-09-26 14:22:00,74.9,46.2,29.91,NNE,22,11.0,11.0,36,0.00,,CLR,0.00,VWS V14.01,2013-09-26 18:22:00,
2013-09-26 14:23:00,74.7,44.5,29.91,NE,45,7.8,7.8,34,0.00,,CLR,0.00,VWS V14.01,2013-09-26 18:23:00,
2013-09-26 14:24:00,75.1,55.2,29.91,ESE,112,6.0,6.0,50,0.00,,CLR,0.00,VWS V14.01,2013-09-26 18:24:00,
2013-09-26 14:25:00,75.1,55.2,29.91,East,90,6.0,6.0,50,0.00,,CLR,0.00,VWS V14.01,2013-09-26 18:25:00,
2013-09-26 14:26:00,74.3,54.0,29.91,NE,45,5.6,5.6,49,0.00,,FEW038,0.00,VWS V14.01,2013-09-26 18:26:00,
2013-09-26 14:27:00,74.3,52.2,29.91,NE,45,6.3,6.3,46,0.00,,CLR,0.00,VWS V14.01,2013-09-26 18:27:00,
2013-09-26 14:28:00,74.3,54.0,29.91,NNE,22,6.3,6.3,49,0.00,,CLR,0.00,VWS V14.01,2013-09-26 18:28:00,
2013-09-26 14:29:00,74.3,54.0,29.91,NE,45,5.6,5.6,49,0.00,,CLR,0.00,VWS V14.01,2013-09-26 18:29:00,
2013-09-26 14:30:00,74.3,54.0,29.91,North,0,7.4,7.4,49,0.00,,CLR,0.00,VWS V14.01,2013-09-26 18:30:00,
2013-09-26 14:31:00,74.0,47.5,29.91,NNE,22,7.8,7.8,39,0.00,,FEW038,0.00,VWS V14.01,2013-09-26 18:31:00,
2013-09-26 14:32:00,74.5,54.7,29.91,ENE,68,4.3,4.3,50,0.00,,CLR,0.00,VWS V14.01,2013-09-26 18:32:00,
2013-09-26 14:33:00,74.5,54.7,29.91,North,0,5.6,5.6,50,0.00,,CLR,0.00,VWS V14.01,2013-09-26 18:33:00,
2013-09-26 14:34:00,74.0,47.5,29.91,NNE,22,7.8,7.8,39,0.00,,CLR,0.00,VWS V14.01,2013-09-26 18:34:00,
2013-09-26 14:35:00,73.8,48.7,29.91,NE,45,6.3,6.3,41,0.00,,CLR,0.00,VWS V14.01,2013-09-26 18:35:00,
2013-09-26 14:36:00,74.3,47.8,29.91,East,90,6.3,6.3,39,0.00,,SCT042,0.00,VWS V14.01,2013-09-26 18:36:00,
2013-09-26 14:37:00,74.0,50.7,29.91,NE,45,6.0,6.0,44,0.00,,CLR,0.00,VWS V14.01,2013-09-26 18:37:00,
2013-09-26 14:38:00,74.9,54.5,29.91,NNE,22,6.5,6.5,49,0.00,,CLR,0.00,VWS V14.01,2013-09-26 18:38:00,
2013-09-26 14:39:00,74.7,46.0,29.91,East,90,6.3,6.3,36,0.00,,CLR,0.00,VWS V14.01,2013-09-26 18:39:00,
2013-09-26 14:40:00,74.7,48.1,29.91,NE,45,6.5,6.5,39,0.00,,CLR,0.00,VWS V14.01,2013-09-26 18:40:00,
2013-09-26 14:41:00,75.1,55.2,29.91,North,0,8.1,8.1,50,0.00,,SCT042,0.00,VWS V14.01,2013-09-26 18:41:00,
2013-09-26 14:42:00,74.7,48.1,29.91,East,90,5.6,5.6,39,0.00,,CLR,0.00,VWS V14.01,2013-09-26 18:42:00,
2013-09-26 14:43:00,74.5,45.8,29.91,NE,45,7.4,7.4,36,0.00,,CLR,0.00,VWS V14.01,2013-09-26 18:43:00,
2013-09-26 14:44:00,75.1,52.9,29.91,NE,45,8.5,8.5,46,0.00,,CLR,0.00,VWS V14.01,2013-09-26 18:44:00,
2013-09-26 14:45:00,75.1,55.2,29.91,NNE,22,6.5,6.5,50,0.00,,CLR,0.00,VWS V14.01,2013-09-26 18:45:00,
2013-09-26 14:46:00,74.9,55.0,29.91,NE,45,6.3,6.3,50,0.00,,SCT042,0.00,VWS V14.01,2013-09-26 18:46:00,
2013-09-26 14:47:00,74.9,55.0,29.91,North,0,9.0,9.0,50,0.00,,CLR,0.00,VWS V14.01,2013-09-26 18:47:00,
2013-09-26 14:48:00,74.9,55.0,29.91,North,0,5.8,5.8,50,0.00,,CLR,0.00,VWS V14.01,2013-09-26 18:48:00,
2013-09-26 14:49:00,74.9,55.0,29.91,NE,45,6.3,6.3,50,0.00,,CLR,0.00,VWS V14.01,2013-09-26 18:49:00,
2013-09-26 14:50:00,75.1,48.4,29.91,North,0,5.6,5.6,39,0.00,,CLR,0.00,VWS V14.01,2013-09-26 18:50:00,
2013-09-26 14:51:00,75.6,53.4,29.91,NE,45,7.4,7.4,46,0.00,,SCT042,0.00,VWS V14.01,2013-09-26 18:51:00,
2013-09-26 14:52:00,75.2,53.1,29.91,NNE,22,3.4,3.4,46,0.00,,CLR,0.00,VWS V14.01,2013-09-26 18:52:00,
2013-09-26 14:53:00,75.2,53.1,29.91,NE,45,4.0,4.0,46,0.00,,CLR,0.00,VWS V14.01,2013-09-26 18:53:00,
2013-09-26 14:54:00,75.6,53.4,29.91,ENE,68,8.5,8.5,46,0.00,,CLR,0.00,VWS V14.01,2013-09-26 18:54:00,
2013-09-26 14:55:00,75.4,42.7,29.91,East,90,4.3,4.3,31,0.00,,CLR,0.00,VWS V14.01,2013-09-26 18:55:00,
2013-09-26 14:56:00,74.7,48.1,29.91,NE,45,4.0,4.0,39,0.00,,SCT042,0.00,VWS V14.01,2013-09-26 18:56:00,
2013-09-26 14:57:00,75.2,49.9,29.91,NNE,22,6.7,6.7,41,0.00,,CLR,0.00,VWS V14.01,2013-09-26 18:57:00,
2013-09-26 14:58:00,74.7,44.5,29.91,NE,45,7.8,7.8,34,0.00,,CLR,0.00,VWS V14.01,2013-09-26 18:58:00,
2013-09-26 14:59:00,74.5,48.0,29.91,NNE,22,6.0,6.0,39,0.00,,CLR,0.00,VWS V14.01,2013-09-26 18:59:00,
2013-09-26 15:00:00,74.7,48.1,29.91,NE,45,4.9,4.9,39,0.00,,CLR,0.00,VWS V14.01,2013-09-26 19:00:00,
2013-09-26 15:01:00,75.1,42.4,29.91,ENE,68,8.7,8.7,31,0.00,,SCT042,0.00,VWS V14.01,2013-09-26 19:01:00,
2013-09-26 15:02:00,75.4,56.0,29.91,NE,45,4.0,4.0,51,0.00,,CLR,0.00,VWS V14.01,2013-09-26 19:02:00,
2013-09-26 15:03:00,75.1,54.6,29.91,NNE,22,7.8,7.8,49,0.00,,CLR,0.00,VWS V14.01,2013-09-26 19:03:00,
2013-09-26 15:04:00,75.1,42.4,29.91,NE,45,10.3,10.3,31,0.00,,CLR,0.00,VWS V14.01,2013-09-26 19:04:00,
2013-09-26 15:05:00,74.7,48.1,29.91,ENE,68,5.8,5.8,39,0.00,,CLR,0.00,VWS V14.01,2013-09-26 19:05:00,
2013-09-26 15:06:00,75.1,49.8,29.91,ENE,68,6.3,6.3,41,0.00,,SCT042,0.00,VWS V14.01,2013-09-26 19:06:00,
2013-09-26 15:07:00,75.2,48.6,29.91,NE,45,6.0,6.0,39,0.00,,CLR,0.00,VWS V14.01,2013-09-26 19:07:00,
2013-09-26 15:08:00,74.7,46.0,29.91,NNE,22,7.4,7.4,36,0.00,,CLR,0.00,VWS V14.01,2013-09-26 19:08:00,
2013-09-26 15:09:00,74.9,49.6,29.91,NNE,22,4.9,4.9,41,0.00,,CLR,0.00,VWS V14.01,2013-09-26 19:09:00,
2013-09-26 15:10:00,75.1,44.8,29.91,NE,45,4.0,4.0,34,0.00,,CLR,0.00,VWS V14.01,2013-09-26 19:10:00,
2013-09-26 15:11:00,75.1,44.8,29.91,North,0,5.8,5.8,34,0.00,,CLR,0.00,VWS V14.01,2013-09-26 19:11:00,
2013-09-26 15:12:00,75.6,51.5,29.91,NE,45,4.3,4.3,43,0.00,,SCT042,0.00,VWS V14.01,2013-09-26 19:12:00,
2013-09-26 15:13:00,75.1,44.8,29.91,North,0,5.4,5.4,34,0.00,,CLR,0.00,VWS V14.01,2013-09-26 19:13:00,
2013-09-26 15:14:00,75.6,51.5,29.91,WSW,248,5.4,5.4,43,0.00,,CLR,0.00,VWS V14.01,2013-09-26 19:14:00,
2013-09-26 15:15:00,75.6,51.5,29.91,NE,45,7.8,7.8,43,0.00,,CLR,0.00,VWS V14.01,2013-09-26 19:15:00,
2013-09-26 15:16:00,75.2,41.7,29.91,ENE,68,4.7,4.7,30,0.00,,CLR,0.00,VWS V14.01,2013-09-26 19:16:00,
2013-09-26 15:17:00,75.6,48.2,29.91,ENE,68,6.0,6.0,38,0.00,,SCT042,0.00,VWS V14.01,2013-09-26 19:17:00,
2013-09-26 15:18:00,75.1,51.7,29.91,NE,45,3.4,3.4,44,0.00,,CLR,0.00,VWS V14.01,2013-09-26 19:18:00,
2013-09-26 15:19:00,75.6,55.1,29.91,NE,45,4.7,4.7,49,0.00,,CLR,0.00,VWS V14.01,2013-09-26 19:19:00,
2013-09-26 15:20:00,75.6,48.2,29.91,NE,45,5.6,5.6,38,0.00,,CLR,0.00,VWS V14.01,2013-09-26 19:20:00,
2013-09-26 15:21:00,75.8,54.7,29.91,NNE,22,7.8,7.8,48,0.00,,CLR,0.00,VWS V14.01,2013-09-26 19:21:00,
2013-09-26 15:22:00,75.2,42.5,29.91,North,0,2.9,2.9,31,0.00,,SCT042,0.00,VWS V14.01,2013-09-26 19:22:00,
2013-09-26 15:23:00,75.8,55.3,29.91,North,0,4.3,4.3,49,0.00,,CLR,0.00,VWS V14.01,2013-09-26 19:23:00,
2013-09-26 15:24:00,75.4,46.6,29.91,East,90,4.3,4.3,36,0.00,,CLR,0.00,VWS V14.01,2013-09-26 19:24:00,
2013-09-26 15:25:00,75.2,42.5,29.91,NE,45,6.3,6.3,31,0.00,,CLR,0.00,VWS V14.01,2013-09-26 19:25:00,
2013-09-26 15:26:00,75.1,46.3,29.91,North,0,6.5,6.5,36,0.00,,CLR,0.00,VWS V14.01,2013-09-26 19:26:00,
2013-09-26 15:27:00,75.2,49.9,29.91,ENE,68,7.2,7.2,41,0.00,,SCT042,0.00,VWS V14.01,2013-09-26 19:27:00,
2013-09-26 15:28:00,75.4,55.0,29.91,North,0,8.7,8.7,49,0.00,,CLR,0.00,VWS V14.01,2013-09-26 19:28:00,
2013-09-26 15:29:00,75.4,55.0,29.91,NE,45,7.6,7.6,49,0.00,,CLR,0.00,VWS V14.01,2013-09-26 19:29:00,
2013-09-26 15:30:00,75.2,49.9,29.91,ENE,68,7.2,7.2,41,0.00,,CLR,0.00,VWS V14.01,2013-09-26 19:30:00,
2013-09-26 15:31:00,75.6,46.8,29.91,NE,45,6.5,6.5,36,0.00,,CLR,0.00,VWS V14.01,2013-09-26 19:31:00,
2013-09-26 15:32:00,75.2,49.9,29.91,NE,45,8.7,8.7,41,0.00,,SCT042,0.00,VWS V14.01,2013-09-26 19:32:00,
2013-09-26 15:33:00,76.0,51.9,29.91,NNE,22,7.4,7.4,43,0.00,,CLR,0.00,VWS V14.01,2013-09-26 19:33:00,
2013-09-26 15:34:00,75.8,47.0,29.91,NNE,22,7.8,7.8,36,0.00,,CLR,0.00,VWS V14.01,2013-09-26 19:34:00,
2013-09-26 15:35:00,75.2,49.9,29.91,NNE,22,10.3,10.3,41,0.00,,CLR,0.00,VWS V14.01,2013-09-26 19:35:00,
2013-09-26 15:36:00,75.1,49.8,29.91,NE,45,6.3,6.3,41,0.00,,CLR,0.00,VWS V14.01,2013-09-26 19:36:00,
2013-09-26 15:37:00,75.4,55.5,29.91,ENE,68,5.8,5.8,50,0.00,,SCT090,0.00,VWS V14.01,2013-09-26 19:37:00,
2013-09-26 15:38:00,75.1,48.4,29.91,NE,45,7.4,7.4,39,0.00,,CLR,0.00,VWS V14.01,2013-09-26 19:38:00,
2013-09-26 15:39:00,75.1,48.4,29.91,ENE,68,5.8,5.8,39,0.00,,CLR,0.00,VWS V14.01,2013-09-26 19:39:00,
2013-09-26 15:40:00,75.4,55.5,29.91,ENE,68,5.8,5.8,50,0.00,,CLR,0.00,VWS V14.01,2013-09-26 19:40:00,
2013-09-26 15:41:00,75.6,55.1,29.91,North,0,3.8,3.8,49,0.00,,CLR,0.00,VWS V14.01,2013-09-26 19:41:00,
2013-09-26 15:42:00,75.8,50.4,29.91,North,0,6.5,6.5,41,0.00,,SCT090,0.00,VWS V14.01,2013-09-26 19:42:00,
2013-09-26 15:43:00,75.6,48.2,29.91,ENE,68,4.3,4.3,38,0.00,,CLR,0.00,VWS V14.01,2013-09-26 19:43:00,
2013-09-26 15:44:00,75.6,55.1,29.91,WSW,248,4.3,4.3,49,0.00,,CLR,0.00,VWS V14.01,2013-09-26 19:44:00,
2013-09-26 15:45:00,75.8,50.4,29.91,North,0,6.5,6.5,41,0.00,,CLR,0.00,VWS V14.01,2013-09-26 19:45:00,
2013-09-26 15:46:00,75.6,53.4,29.91,North,0,5.4,5.4,46,0.00,,CLR,0.00,VWS V14.01,2013-09-26 19:46:00,
2013-09-26 15:47:00,75.6,42.0,29.91,NNE,22,10.5,10.5,30,0.00,,SCT090,0.12,VWS V14.01,2013-09-26 19:47:00,
2013-09-26 15:48:00,75.8,51.7,29.91,North,0,3.1,3.1,43,0.00,,CLR,0.00,VWS V14.01,2013-09-26 19:48:00,
2013-09-26 15:49:00,75.6,55.7,29.91,NNE,22,6.3,6.3,50,0.00,,CLR,0.00,VWS V14.01,2013-09-26 19:49:00,
2013-09-26 15:50:00,75.6,42.0,29.91,NNE,22,10.5,10.5,30,0.00,,CLR,0.00,VWS V14.01,2013-09-26 19:50:00,
2013-09-26 15:51:00,75.2,42.5,29.91,North,0,7.6,7.6,31,0.00,,CLR,0.00,VWS V14.01,2013-09-26 19:51:00,
2013-09-26 15:52:00,74.9,46.2,29.91,NE,45,8.1,8.1,36,0.00,,SCT090,0.00,VWS V14.01,2013-09-26 19:52:00,
2013-09-26 15:53:00,75.2,48.6,29.91,NNE,22,5.8,5.8,39,0.00,,CLR,0.00,VWS V14.01,2013-09-26 19:53:00,
2013-09-26 15:54:00,74.9,46.2,29.91,North,0,6.3,6.3,36,0.00,,CLR,0.00,VWS V14.01,2013-09-26 19:54:00,
2013-09-26 15:55:00,74.9,46.2,29.91,NE,45,8.1,8.1,36,0.00,,CLR,0.00,VWS V14.01,2013-09-26 19:55:00,
2013-09-26 15:56:00,74.9,42.2,29.91,NNE,22,5.6,5.6,31,0.00,,CLR,0.00,VWS V14.01,2013-09-26 19:56:00,
2013-09-26 15:57:00,74.0,40.6,29.91,NE,45,3.6,3.6,30,0.00,,SCT090,0.00,VWS V14.01,2013-09-26 19:57:00,
2013-09-26 15:58:00,74.3,41.8,29.91,NNE,22,7.2,7.2,31,0.00,,CLR,0.00,VWS V14.01,2013-09-26 19:58:00,
2013-09-26 15:59:00,74.0,40.6,29.91,NE,45,4.3,4.3,30,0.00,,CLR,0.00,VWS V14.01,2013-09-26 19:59:00,
2013-09-26 16:00:00,74.0,40.6,29.91,NE,45,3.6,3.6,30,0.00,,CLR,0.00,VWS V14.01,2013-09-26 20:00:00,
2013-09-26 16:01:00,73.8,43.7,29.91,NE,45,2.7,2.7,34,0.00,,CLR,0.00,VWS V14.01,2013-09-26 20:01:00,
2013-09-26 16:02:00,74.9,51.5,29.91,North,0,5.4,5.4,44,0.00,,SCT090,0.00,VWS V14.01,2013-09-26 20:02:00,
2013-09-26 16:03:00,74.3,47.8,29.91,NE,45,6.5,6.5,39,0.00,,CLR,0.00,VWS V14.01,2013-09-26 20:03:00,
2013-09-26 16:04:00,74.5,44.3,29.91,NE,45,6.3,6.3,34,0.00,,CLR,0.00,VWS V14.01,2013-09-26 20:04:00,
2013-09-26 16:05:00,74.9,51.5,29.91,North,0,5.4,5.4,44,0.00,,CLR,0.00,VWS V14.01,2013-09-26 20:05:00,
2013-09-26 16:06:00,74.9,42.2,29.91,NE,45,7.4,7.4,31,0.00,,CLR,0.00,VWS V14.01,2013-09-26 20:06:00,
2013-09-26 16:07:00,75.2,41.7,29.91,North,0,3.6,3.6,30,0.00,,SCT090,0.00,VWS V14.01,2013-09-26 20:07:00,
2013-09-26 16:08:00,74.9,41.4,29.91,NNE,22,5.8,5.8,30,0.00,,CLR,0.00,VWS V14.01,2013-09-26 20:08:00,
2013-09-26 16:09:00,75.1,41.5,29.91,NW,315,6.3,6.3,30,0.00,,CLR,0.00,VWS V14.01,2013-09-26 20:09:00,
2013-09-26 16:10:00,75.2,41.7,29.91,North,0,3.6,3.6,30,0.00,,CLR,0.00,VWS V14.01,2013-09-26 20:10:00,
2013-09-26 16:11:00,75.2,41.7,29.91,North,0,9.6,9.6,30,0.00,,CLR,0.00,VWS V14.01,2013-09-26 20:11:00,
2013-09-26 16:12:00,75.2,41.7,29.91,NNE,22,6.0,6.0,30,0.00,,SCT090,0.00,VWS V14.01,2013-09-26 20:12:00,
2013-09-26 16:13:00,75.6,42.0,29.91,North,0,5.6,5.6,30,0.00,,CLR,0.00,VWS V14.01,2013-09-26 20:13:00,
2013-09-26 16:14:00,75.4,41.9,29.91,NNE,22,6.0,6.0,30,0.00,,CLR,0.00,VWS V14.01,2013-09-26 20:14:00,
2013-09-26 16:15:00,75.2,41.7,29.91,NNE,22,6.0,6.0,30,0.00,,CLR,0.00,VWS V14.01,2013-09-26 20:15:00,
2013-09-26 16:16:00,75.1,41.5,29.91,NNE,22,6.0,6.0,30,0.00,,CLR,0.00,VWS V14.01,2013-09-26 20:16:00,
2013-09-26 16:17:00,75.2,41.7,29.91,NNE,22,6.0,6.0,30,0.00,,SCT090,0.00,VWS V14.01,2013-09-26 20:17:00,
2013-09-26 16:18:00,75.2,41.7,29.91,NNE,22,6.0,6.0,30,0.00,,CLR,0.00,VWS V14.01,2013-09-26 20:18:00,
2013-09-26 16:19:00,75.2,41.7,29.91,NNE,22,6.0,6.0,30,0.00,,CLR,0.00,VWS V14.01,2013-09-26 20:19:00,
2013-09-26 16:20:00,75.2,41.7,29.91,NNE,22,6.0,6.0,30,0.00,,CLR,0.00,VWS V14.01,2013-09-26 20:20:00,
2013-09-26 16:21:00,75.2,41.7,29.91,NNE,22,6.0,6.0,30,0.00,,CLR,0.00,VWS V14.01,2013-09-26 20:21:00,
2013-09-26 16:22:00,75.2,41.7,29.91,NNE,22,6.0,6.0,30,0.00,,SCT090,0.00,VWS V14.01,2013-09-26 20:22:00,
2013-09-26 16:23:00,75.2,41.7,29.91,NNE,22,6.0,6.0,30,0.00,,CLR,0.00,VWS V14.01,2013-09-26 20:23:00,
2013-09-26 16:24:00,75.2,41.7,29.91,NNE,22,6.0,6.0,30,0.00,,CLR,0.00,VWS V14.01,2013-09-26 20:24:00,
2013-09-26 16:25:00,75.2,41.7,29.91,NNE,22,6.0,6.0,30,0.00,,CLR,0.00,VWS V14.01,2013-09-26 20:25:00,
2013-09-26 16:26:00,75.2,41.7,29.91,NNE,22,6.0,6.0,30,0.00,,CLR,0.00,VWS V14.01,2013-09-26 20:26:00,
2013-09-26 16:27:00,75.6,42.0,29.91,NE,45,4.3,4.3,30,0.00,,SCT090,0.00,VWS V14.01,2013-09-26 20:27:00,
2013-09-26 16:28:00,75.2,41.7,29.91,NNE,22,6.0,6.0,30,0.00,,CLR,0.00,VWS V14.01,2013-09-26 20:28:00,
2013-09-26 16:29:00,75.2,41.7,29.91,NNE,22,6.0,6.0,30,0.00,,CLR,0.00,VWS V14.01,2013-09-26 20:29:00,
2013-09-26 16:30:00,75.2,41.7,29.91,NNE,22,6.0,6.0,30,0.00,,CLR,0.00,VWS V14.01,2013-09-26 20:30:00,
2013-09-26 16:31:00,75.6,42.0,29.91,North,0,4.9,4.9,30,0.00,,CLR,0.00,VWS V14.01,2013-09-26 20:31:00,
2013-09-26 16:32:00,76.0,44.8,29.91,NNE,22,2.9,2.9,33,0.00,,SCT090,0.00,VWS V14.01,2013-09-26 20:32:00,
2013-09-26 16:33:00,75.8,42.2,29.91,NE,45,3.6,3.6,30,0.00,,CLR,0.00,VWS V14.01,2013-09-26 20:33:00,
2013-09-26 16:34:00,75.8,42.2,29.91,North,0,4.7,4.7,30,0.00,,CLR,0.00,VWS V14.01,2013-09-26 20:34:00,
2013-09-26 16:35:00,76.0,44.8,29.91,ENE,68,6.3,6.3,33,0.00,,CLR,0.00,VWS V14.01,2013-09-26 20:35:00,
2013-09-26 16:36:00,76.0,44.8,29.91,NE,45,2.7,2.7,33,0.00,,CLR,0.00,VWS V14.01,2013-09-26 20:36:00,
2013-09-26 16:37:00,75.1,41.5,29.91,NE,45,6.3,6.3,30,0.00,,SCT090,0.00,VWS V14.01,2013-09-26 20:37:00,
2013-09-26 16:38:00,75.4,41.9,29.91,ENE,68,5.6,5.6,30,0.00,,CLR,0.00,VWS V14.01,2013-09-26 20:38:00,
2013-09-26 16:39:00,75.6,42.0,29.91,ENE,68,8.1,8.1,30,0.00,,CLR,0.00,VWS V14.01,2013-09-26 20:39:00,
2013-09-26 16:40:00,75.1,41.5,29.91,NE,45,8.5,8.5,30,0.00,,CLR,0.00,VWS V14.01,2013-09-26 20:40:00,
2013-09-26 16:41:00,75.1,41.5,29.91,ENE,68,5.6,5.6,30,0.00,,CLR,0.00,VWS V14.01,2013-09-26 20:41:00,
2013-09-26 16:42:00,74.9,41.4,29.91,NNE,22,11.4,11.4,30,0.00,,SCT090,0.00,VWS V14.01,2013-09-26 20:42:00,
2013-09-26 16:43:00,75.6,44.5,29.91,NNE,22,4.0,4.0,33,0.00,,CLR,0.00,VWS V14.01,2013-09-26 20:43:00,
2013-09-26 16:44:00,75.4,41.9,29.91,NNE,22,5.6,5.6,30,0.00,,CLR,0.00,VWS V14.01,2013-09-26 20:44:00,
2013-09-26 16:45:00,75.4,41.9,29.91,NNE,22,7.4,7.4,30,0.00,,CLR,0.00,VWS V14.01,2013-09-26 20:45:00,
2013-09-26 16:46:00,74.9,41.4,29.91,NNE,22,6.9,6.9,30,0.00,,CLR,0.00,VWS V14.01,2013-09-26 20:46:00,
2013-09-26 16:47:00,74.9,49.6,29.91,North,0,7.8,7.8,41,0.00,,SCT090,0.00,VWS V14.01,2013-09-26 20:47:00,
2013-09-26 16:48:00,74.7,46.0,29.91,NNE,22,6.3,6.3,36,0.00,,CLR,0.00,VWS V14.01,2013-09-26 20:48:00,
2013-09-26 16:49:00,74.7,42.1,29.91,NNE,22,6.7,6.7,31,0.00,,CLR,0.00,VWS V14.01,2013-09-26 20:49:00,
2013-09-26 16:50:00,74.9,49.6,29.91,NNW,338,4.0,4.0,41,0.00,,CLR,0.00,VWS V14.01,2013-09-26 20:50:00,
2013-09-26 16:51:00,74.7,44.5,29.91,NNE,22,7.6,7.6,34,0.00,,CLR,0.00,VWS V14.01,2013-09-26 20:51:00,
2013-09-26 16:52:00,74.7,54.8,29.91,NNE,22,5.8,5.8,50,0.00,,CLR,0.00,VWS V14.01,2013-09-26 20:52:00,
2013-09-26 16:53:00,74.9,48.3,29.91,NE,45,5.6,5.6,39,0.00,,FEW080,0.00,VWS V14.01,2013-09-26 20:53:00,
2013-09-26 16:54:00,74.9,48.3,29.91,NNW,338,5.8,5.8,39,0.00,,CLR,0.00,VWS V14.01,2013-09-26 20:54:00,
2013-09-26 16:55:00,74.9,46.2,29.91,ENE,68,4.9,4.9,36,0.00,,CLR,0.00,VWS V14.01,2013-09-26 20:55:00,
2013-09-26 16:56:00,74.9,44.7,29.91,NE,45,5.6,5.6,34,0.00,,CLR,0.00,VWS V14.01,2013-09-26 20:56:00,
2013-09-26 16:57:00,74.9,48.3,29.91,NE,45,8.7,8.7,39,0.00,,CLR,0.00,VWS V14.01,2013-09-26 20:57:00,
2013-09-26 16:58:00,74.7,42.1,29.91,ENE,68,4.3,4.3,31,0.00,,FEW080,0.00,VWS V14.01,2013-09-26 20:58:00,
2013-09-26 16:59:00,75.1,54.6,29.91,NE,45,5.6,5.6,49,0.00,,CLR,0.00,VWS V14.01,2013-09-26 20:59:00,
2013-09-26 17:00:00,75.1,44.8,29.91,NE,45,9.8,9.8,34,0.00,,CLR,0.00,VWS V14.01,2013-09-26 21:00:00,
2013-09-26 17:01:00,74.7,42.1,29.91,NNE,22,6.3,6.3,31,0.00,,CLR,0.00,VWS V14.01,2013-09-26 21:01:00,
2013-09-26 17:02:00,74.7,46.0,29.91,ENE,68,5.4,5.4,36,0.00,,CLR,0.00,VWS V14.01,2013-09-26 21:02:00,
2013-09-26 17:03:00,73.6,50.4,29.91,NE,45,4.0,4.0,44,0.00,,FEW080,0.00,VWS V14.01,2013-09-26 21:03:00,
2013-09-26 17:04:00,74.0,48.8,29.91,ENE,68,8.5,8.5,41,0.00,,CLR,0.00,VWS V14.01,2013-09-26 21:04:00,
2013-09-26 17:05:00,74.0,48.8,29.91,NE,45,10.3,10.3,41,0.00,,CLR,0.00,VWS V14.01,2013-09-26 21:05:00,
2013-09-26 17:06:00,73.6,50.4,29.91,NNW,338,4.5,4.5,44,0.00,,CLR,0.00,VWS V14.01,2013-09-26 21:06:00,
2013-09-26 17:07:00,73.6,53.3,29.91,NNE,22,4.9,4.9,49,0.00,,CLR,0.00,VWS V14.01,2013-09-26 21:07:00,
2013-09-26 17:08:00,73.6,53.8,29.94,North,0,2.9,2.9,50,0.00,,FEW080,0.00,VWS V14.01,2013-09-26 21:08:00,
2013-09-26 17:09:00,73.4,53.7,29.91,NNW,338,3.4,3.4,50,0.00,,CLR,0.00,VWS V14.01,2013-09-26 21:09:00,
2013-09-26 17:10:00,73.6,53.8,29.94,North,0,3.1,3.1,50,0.00,,CLR,0.00,VWS V14.01,2013-09-26 21:10:00,
2013-09-26 17:11:00,73.6,53.8,29.94,North,0,2.9,2.9,50,0.00,,CLR,0.00,VWS V14.01,2013-09-26 21:11:00,
2013-09-26 17:12:00,73.6,53.8,29.94,NNE,22,4.0,4.0,50,0.00,,CLR,0.00,VWS V14.01,2013-09-26 21:12:00,
2013-09-26 17:13:00,74.0,48.8,29.94,NNE,22,4.7,4.7,41,0.00,,FEW080,0.00,VWS V14.01,2013-09-26 21:13:00,
2013-09-26 17:14:00,74.0,54.2,29.94,NNE,22,2.9,2.9,50,0.00,,CLR,0.00,VWS V14.01,2013-09-26 21:14:00,
2013-09-26 17:15:00,74.0,54.2,29.94,North,0,3.8,3.8,50,0.00,,CLR,0.00,VWS V14.01,2013-09-26 21:15:00,
2013-09-26 17:16:00,74.0,48.8,29.94,NNE,22,4.7,4.7,41,0.00,,CLR,0.00,VWS V14.01,2013-09-26 21:16:00,
2013-09-26 17:17:00,74.0,48.8,29.94,North,0,2.9,2.9,41,0.00,,CLR,0.00,VWS V14.01,2013-09-26 21:17:00,
2013-09-26 17:18:00,74.5,51.2,29.94,North,0,9.4,9.4,44,0.00,,FEW080,0.00,VWS V14.01,2013-09-26 21:18:00,
2013-09-26 17:19:00,74.3,54.0,29.94,NNE,22,3.1,3.1,49,0.00,,CLR,0.00,VWS V14.01,2013-09-26 21:19:00,
2013-09-26 17:20:00,74.3,54.0,29.94,NNW,338,7.4,7.4,49,0.00,,CLR,0.00,VWS V14.01,2013-09-26 21:20:00,
2013-09-26 17:21:00,74.5,51.2,29.94,North,0,9.4,9.4,44,0.00,,CLR,0.00,VWS V14.01,2013-09-26 21:21:00,
2013-09-26 17:22:00,74.5,54.1,29.94,NNE,22,4.9,4.9,49,0.00,,CLR,0.00,VWS V14.01,2013-09-26 21:22:00,
2013-09-26 17:23:00,74.5,54.1,29.94,North,0,4.9,4.9,49,0.00,,FEW080,0.00,VWS V14.01,2013-09-26 21:23:00,
2013-09-26 17:24:00,74.5,54.1,29.94,NE,45,3.8,3.8,49,0.00,,CLR,0.00,VWS V14.01,2013-09-26 21:24:00,
2013-09-26 17:25:00,74.3,51.0,29.94,ENE,68,7.4,7.4,44,0.00,,CLR,0.00,VWS V14.01,2013-09-26 21:25:00,
2013-09-26 17:26:00,74.5,54.1,29.94,North,0,4.9,4.9,49,0.00,,CLR,0.00,VWS V14.01,2013-09-26 21:26:00,
2013-09-26 17:27:00,74.3,54.0,29.94,NNE,22,7.8,7.8,49,0.00,,CLR,0.00,VWS V14.01,2013-09-26 21:27:00,
2013-09-26 17:28:00,74.5,52.4,29.94,NNE,22,6.0,6.0,46,0.00,,FEW080,0.00,VWS V14.01,2013-09-26 21:28:00,
2013-09-26 17:29:00,74.5,54.7,29.94,NNW,338,4.3,4.3,50,0.00,,CLR,0.00,VWS V14.01,2013-09-26 21:29:00,
2013-09-26 17:30:00,74.5,54.1,29.94,North,0,5.4,5.4,49,0.00,,CLR,0.00,VWS V14.01,2013-09-26 21:30:00,
2013-09-26 17:31:00,74.5,52.4,29.94,North,0,7.2,7.2,46,0.00,,CLR,0.00,VWS V14.01,2013-09-26 21:31:00,
2013-09-26 17:32:00,74.3,54.0,29.94,NE,45,8.1,8.1,49,0.00,,CLR,0.00,VWS V14.01,2013-09-26 21:32:00,
2013-09-26 17:33:00,74.3,54.0,29.94,NNW,338,6.3,6.3,49,0.00,,FEW080,0.00,VWS V14.01,2013-09-26 21:33:00,
2013-09-26 17:34:00,74.2,52.1,29.94,NE,45,6.5,6.5,46,0.00,,CLR,0.00,VWS V14.01,2013-09-26 21:34:00,
2013-09-26 17:35:00,74.3,54.0,29.94,NNE,22,3.8,3.8,49,0.00,,CLR,0.00,VWS V14.01,2013-09-26 21:35:00,
2013-09-26 17:36:00,74.3,54.0,29.94,NNW,338,6.3,6.3,49,0.00,,CLR,0.00,VWS V14.01,2013-09-26 21:36:00,
2013-09-26 17:37:00,74.2,49.0,29.94,North,0,4.0,4.0,41,0.00,,CLR,0.00,VWS V14.01,2013-09-26 21:37:00,
2013-09-26 17:38:00,73.6,50.4,29.97,North,0,6.0,6.0,44,0.00,,OVC080,0.00,VWS V14.01,2013-09-26 21:38:00,
2013-09-26 17:39:00,74.0,53.6,29.94,NNE,22,8.7,8.7,49,0.00,,CLR,0.00,VWS V14.01,2013-09-26 21:39:00,
2013-09-26 17:40:00,73.8,51.8,29.97,North,0,7.8,7.8,46,0.00,,CLR,0.00,VWS V14.01,2013-09-26 21:40:00,
2013-09-26 17:41:00,73.8,53.5,29.97,North,0,7.6,7.6,49,0.00,,CLR,0.00,VWS V14.01,2013-09-26 21:41:00,
2013-09-26 17:42:00,73.6,53.3,29.97,NNE,22,5.6,5.6,49,0.00,,CLR,0.00,VWS V14.01,2013-09-26 21:42:00,
2013-09-26 17:43:00,73.3,53.0,29.97,NE,45,4.0,4.0,49,0.00,,OVC080,0.00,VWS V14.01,2013-09-26 21:43:00,
2013-09-26 17:44:00,73.6,53.3,29.97,NNE,22,5.6,5.6,49,0.00,,CLR,0.00,VWS V14.01,2013-09-26 21:44:00,
2013-09-26 17:45:00,73.4,53.1,29.97,NNE,22,3.4,3.4,49,0.00,,CLR,0.00,VWS V14.01,2013-09-26 21:45:00,
2013-09-26 17:46:00,73.4,53.1,29.97,North,0,6.5,6.5,49,0.00,,CLR,0.00,VWS V14.01,2013-09-26 21:46:00,
2013-09-26 17:47:00,73.3,53.0,29.97,NNE,22,5.4,5.4,49,0.00,,CLR,0.00,VWS V14.01,2013-09-26 21:47:00,
2013-09-26 17:48:00,72.9,53.2,29.97,NNE,22,4.3,4.3,50,0.00,,OVC080,0.00,VWS V14.01,2013-09-26 21:48:00,
2013-09-26 17:49:00,72.9,51.5,29.97,NNE,22,5.4,5.4,47,0.00,,CLR,0.00,VWS V14.01,2013-09-26 21:49:00,
2013-09-26 17:50:00,72.9,51.5,29.97,North,0,3.1,3.1,47,0.00,,CLR,0.00,VWS V14.01,2013-09-26 21:50:00,
2013-09-26 17:51:00,72.9,53.2,29.97,NNE,22,4.3,4.3,50,0.00,,CLR,0.00,VWS V14.01,2013-09-26 21:51:00,
2013-09-26 17:52:00,72.9,53.2,29.97,NNE,22,4.0,4.0,50,0.00,,CLR,0.00,VWS V14.01,2013-09-26 21:52:00,
2013-09-26 17:53:00,72.7,53.0,29.94,NE,45,4.0,4.0,50,0.00,,OVC080,0.00,VWS V14.01,2013-09-26 21:53:00,
2013-09-26 17:54:00,72.7,52.5,29.97,NNE,22,5.4,5.4,49,0.00,,CLR,0.00,VWS V14.01,2013-09-26 21:54:00,
2013-09-26 17:55:00,72.7,52.5,29.94,NE,45,3.1,3.1,49,0.00,,CLR,0.00,VWS V14.01,2013-09-26 21:55:00,
2013-09-26 17:56:00,72.7,53.0,29.94,NE,45,5.8,5.8,50,0.00,,CLR,0.00,VWS V14.01,2013-09-26 21:56:00,
2013-09-26 17:57:00,72.5,53.9,29.94,NNE,22,4.0,4.0,52,0.00,,CLR,0.00,VWS V14.01,2013-09-26 21:57:00,
2013-09-26 17:58:00,72.5,54.5,29.94,NE,45,2.7,2.7,53,0.00,,OVC080,0.00,VWS V14.01,2013-09-26 21:58:00,
2013-09-26 17:59:00,72.5,53.4,29.94,NE,45,2.0,2.0,51,0.00,,CLR,0.00,VWS V14.01,2013-09-26 21:59:00,
2013-09-26 18:00:00,72.5,53.9,29.94,NE,45,1.6,1.6,52,0.00,,CLR,0.00,VWS V14.01,2013-09-26 22:00:00,
2013-09-26 18:01:00,72.5,53.9,29.94,NNE,22,1.6,1.6,52,0.00,,CLR,0.00,VWS V14.01,2013-09-26 22:01:00,
2013-09-26 18:02:00,72.5,54.5,29.94,NE,45,2.9,2.9,53,0.00,,CLR,0.00,VWS V14.01,2013-09-26 22:02:00,
2013-09-26 18:03:00,72.4,55.3,29.94,NE,45,3.8,3.8,55,0.00,,OVC080,0.00,VWS V14.01,2013-09-26 22:03:00,
2013-09-26 18:04:00,72.2,55.1,29.94,NE,45,2.9,2.9,55,0.00,,CLR,0.00,VWS V14.01,2013-09-26 22:04:00,
2013-09-26 18:05:00,72.4,54.8,29.94,NE,45,3.4,3.4,54,0.00,,CLR,0.00,VWS V14.01,2013-09-26 22:05:00,
2013-09-26 18:06:00,72.4,54.8,29.94,NE,45,3.4,3.4,54,0.00,,CLR,0.00,VWS V14.01,2013-09-26 22:06:00,
2013-09-26 18:07:00,72.4,55.3,29.94,NE,45,3.8,3.8,55,0.00,,CLR,0.00,VWS V14.01,2013-09-26 22:07:00,
2013-09-26 18:08:00,72.4,52.7,29.97,NE,45,3.6,3.6,50,0.00,,OVC080,0.00,VWS V14.01,2013-09-26 22:08:00,
2013-09-26 18:09:00,72.5,53.4,29.94,NNE,22,2.0,2.0,51,0.00,,CLR,0.00,VWS V14.01,2013-09-26 22:09:00,
2013-09-26 18:10:00,72.5,53.9,29.97,NNE,22,4.3,4.3,52,0.00,,CLR,0.00,VWS V14.01,2013-09-26 22:10:00,
2013-09-26 18:11:00,72.4,52.7,29.97,NE,45,3.4,3.4,50,0.00,,CLR,0.00,VWS V14.01,2013-09-26 22:11:00,
2013-09-26 18:12:00,72.4,53.8,29.97,NNE,22,6.3,6.3,52,0.00,,CLR,0.00,VWS V14.01,2013-09-26 22:12:00,
2013-09-26 18:13:00,72.4,53.8,29.97,NNE,22,0.9,0.9,52,0.00,,CLR,0.00,VWS V14.01,2013-09-26 22:13:00,
2013-09-26 18:14:00,72.0,54.0,29.97,NNE,22,1.3,1.3,53,0.00,,OVC080,0.00,VWS V14.01,2013-09-26 22:14:00,
2013-09-26 18:15:00,72.2,53.6,29.97,NNE,22,3.6,3.6,52,0.00,,CLR,0.00,VWS V14.01,2013-09-26 22:15:00,
2013-09-26 18:16:00,72.0,54.0,29.97,NNE,22,2.7,2.7,53,0.00,,CLR,0.00,VWS V14.01,2013-09-26 22:16:00,
2013-09-26 18:17:00,72.0,54.0,29.97,NNE,22,0.0,0.0,53,0.00,,CLR,0.00,VWS V14.01,2013-09-26 22:17:00,
2013-09-26 18:18:00,72.0,53.4,29.97,NNE,22,0.0,0.0,52,0.00,,CLR,0.00,VWS V14.01,2013-09-26 22:18:00,
2013-09-26 18:19:00,71.8,54.8,29.97,North,0,2.5,2.5,55,0.00,,OVC080,0.00,VWS V14.01,2013-09-26 22:19:00,
2013-09-26 18:20:00,71.8,54.8,29.97,NNE,22,1.6,1.6,55,0.00,,CLR,0.00,VWS V14.01,2013-09-26 22:20:00,
2013-09-26 18:21:00,71.8,54.8,29.97,NNE,22,1.1,1.1,55,0.00,,CLR,0.00,VWS V14.01,2013-09-26 22:21:00,
2013-09-26 18:22:00,71.8,54.8,29.97,NNE,22,2.5,2.5,55,0.00,,CLR,0.00,VWS V14.01,2013-09-26 22:22:00,
2013-09-26 18:23:00,71.8,54.3,29.97,NNE,22,4.0,4.0,54,0.00,,CLR,0.00,VWS V14.01,2013-09-26 22:23:00,
2013-09-26 18:24:00,71.6,54.1,29.97,NNE,22,2.7,2.7,54,0.00,,OVC080,0.00,VWS V14.01,2013-09-26 22:24:00,
2013-09-26 18:25:00,71.8,54.3,29.97,NNE,22,1.6,1.6,54,0.00,,CLR,0.00,VWS V14.01,2013-09-26 22:25:00,
2013-09-26 18:26:00,71.8,54.3,29.97,North,0,2.5,2.5,54,0.00,,CLR,0.00,VWS V14.01,2013-09-26 22:26:00,
2013-09-26 18:27:00,71.6,54.1,29.97,NNE,22,2.7,2.7,54,0.00,,CLR,0.00,VWS V14.01,2013-09-26 22:27:00,
2013-09-26 18:28:00,71.6,54.6,29.97,North,0,1.3,1.3,55,0.00,,CLR,0.00,VWS V14.01,2013-09-26 22:28:00,
2013-09-26 18:29:00,71.5,54.5,29.97,NNE,22,2.5,2.5,55,0.00,,OVC080,0.00,VWS V14.01,2013-09-26 22:29:00,
2013-09-26 18:30:00,71.6,54.1,29.97,North,0,2.7,2.7,54,0.00,,CLR,0.00,VWS V14.01,2013-09-26 22:30:00,
2013-09-26 18:31:00,71.5,54.5,29.97,NNE,22,3.1,3.1,55,0.00,,CLR,0.00,VWS V14.01,2013-09-26 22:31:00,
2013-09-26 18:32:00,71.5,54.5,29.97,NNE,22,2.5,2.5,55,0.00,,CLR,0.00,VWS V14.01,2013-09-26 22:32:00,
2013-09-26 18:33:00,71.5,54.5,29.97,NE,45,2.5,2.5,55,0.00,,CLR,0.00,VWS V14.01,2013-09-26 22:33:00,
2013-09-26 18:34:00,71.3,54.8,29.97,NNE,22,1.3,1.3,56,0.00,,OVC080,0.00,VWS V14.01,2013-09-26 22:34:00,
2013-09-26 18:35:00,71.5,54.5,29.97,NNE,22,0.9,0.9,55,0.00,,CLR,0.00,VWS V14.01,2013-09-26 22:35:00,
2013-09-26 18:36:00,71.3,54.3,29.97,NNE,22,2.7,2.7,55,0.00,,CLR,0.00,VWS V14.01,2013-09-26 22:36:00,
2013-09-26 18:37:00,71.3,54.8,29.97,NNE,22,1.3,1.3,56,0.00,,CLR,0.00,VWS V14.01,2013-09-26 22:37:00,
2013-09-26 18:38:00,71.3,55.8,29.97,NNE,22,1.1,1.1,58,0.00,,CLR,0.00,VWS V14.01,2013-09-26 22:38:00,
2013-09-26 18:39:00,71.1,55.1,29.97,NNE,22,1.6,1.6,57,0.00,,CLR,0.00,VWS V14.01,2013-09-26 22:39:00,
2013-09-26 18:40:00,71.1,55.6,29.97,NNE,22,2.5,2.5,58,0.00,,CLR,0.00,VWS V14.01,2013-09-26 22:40:00,
2013-09-26 18:41:00,71.1,56.5,29.97,NNE,22,0.9,0.9,60,0.00,,CLR,0.00,VWS V14.01,2013-09-26 22:41:00,
2013-09-26 18:42:00,71.1,55.1,29.97,NNE,22,1.6,1.6,57,0.00,,CLR,0.00,VWS V14.01,2013-09-26 22:42:00,
2013-09-26 18:43:00,70.9,55.9,29.97,NNE,22,2.5,2.5,59,0.00,,CLR,0.00,VWS V14.01,2013-09-26 22:43:00,
2013-09-26 18:44:00,70.9,55.9,29.97,NNE,22,2.2,2.2,59,0.00,,CLR,0.00,VWS V14.01,2013-09-26 22:44:00,
2013-09-26 18:45:00,70.9,54.9,29.97,NNE,22,2.0,2.0,57,0.00,,CLR,0.00,VWS V14.01,2013-09-26 22:45:00,
2013-09-26 18:46:00,70.9,55.9,29.97,NNE,22,1.3,1.3,59,0.00,,CLR,0.00,VWS V14.01,2013-09-26 22:46:00,
2013-09-26 18:47:00,70.9,55.9,29.97,NNE,22,0.9,0.9,59,0.00,,CLR,0.00,VWS V14.01,2013-09-26 22:47:00,
2013-09-26 18:48:00,70.9,55.9,29.97,NNE,22,1.1,1.1,59,0.00,,CLR,0.00,VWS V14.01,2013-09-26 22:48:00,
2013-09-26 18:49:00,70.6,56.0,29.97,NNE,22,0.0,0.0,60,0.00,,CLR,0.00,VWS V14.01,2013-09-26 22:49:00,
2013-09-26 18:50:00,70.7,55.7,29.97,NNE,22,0.9,0.9,59,0.00,,CLR,0.00,VWS V14.01,2013-09-26 22:50:00,
2013-09-26 18:51:00,70.7,56.2,29.97,NNE,22,0.0,0.0,60,0.00,,CLR,0.00,VWS V14.01,2013-09-26 22:51:00,
2013-09-26 18:52:00,70.6,56.0,29.97,NNE,22,0.0,0.0,60,0.00,,CLR,0.00,VWS V14.01,2013-09-26 22:52:00,
2013-09-26 18:53:00,70.6,56.0,29.97,NNE,22,0.0,0.0,60,0.00,,CLR,0.00,VWS V14.01,2013-09-26 22:53:00,
2013-09-26 18:54:00,70.4,55.8,29.97,NNW,338,0.0,0.0,60,0.00,,CLR,0.00,VWS V14.01,2013-09-26 22:54:00,
2013-09-26 18:55:00,70.6,55.1,29.97,NNE,22,1.1,1.1,58,0.00,,CLR,0.00,VWS V14.01,2013-09-26 22:55:00,
2013-09-26 18:56:00,70.4,55.8,29.97,NNW,338,1.6,1.6,60,0.00,,CLR,0.00,VWS V14.01,2013-09-26 22:56:00,
2013-09-26 18:57:00,70.4,55.8,29.97,NNW,338,0.0,0.0,60,0.00,,CLR,0.00,VWS V14.01,2013-09-26 22:57:00,
2013-09-26 18:58:00,70.4,55.8,29.97,NNW,338,0.0,0.0,60,0.00,,CLR,0.00,VWS V14.01,2013-09-26 22:58:00,
2013-09-26 18:59:00,70.0,56.0,29.97,NNE,22,2.0,2.0,61,0.00,,CLR,0.00,VWS V14.01,2013-09-26 22:59:00,
2013-09-26 19:00:00,70.2,55.7,29.97,North,0,0.0,0.0,60,0.00,,CLR,0.00,VWS V14.01,2013-09-26 23:00:00,
2013-09-26 19:01:00,70.0,56.0,29.97,NNE,22,2.7,2.7,61,0.00,,CLR,0.00,VWS V14.01,2013-09-26 23:01:00,
2013-09-26 19:02:00,70.0,55.5,29.97,NNE,22,1.6,1.6,60,0.00,,CLR,0.00,VWS V14.01,2013-09-26 23:02:00,
2013-09-26 19:03:00,70.0,56.0,29.97,NNE,22,1.1,1.1,61,0.00,,CLR,0.00,VWS V14.01,2013-09-26 23:03:00,
2013-09-26 19:04:00,69.5,55.9,29.97,North,0,0.9,0.9,62,0.00,,CLR,0.00,VWS V14.01,2013-09-26 23:04:00,
2013-09-26 19:05:00,69.8,55.8,29.97,North,0,1.3,1.3,61,0.00,,CLR,0.00,VWS V14.01,2013-09-26 23:05:00,
2013-09-26 19:06:00,69.7,55.6,29.97,NNE,22,3.1,3.1,61,0.00,,CLR,0.00,VWS V14.01,2013-09-26 23:06:00,
2013-09-26 19:07:00,69.5,55.5,29.97,NNE,22,1.3,1.3,61,0.00,,CLR,0.00,VWS V14.01,2013-09-26 23:07:00,
2013-09-26 19:08:00,69.5,55.9,29.97,North,0,1.1,1.1,62,0.00,,CLR,0.00,VWS V14.01,2013-09-26 23:08:00,
2013-09-26 19:09:00,69.5,55.5,29.97,North,0,2.2,2.2,61,0.00,,CLR,0.00,VWS V14.01,2013-09-26 23:09:00,
2013-09-26 19:10:00,69.3,55.7,29.94,NW,315,0.0,0.0,62,0.00,,CLR,0.00,VWS V14.01,2013-09-26 23:10:00,
2013-09-26 19:11:00,69.3,55.7,29.94,NNW,338,2.0,2.0,62,0.00,,CLR,0.00,VWS V14.01,2013-09-26 23:11:00,
2013-09-26 19:12:00,69.3,55.7,29.94,North,0,0.0,0.0,62,0.00,,CLR,0.00,VWS V14.01,2013-09-26 23:12:00,
2013-09-26 19:13:00,69.3,55.7,29.94,NW,315,0.0,0.0,62,0.00,,CLR,0.00,VWS V14.01,2013-09-26 23:13:00,
2013-09-26 19:14:00,68.9,55.0,29.94,NW,315,0.0,0.0,61,0.00,,CLR,0.00,VWS V14.01,2013-09-26 23:14:00,
2013-09-26 19:15:00,68.9,55.0,29.94,NW,315,0.0,0.0,61,0.00,,CLR,0.00,VWS V14.01,2013-09-26 23:15:00,
2013-09-26 19:16:00,68.9,55.0,29.94,NW,315,0.0,0.0,61,0.00,,CLR,0.00,VWS V14.01,2013-09-26 23:16:00,
2013-09-26 19:17:00,68.9,55.0,29.94,NW,315,0.0,0.0,61,0.00,,CLR,0.00,VWS V14.01,2013-09-26 23:17:00,
2013-09-26 19:18:00,68.8,55.2,29.94,NW,315,0.0,0.0,62,0.00,,CLR,0.00,VWS V14.01,2013-09-26 23:18:00,
2013-09-26 19:19:00,68.8,55.2,29.94,NW,315,0.0,0.0,62,0.00,,CLR,0.00,VWS V14.01,2013-09-26 23:19:00,
2013-09-26 19:20:00,68.2,54.7,29.94,NW,315,0.0,0.0,62,0.00,,CLR,0.00,VWS V14.01,2013-09-26 23:20:00,
2013-09-26 19:21:00,68.6,55.1,29.94,NW,315,0.0,0.0,62,0.00,,CLR,0.00,VWS V14.01,2013-09-26 23:21:00,
2013-09-26 19:22:00,68.4,54.9,29.94,NW,315,0.0,0.0,62,0.00,,CLR,0.00,VWS V14.01,2013-09-26 23:22:00,
2013-09-26 19:23:00,68.2,54.7,29.94,NW,315,0.0,0.0,62,0.00,,CLR,0.00,VWS V14.01,2013-09-26 23:23:00,
2013-09-26 19:24:00,68.2,54.7,29.94,NW,315,0.0,0.0,62,0.00,,CLR,0.00,VWS V14.01,2013-09-26 23:24:00,
2013-09-26 19:25:00,67.9,54.8,29.97,NW,315,0.0,0.0,63,0.00,,CLR,0.00,VWS V14.01,2013-09-26 23:25:00,
2013-09-26 19:26:00,68.0,55.0,29.97,NW,315,0.0,0.0,63,0.00,,CLR,0.00,VWS V14.01,2013-09-26 23:26:00,
2013-09-26 19:27:00,67.9,54.8,29.97,NW,315,0.0,0.0,63,0.00,,CLR,0.00,VWS V14.01,2013-09-26 23:27:00,
2013-09-26 19:28:00,67.9,54.8,29.97,NW,315,0.0,0.0,63,0.00,,CLR,0.00,VWS V14.01,2013-09-26 23:28:00,
2013-09-26 19:29:00,67.7,54.7,29.97,NW,315,0.0,0.0,63,0.00,,CLR,0.00,VWS V14.01,2013-09-26 23:29:00,
2013-09-26 19:30:00,67.3,54.7,29.97,NW,315,0.0,0.0,64,0.00,,CLR,0.00,VWS V14.01,2013-09-26 23:30:00,
2013-09-26 19:31:00,67.5,54.5,29.97,NW,315,0.0,0.0,63,0.00,,CLR,0.00,VWS V14.01,2013-09-26 23:31:00,
2013-09-26 19:32:00,67.5,54.9,29.97,NW,315,0.0,0.0,64,0.00,,CLR,0.00,VWS V14.01,2013-09-26 23:32:00,
2013-09-26 19:33:00,67.3,54.7,29.97,NW,315,0.0,0.0,64,0.00,,CLR,0.00,VWS V14.01,2013-09-26 23:33:00,
2013-09-26 19:34:00,67.1,54.6,29.97,NW,315,0.0,0.0,64,0.00,,CLR,0.00,VWS V14.01,2013-09-26 23:34:00,
2013-09-26 19:35:00,66.8,54.2,29.97,NW,315,0.0,0.0,64,0.00,,CLR,0.00,VWS V14.01,2013-09-26 23:35:00,
2013-09-26 19:36:00,67.0,54.4,29.97,NW,315,0.0,0.0,64,0.00,,CLR,0.00,VWS V14.01,2013-09-26 23:36:00,
2013-09-26 19:37:00,67.0,54.4,29.97,NW,315,0.0,0.0,64,0.00,,CLR,0.00,VWS V14.01,2013-09-26 23:37:00,
2013-09-26 19:38:00,66.8,54.2,29.97,NW,315,0.0,0.0,64,0.00,,CLR,0.00,VWS V14.01,2013-09-26 23:38:00,
2013-09-26 19:39:00,66.6,54.5,29.97,NW,315,0.0,0.0,65,0.00,,CLR,0.00,VWS V14.01,2013-09-26 23:39:00,
2013-09-26 19:40:00,66.2,55.0,29.97,NNW,338,0.0,0.0,67,0.00,,CLR,0.00,VWS V14.01,2013-09-26 23:40:00,
2013-09-26 19:41:00,66.4,54.3,29.97,NW,315,0.0,0.0,65,0.00,,CLR,0.00,VWS V14.01,2013-09-26 23:41:00,
2013-09-26 19:42:00,66.2,55.0,29.97,NW,315,0.0,0.0,67,0.00,,CLR,0.00,VWS V14.01,2013-09-26 23:42:00,
2013-09-26 19:43:00,66.2,55.0,29.97,NNW,338,0.0,0.0,67,0.00,,CLR,0.00,VWS V14.01,2013-09-26 23:43:00,
2013-09-26 19:44:00,66.2,55.0,29.97,North,0,1.3,1.3,67,0.00,,CLR,0.00,VWS V14.01,2013-09-26 23:44:00,
2013-09-26 19:45:00,65.9,55.0,29.97,NNW,338,0.0,0.0,68,0.00,,CLR,0.00,VWS V14.01,2013-09-26 23:45:00,
2013-09-26 19:46:00,66.2,55.0,29.97,NNW,338,0.0,0.0,67,0.00,,CLR,0.00,VWS V14.01,2013-09-26 23:46:00,
2013-09-26 19:47:00,66.2,55.0,29.97,NNW,338,0.0,0.0,67,0.00,,CLR,0.00,VWS V14.01,2013-09-26 23:47:00,
2013-09-26 19:48:00,65.9,55.0,29.97,NNW,338,0.0,0.0,68,0.00,,CLR,0.00,VWS V14.01,2013-09-26 23:48:00,
2013-09-26 19:49:00,65.9,55.0,29.97,NNW,338,0.0,0.0,68,0.00,,CLR,0.00,VWS V14.01,2013-09-26 23:49:00,
2013-09-26 19:50:00,65.7,55.3,29.97,North,0,2.2,2.2,69,0.00,,CLR,0.00,VWS V14.01,2013-09-26 23:50:00,
2013-09-26 19:51:00,65.7,54.9,29.97,NNW,338,0.0,0.0,68,0.00,,CLR,0.00,VWS V14.01,2013-09-26 23:51:00,
2013-09-26 19:52:00,65.7,55.3,29.97,NNW,338,0.0,0.0,69,0.00,,CLR,0.00,VWS V14.01,2013-09-26 23:52:00,
2013-09-26 19:53:00,65.7,55.3,29.97,North,0,2.2,2.2,69,0.00,,CLR,0.00,VWS V14.01,2013-09-26 23:53:00,
2013-09-26 19:54:00,65.7,54.9,29.97,North,0,0.0,0.0,68,0.00,,CLR,0.00,VWS V14.01,2013-09-26 23:54:00,
2013-09-26 19:55:00,65.7,55.7,29.97,NNW,338,1.1,1.1,70,0.00,,CLR,0.00,VWS V14.01,2013-09-26 23:55:00,
2013-09-26 19:56:00,65.7,55.3,29.97,North,0,1.1,1.1,69,0.00,,CLR,0.00,VWS V14.01,2013-09-26 23:56:00,
2013-09-26 19:57:00,65.7,55.3,29.97,NNW,338,1.6,1.6,69,0.00,,CLR,0.00,VWS V14.01,2013-09-26 23:57:00,
2013-09-26 19:58:00,65.7,55.7,29.97,NNW,338,1.1,1.1,70,0.00,,CLR,0.00,VWS V14.01,2013-09-26 23:58:00,
2013-09-26 19:59:00,65.7,55.3,29.97,NNW,338,0.0,0.0,69,0.00,,CLR,0.00,VWS V14.01,2013-09-26 23:59:00,
2013-09-26 20:00:00,65.7,55.3,29.97,NNW,338,0.0,0.0,69,0.00,,CLR,0.00,VWS V14.01,2013-09-27 00:00:00,
2013-09-26 20:01:00,65.7,55.7,29.97,NNW,338,0.0,0.0,70,0.00,,CLR,0.00,VWS V14.01,2013-09-27 00:01:00,
2013-09-26 20:02:00,65.7,55.7,29.97,NNW,338,0.0,0.0,70,0.00,,CLR,0.00,VWS V14.01,2013-09-27 00:02:00,
2013-09-26 20:03:00,65.7,55.3,29.97,NNW,338,0.0,0.0,69,0.00,,CLR,0.00,VWS V14.01,2013-09-27 00:03:00,
2013-09-26 20:04:00,65.7,55.3,29.97,NNW,338,0.0,0.0,69,0.00,,CLR,0.00,VWS V14.01,2013-09-27 00:04:00,
2013-09-26 20:05:00,65.3,55.7,29.97,NNE,22,2.7,2.7,71,0.00,,CLR,0.00,VWS V14.01,2013-09-27 00:05:00,
2013-09-26 20:06:00,65.5,55.9,29.97,North,0,1.3,1.3,71,0.00,,CLR,0.00,VWS V14.01,2013-09-27 00:06:00,
2013-09-26 20:07:00,65.5,55.9,29.97,North,0,0.0,0.0,71,0.00,,CLR,0.00,VWS V14.01,2013-09-27 00:07:00,
2013-09-26 20:08:00,65.3,55.7,29.97,NNE,22,2.7,2.7,71,0.00,,CLR,0.00,VWS V14.01,2013-09-27 00:08:00,
2013-09-26 20:09:00,65.3,56.1,29.97,North,0,0.9,0.9,72,0.00,,CLR,0.00,VWS V14.01,2013-09-27 00:09:00,
2013-09-26 20:10:00,65.2,55.9,29.94,North,0,2.9,2.9,72,0.00,,CLR,0.00,VWS V14.01,2013-09-27 00:10:00,
2013-09-26 20:11:00,65.3,56.1,29.94,North,0,1.3,1.3,72,0.00,,CLR,0.00,VWS V14.01,2013-09-27 00:11:00,
2013-09-26 20:12:00,65.2,55.9,29.94,North,0,1.3,1.3,72,0.00,,CLR,0.00,VWS V14.01,2013-09-27 00:12:00,
2013-09-26 20:13:00,65.2,55.9,29.94,North,0,2.9,2.9,72,0.00,,CLR,0.00,VWS V14.01,2013-09-27 00:13:00,
2013-09-26 20:14:00,65.2,55.9,29.94,NNE,22,1.3,1.3,72,0.00,,CLR,0.00,VWS V14.01,2013-09-27 00:14:00,
2013-09-26 20:15:00,65.3,56.1,29.94,NNE,22,2.5,2.5,72,0.00,,CLR,0.00,VWS V14.01,2013-09-27 00:15:00,
2013-09-26 20:16:00,65.2,56.3,29.94,NNE,22,2.5,2.5,73,0.00,,CLR,0.00,VWS V14.01,2013-09-27 00:16:00,
2013-09-26 20:17:00,65.2,55.9,29.94,NNE,22,3.8,3.8,72,0.00,,CLR,0.00,VWS V14.01,2013-09-27 00:17:00,
2013-09-26 20:18:00,65.3,56.1,29.94,NNE,22,2.5,2.5,72,0.00,,CLR,0.00,VWS V14.01,2013-09-27 00:18:00,
2013-09-26 20:19:00,65.3,56.1,29.94,NNE,22,2.9,2.9,72,0.00,,CLR,0.00,VWS V14.01,2013-09-27 00:19:00,
2013-09-26 20:20:00,65.5,56.3,29.94,NNE,22,2.0,2.0,72,0.00,,CLR,0.00,VWS V14.01,2013-09-27 00:20:00,
2013-09-26 20:21:00,65.5,56.3,29.94,NNE,22,4.0,4.0,72,0.00,,CLR,0.00,VWS V14.01,2013-09-27 00:21:00,
2013-09-26 20:22:00,65.5,56.3,29.94,NNE,22,3.1,3.1,72,0.00,,CLR,0.00,VWS V14.01,2013-09-27 00:22:00,
2013-09-26 20:23:00,65.5,56.3,29.94,NNE,22,2.0,2.0,72,0.00,,CLR,0.00,VWS V14.01,2013-09-27 00:23:00,
2013-09-26 20:24:00,65.5,56.3,29.94,NNE,22,2.7,2.7,72,0.00,,CLR,0.00,VWS V14.01,2013-09-27 00:24:00,
2013-09-26 20:25:00,65.3,56.1,29.97,NNE,22,3.4,3.4,72,0.00,,CLR,0.00,VWS V14.01,2013-09-27 00:25:00,
2013-09-26 20:26:00,65.3,56.1,29.97,NNE,22,2.7,2.7,72,0.00,,CLR,0.00,VWS V14.01,2013-09-27 00:26:00,
2013-09-26 20:27:00,65.3,56.1,29.97,NNE,22,2.7,2.7,72,0.00,,CLR,0.00,VWS V14.01,2013-09-27 00:27:00,
2013-09-26 20:28:00,65.3,56.1,29.97,NNE,22,2.9,2.9,72,0.00,,CLR,0.00,VWS V14.01,2013-09-27 00:28:00,
2013-09-26 20:29:00,65.2,55.9,29.97,NNE,22,3.1,3.1,72,0.00,,CLR,0.00,VWS V14.01,2013-09-27 00:29:00,
2013-09-26 20:30:00,65.2,55.9,29.97,NNE,22,2.5,2.5,72,0.00,,CLR,0.00,VWS V14.01,2013-09-27 00:30:00,
2013-09-26 20:31:00,65.2,55.9,29.97,NNE,22,2.9,2.9,72,0.00,,CLR,0.00,VWS V14.01,2013-09-27 00:31:00,
2013-09-26 20:32:00,65.3,56.1,29.97,NNE,22,2.7,2.7,72,0.00,,CLR,0.00,VWS V14.01,2013-09-27 00:32:00,
2013-09-26 20:33:00,65.2,55.9,29.97,NNE,22,2.5,2.5,72,0.00,,CLR,0.00,VWS V14.01,2013-09-27 00:33:00,
2013-09-26 20:34:00,65.2,55.9,29.97,NNE,22,2.9,2.9,72,0.00,,CLR,0.00,VWS V14.01,2013-09-27 00:34:00,
2013-09-26 20:35:00,65.0,55.8,29.97,NNE,22,2.5,2.5,72,0.00,,CLR,0.00,VWS V14.01,2013-09-27 00:35:00,
2013-09-26 20:36:00,65.0,55.8,29.97,North,0,3.4,3.4,72,0.00,,CLR,0.00,VWS V14.01,2013-09-27 00:36:00,
2013-09-26 20:37:00,65.0,55.8,29.97,NNE,22,2.7,2.7,72,0.00,,CLR,0.00,VWS V14.01,2013-09-27 00:37:00,
2013-09-26 20:38:00,65.0,55.8,29.97,NNE,22,2.5,2.5,72,0.00,,CLR,0.00,VWS V14.01,2013-09-27 00:38:00,
2013-09-26 20:39:00,65.0,56.1,29.97,NNE,22,2.7,2.7,73,0.00,,CLR,0.00,VWS V14.01,2013-09-27 00:39:00,
2013-09-26 20:40:00,64.6,55.8,29.97,NNE,22,2.0,2.0,73,0.00,,CLR,0.00,VWS V14.01,2013-09-27 00:40:00,
2013-09-26 20:41:00,64.8,56.0,29.97,NNE,22,2.7,2.7,73,0.00,,CLR,0.00,VWS V14.01,2013-09-27 00:41:00,
2013-09-26 20:42:00,64.8,56.0,29.97,NNE,22,2.7,2.7,73,0.00,,CLR,0.00,VWS V14.01,2013-09-27 00:42:00,
2013-09-26 20:43:00,64.6,55.8,29.97,NNE,22,2.0,2.0,73,0.00,,CLR,0.00,VWS V14.01,2013-09-27 00:43:00,
2013-09-26 20:44:00,64.6,55.8,29.97,NNE,22,2.2,2.2,73,0.00,,CLR,0.00,VWS V14.01,2013-09-27 00:44:00,
2013-09-26 20:45:00,64.4,56.0,29.97,NNE,22,2.9,2.9,74,0.00,,CLR,0.00,VWS V14.01,2013-09-27 00:45:00,
2013-09-26 20:46:00,64.6,55.8,29.97,NNE,22,2.0,2.0,73,0.00,,CLR,0.00,VWS V14.01,2013-09-27 00:46:00,
2013-09-26 20:47:00,64.6,55.8,29.97,NNE,22,3.4,3.4,73,0.00,,CLR,0.00,VWS V14.01,2013-09-27 00:47:00,
2013-09-26 20:48:00,64.4,56.0,29.97,NNE,22,2.9,2.9,74,0.00,,CLR,0.00,VWS V14.01,2013-09-27 00:48:00,
2013-09-26 20:49:00,64.4,56.0,29.97,NNE,22,1.3,1.3,74,0.00,,CLR,0.00,VWS V14.01,2013-09-27 00:49:00,
2013-09-26 20:50:00,64.4,55.6,29.97,NNE,22,3.4,3.4,73,0.00,,CLR,0.00,VWS V14.01,2013-09-27 00:50:00,
2013-09-26 20:51:00,64.4,55.6,29.97,NNE,22,3.1,3.1,73,0.00,,CLR,0.00,VWS V14.01,2013-09-27 00:51:00,
2013-09-26 20:52:00,64.4,55.6,29.97,NNE,22,4.7,4.7,73,0.00,,CLR,0.00,VWS V14.01,2013-09-27 00:52:00,
2013-09-26 20:53:00,64.4,55.6,29.97,NE,45,3.8,3.8,73,0.00,,CLR,0.00,VWS V14.01,2013-09-27 00:53:00,
2013-09-26 20:54:00,64.4,56.0,29.97,NNE,22,2.7,2.7,74,0.00,,CLR,0.00,VWS V14.01,2013-09-27 00:54:00,
2013-09-26 20:55:00,64.3,55.8,29.97,NNE,22,2.7,2.7,74,0.00,,CLR,0.00,VWS V14.01,2013-09-27 00:55:00,
2013-09-26 20:56:00,64.4,55.6,29.97,NNE,22,2.2,2.2,73,0.00,,CLR,0.00,VWS V14.01,2013-09-27 00:56:00,
2013-09-26 20:57:00,64.4,55.6,29.97,NNE,22,1.1,1.1,73,0.00,,CLR,0.00,VWS V14.01,2013-09-27 00:57:00,
2013-09-26 20:58:00,64.3,55.8,29.97,NNE,22,2.5,2.5,74,0.00,,CLR,0.00,VWS V14.01,2013-09-27 00:58:00,
2013-09-26 20:59:00,64.3,55.8,29.97,NNE,22,3.4,3.4,74,0.00,,CLR,0.00,VWS V14.01,2013-09-27 00:59:00,
2013-09-26 21:00:00,64.1,55.3,29.97,NNE,22,2.5,2.5,73,0.00,,CLR,0.00,VWS V14.01,2013-09-27 01:00:00,
2013-09-26 21:01:00,64.3,55.4,29.97,NNE,22,2.7,2.7,73,0.00,,CLR,0.00,VWS V14.01,2013-09-27 01:01:00,
2013-09-26 21:02:00,64.3,55.4,29.97,NNE,22,2.5,2.5,73,0.00,,CLR,0.00,VWS V14.01,2013-09-27 01:02:00,
2013-09-26 21:03:00,64.1,55.3,29.97,NNE,22,2.9,2.9,73,0.00,,CLR,0.00,VWS V14.01,2013-09-27 01:03:00,
2013-09-26 21:04:00,64.1,55.3,29.97,NNE,22,0.9,0.9,73,0.00,,CLR,0.00,VWS V14.01,2013-09-27 01:04:00,
2013-09-26 21:05:00,63.9,55.5,29.97,NNE,22,2.5,2.5,74,0.00,,CLR,0.00,VWS V14.01,2013-09-27 01:05:00,
2013-09-26 21:06:00,63.9,55.5,29.97,NNE,22,1.1,1.1,74,0.00,,CLR,0.00,VWS V14.01,2013-09-27 01:06:00,
2013-09-26 21:07:00,63.9,55.5,29.97,NNE,22,2.7,2.7,74,0.00,,CLR,0.00,VWS V14.01,2013-09-27 01:07:00,
2013-09-26 21:08:00,63.9,55.5,29.97,NNE,22,1.3,1.3,74,0.00,,CLR,0.00,VWS V14.01,2013-09-27 01:08:00,
2013-09-26 21:09:00,63.9,55.5,29.97,NNE,22,2.7,2.7,74,0.00,,CLR,0.00,VWS V14.01,2013-09-27 01:09:00,
2013-09-26 21:10:00,63.9,55.1,30.00,NNE,22,1.6,1.6,73,0.00,,CLR,0.00,VWS V14.01,2013-09-27 01:10:00,
2013-09-26 21:11:00,63.7,54.9,30.00,NNE,22,1.6,1.6,73,0.00,,CLR,0.00,VWS V14.01,2013-09-27 01:11:00,
2013-09-26 21:12:00,63.7,54.9,30.00,NNE,22,2.7,2.7,73,0.00,,CLR,0.00,VWS V14.01,2013-09-27 01:12:00,
2013-09-26 21:13:00,63.7,54.9,30.00,NNE,22,2.5,2.5,73,0.00,,CLR,0.00,VWS V14.01,2013-09-27 01:13:00,
2013-09-26 21:14:00,63.7,54.9,30.00,NNE,22,1.6,1.6,73,0.00,,CLR,0.00,VWS V14.01,2013-09-27 01:14:00,
2013-09-26 21:15:00,63.5,55.1,30.00,NNE,22,2.2,2.2,74,0.00,,CLR,0.00,VWS V14.01,2013-09-27 01:15:00,
2013-09-26 21:16:00,63.5,55.1,30.00,NNE,22,1.3,1.3,74,0.00,,CLR,0.00,VWS V14.01,2013-09-27 01:16:00,
2013-09-26 21:17:00,63.5,55.1,30.00,North,0,1.6,1.6,74,0.00,,CLR,0.00,VWS V14.01,2013-09-27 01:17:00,
2013-09-26 21:18:00,63.5,55.1,30.00,NNE,22,2.5,2.5,74,0.00,,CLR,0.00,VWS V14.01,2013-09-27 01:18:00,
2013-09-26 21:19:00,63.5,55.1,30.00,NNE,22,1.3,1.3,74,0.00,,CLR,0.00,VWS V14.01,2013-09-27 01:19:00,
2013-09-26 21:20:00,63.4,54.9,30.00,NNE,22,2.7,2.7,74,0.00,,CLR,0.00,VWS V14.01,2013-09-27 01:20:00,
2013-09-26 21:21:00,63.2,54.4,30.00,NNE,22,4.0,4.0,73,0.00,,CLR,0.00,VWS V14.01,2013-09-27 01:21:00,
2013-09-26 21:22:00,63.4,54.9,30.00,NNE,22,1.6,1.6,74,0.00,,CLR,0.00,VWS V14.01,2013-09-27 01:22:00,
2013-09-26 21:23:00,63.4,54.9,30.00,NE,45,2.0,2.0,74,0.00,,CLR,0.00,VWS V14.01,2013-09-27 01:23:00,
2013-09-26 21:24:00,63.2,54.4,30.00,NNE,22,4.0,4.0,73,0.00,,CLR,0.00,VWS V14.01,2013-09-27 01:24:00,
2013-09-26 21:25:00,63.2,54.4,30.03,NNE,22,2.5,2.5,73,0.00,,CLR,0.00,VWS V14.01,2013-09-27 01:25:00,
2013-09-26 21:26:00,63.2,54.8,30.03,NNE,22,2.7,2.7,74,0.00,,CLR,0.00,VWS V14.01,2013-09-27 01:26:00,
2013-09-26 21:27:00,63.2,54.4,30.03,NNE,22,2.5,2.5,73,0.00,,CLR,0.00,VWS V14.01,2013-09-27 01:27:00,
2013-09-26 21:28:00,63.2,54.8,30.03,NNE,22,2.0,2.0,74,0.00,,CLR,0.00,VWS V14.01,2013-09-27 01:28:00,
2013-09-26 21:29:00,63.2,54.8,30.03,NNE,22,2.7,2.7,74,0.00,,CLR,0.00,VWS V14.01,2013-09-27 01:29:00,
2013-09-26 21:30:00,63.2,54.8,30.03,NNE,22,2.5,2.5,74,0.00,,CLR,0.00,VWS V14.01,2013-09-27 01:30:00,
2013-09-26 21:31:00,63.2,54.8,30.03,NNE,22,2.9,2.9,74,0.00,,CLR,0.00,VWS V14.01,2013-09-27 01:31:00,
2013-09-26 21:32:00,63.2,54.8,30.03,NNE,22,2.5,2.5,74,0.00,,CLR,0.00,VWS V14.01,2013-09-27 01:32:00,
2013-09-26 21:33:00,63.2,54.8,30.03,NNE,22,0.9,0.9,74,0.00,,CLR,0.00,VWS V14.01,2013-09-27 01:33:00,
2013-09-26 21:34:00,63.2,54.8,30.03,NNE,22,2.9,2.9,74,0.00,,CLR,0.00,VWS V14.01,2013-09-27 01:34:00,
2013-09-26 21:35:00,63.0,54.6,30.03,NNE,22,2.5,2.5,74,0.00,,CLR,0.00,VWS V14.01,2013-09-27 01:35:00,
2013-09-26 21:36:00,62.8,54.4,30.00,NNE,22,2.0,2.0,74,0.00,,CLR,0.00,VWS V14.01,2013-09-27 01:36:00,
2013-09-26 21:37:00,63.0,54.6,30.03,NNE,22,2.7,2.7,74,0.00,,CLR,0.00,VWS V14.01,2013-09-27 01:37:00,
2013-09-26 21:38:00,62.8,54.4,30.03,NNE,22,2.9,2.9,74,0.00,,CLR,0.00,VWS V14.01,2013-09-27 01:38:00,
2013-09-26 21:39:00,62.8,54.4,30.03,NNE,22,2.5,2.5,74,0.00,,CLR,0.00,VWS V14.01,2013-09-27 01:39:00,
2013-09-26 21:40:00,62.8,54.4,30.00,NNE,22,2.7,2.7,74,0.00,,CLR,0.00,VWS V14.01,2013-09-27 01:40:00,
2013-09-26 21:41:00,62.8,54.4,30.00,NNE,22,2.7,2.7,74,0.00,,CLR,0.00,VWS V14.01,2013-09-27 01:41:00,
2013-09-26 21:42:00,62.8,54.4,30.00,NNE,22,2.5,2.5,74,0.00,,CLR,0.00,VWS V14.01,2013-09-27 01:42:00,
2013-09-26 21:43:00,62.8,54.4,30.00,NNE,22,2.7,2.7,74,0.00,,CLR,0.00,VWS V14.01,2013-09-27 01:43:00,
2013-09-26 21:44:00,62.8,54.4,30.00,North,0,2.0,2.0,74,0.00,,CLR,0.00,VWS V14.01,2013-09-27 01:44:00,
2013-09-26 21:45:00,62.8,54.4,30.00,NNE,22,3.1,3.1,74,0.00,,CLR,0.00,VWS V14.01,2013-09-27 01:45:00,
2013-09-26 21:46:00,62.8,54.4,30.00,NNE,22,2.5,2.5,74,0.00,,CLR,0.00,VWS V14.01,2013-09-27 01:46:00,
2013-09-26 21:47:00,62.8,54.4,30.00,NNE,22,2.5,2.5,74,0.00,,CLR,0.00,VWS V14.01,2013-09-27 01:47:00,
2013-09-26 21:48:00,62.8,54.4,30.00,NNE,22,3.6,3.6,74,0.00,,CLR,0.00,VWS V14.01,2013-09-27 01:48:00,
2013-09-26 21:49:00,62.8,54.4,30.00,NNE,22,2.7,2.7,74,0.00,,CLR,0.00,VWS V14.01,2013-09-27 01:49:00,
2013-09-26 21:50:00,62.8,54.4,30.00,NNE,22,3.4,3.4,74,0.00,,CLR,0.00,VWS V14.01,2013-09-27 01:50:00,
2013-09-26 21:51:00,62.8,54.4,30.00,NNE,22,3.4,3.4,74,0.00,,CLR,0.00,VWS V14.01,2013-09-27 01:51:00,
2013-09-26 21:52:00,62.6,54.2,30.00,North,0,2.2,2.2,74,0.00,,CLR,0.00,VWS V14.01,2013-09-27 01:52:00,
2013-09-26 21:53:00,62.8,54.4,30.00,NNE,22,2.7,2.7,74,0.00,,CLR,0.00,VWS V14.01,2013-09-27 01:53:00,
2013-09-26 21:54:00,62.6,54.2,30.00,NNE,22,2.7,2.7,74,0.00,,CLR,0.00,VWS V14.01,2013-09-27 01:54:00,
2013-09-26 21:55:00,62.6,54.2,30.00,North,0,1.6,1.6,74,0.00,,CLR,0.00,VWS V14.01,2013-09-27 01:55:00,
2013-09-26 21:56:00,62.6,54.2,30.00,NNE,22,2.9,2.9,74,0.00,,CLR,0.00,VWS V14.01,2013-09-27 01:56:00,
2013-09-26 21:57:00,62.3,54.3,30.00,NNE,22,2.9,2.9,75,0.00,,CLR,0.00,VWS V14.01,2013-09-27 01:57:00,
2013-09-26 21:58:00,62.5,54.4,30.00,NNE,22,2.5,2.5,75,0.00,,CLR,0.00,VWS V14.01,2013-09-27 01:58:00,
2013-09-26 21:59:00,62.5,54.4,30.00,NNE,22,2.5,2.5,75,0.00,,CLR,0.00,VWS V14.01,2013-09-27 01:59:00,
2013-09-26 22:00:00,62.3,54.3,30.00,NNE,22,2.9,2.9,75,0.00,,CLR,0.00,VWS V14.01,2013-09-27 02:00:00,
2013-09-26 22:01:00,62.3,54.3,30.00,North,0,1.6,1.6,75,0.00,,CLR,0.00,VWS V14.01,2013-09-27 02:01:00,
2013-09-26 22:02:00,62.3,54.3,30.00,NNE,22,2.5,2.5,75,0.00,,CLR,0.00,VWS V14.01,2013-09-27 02:02:00,
2013-09-26 22:03:00,62.3,54.3,30.00,North,0,2.9,2.9,75,0.00,,CLR,0.00,VWS V14.01,2013-09-27 02:03:00,
2013-09-26 22:04:00,62.3,54.3,30.00,NNE,22,2.9,2.9,75,0.00,,CLR,0.00,VWS V14.01,2013-09-27 02:04:00,
2013-09-26 22:05:00,62.3,54.3,30.00,NNE,22,2.5,2.5,75,0.00,,CLR,0.00,VWS V14.01,2013-09-27 02:05:00,
2013-09-26 22:06:00,62.3,54.3,30.00,NNE,22,2.9,2.9,75,0.00,,CLR,0.00,VWS V14.01,2013-09-27 02:06:00,
2013-09-26 22:07:00,62.1,54.1,30.03,NNE,22,2.5,2.5,75,0.00,,CLR,0.00,VWS V14.01,2013-09-27 02:07:00,
2013-09-26 22:08:00,62.3,54.3,30.00,NNE,22,2.0,2.0,75,0.00,,CLR,0.00,VWS V14.01,2013-09-27 02:08:00,
2013-09-26 22:09:00,62.3,54.3,30.00,NNE,22,1.6,1.6,75,0.00,,CLR,0.00,VWS V14.01,2013-09-27 02:09:00,
2013-09-26 22:10:00,62.1,54.1,30.03,NNE,22,2.5,2.5,75,0.00,,CLR,0.00,VWS V14.01,2013-09-27 02:10:00,
2013-09-26 22:11:00,62.1,54.1,30.03,NNE,22,1.3,1.3,75,0.00,,CLR,0.00,VWS V14.01,2013-09-27 02:11:00,
2013-09-26 22:12:00,61.7,53.7,30.03,NNE,22,1.6,1.6,75,0.00,,CLR,0.00,VWS V14.01,2013-09-27 02:12:00,
2013-09-26 22:13:00,61.9,53.9,30.03,NNE,22,2.0,2.0,75,0.00,,CLR,0.00,VWS V14.01,2013-09-27 02:13:00,
2013-09-26 22:14:00,61.9,53.9,30.03,NNE,22,2.7,2.7,75,0.00,,CLR,0.00,VWS V14.01,2013-09-27 02:14:00,
2013-09-26 22:15:00,61.7,53.7,30.03,NNE,22,2.0,2.0,75,0.00,,CLR,0.00,VWS V14.01,2013-09-27 02:15:00,
2013-09-26 22:16:00,61.7,53.7,30.03,NNE,22,2.0,2.0,75,0.00,,CLR,0.00,VWS V14.01,2013-09-27 02:16:00,
2013-09-26 22:17:00,61.7,54.1,30.03,NNE,22,2.5,2.5,76,0.00,,CLR,0.00,VWS V14.01,2013-09-27 02:17:00,
2013-09-26 22:18:00,61.7,54.1,30.03,NNE,22,2.0,2.0,76,0.00,,CLR,0.00,VWS V14.01,2013-09-27 02:18:00,
2013-09-26 22:19:00,61.7,54.1,30.03,NNE,22,2.7,2.7,76,0.00,,CLR,0.00,VWS V14.01,2013-09-27 02:19:00,
2013-09-26 22:20:00,61.7,54.1,30.03,NNE,22,2.5,2.5,76,0.00,,CLR,0.00,VWS V14.01,2013-09-27 02:20:00,
2013-09-26 22:21:00,61.7,54.1,30.03,NNE,22,2.0,2.0,76,0.00,,CLR,0.00,VWS V14.01,2013-09-27 02:21:00,
2013-09-26 22:22:00,61.7,54.1,30.00,NNE,22,2.0,2.0,76,0.00,,CLR,0.00,VWS V14.01,2013-09-27 02:22:00,
2013-09-26 22:23:00,61.7,54.1,30.03,NNE,22,3.4,3.4,76,0.00,,CLR,0.00,VWS V14.01,2013-09-27 02:23:00,
2013-09-26 22:24:00,61.7,54.1,30.03,NNE,22,2.5,2.5,76,0.00,,CLR,0.00,VWS V14.01,2013-09-27 02:24:00,
2013-09-26 22:25:00,61.7,54.1,30.00,NNE,22,1.6,1.6,76,0.00,,CLR,0.00,VWS V14.01,2013-09-27 02:25:00,
2013-09-26 22:26:00,61.6,53.9,30.00,NNE,22,2.5,2.5,76,0.00,,CLR,0.00,VWS V14.01,2013-09-27 02:26:00,
2013-09-26 22:27:00,61.6,53.9,30.00,NNE,22,2.5,2.5,76,0.00,,CLR,0.00,VWS V14.01,2013-09-27 02:27:00,
2013-09-26 22:28:00,61.6,53.9,30.00,NNE,22,2.5,2.5,76,0.00,,CLR,0.00,VWS V14.01,2013-09-27 02:28:00,
2013-09-26 22:29:00,61.6,53.9,30.00,NNE,22,2.9,2.9,76,0.00,,CLR,0.00,VWS V14.01,2013-09-27 02:29:00,
2013-09-26 22:30:00,61.6,53.9,30.00,NNE,22,2.7,2.7,76,0.00,,CLR,0.00,VWS V14.01,2013-09-27 02:30:00,
2013-09-26 22:31:00,61.6,53.9,30.00,NNE,22,2.0,2.0,76,0.00,,CLR,0.00,VWS V14.01,2013-09-27 02:31:00,
2013-09-26 22:32:00,61.6,53.9,30.00,NNE,22,3.1,3.1,76,0.00,,CLR,0.00,VWS V14.01,2013-09-27 02:32:00,
2013-09-26 22:33:00,61.6,53.9,30.00,NNE,22,2.9,2.9,76,0.00,,CLR,0.00,VWS V14.01,2013-09-27 02:33:00,
2013-09-26 22:34:00,61.6,53.9,30.00,NNE,22,1.1,1.1,76,0.00,,CLR,0.00,VWS V14.01,2013-09-27 02:34:00,
2013-09-26 22:35:00,61.6,53.9,30.00,NNE,22,2.7,2.7,76,0.00,,CLR,0.00,VWS V14.01,2013-09-27 02:35:00,
2013-09-26 22:36:00,61.6,53.9,30.00,NNE,22,1.6,1.6,76,0.00,,CLR,0.00,VWS V14.01,2013-09-27 02:36:00,
2013-09-26 22:37:00,61.4,53.8,30.03,NNE,22,2.2,2.2,76,0.00,,CLR,0.00,VWS V14.01,2013-09-27 02:37:00,
2013-09-26 22:38:00,61.4,53.8,30.00,NNE,22,3.4,3.4,76,0.00,,CLR,0.00,VWS V14.01,2013-09-27 02:38:00,
2013-09-26 22:39:00,61.4,53.8,30.00,NNE,22,3.6,3.6,76,0.00,,CLR,0.00,VWS V14.01,2013-09-27 02:39:00,
2013-09-26 22:40:00,61.4,53.8,30.03,NNE,22,2.5,2.5,76,0.00,,CLR,0.00,VWS V14.01,2013-09-27 02:40:00,
2013-09-26 22:41:00,61.4,53.8,30.03,NNE,22,2.5,2.5,76,0.00,,CLR,0.00,VWS V14.01,2013-09-27 02:41:00,
2013-09-26 22:42:00,61.2,53.6,30.03,NNE,22,2.9,2.9,76,0.00,,CLR,0.00,VWS V14.01,2013-09-27 02:42:00,
2013-09-26 22:43:00,61.4,53.8,30.03,NNE,22,2.5,2.5,76,0.00,,CLR,0.00,VWS V14.01,2013-09-27 02:43:00,
2013-09-26 22:44:00,61.2,53.6,30.03,NNE,22,2.9,2.9,76,0.00,,CLR,0.00,VWS V14.01,2013-09-27 02:44:00,
2013-09-26 22:45:00,61.2,53.6,30.03,NNE,22,2.0,2.0,76,0.00,,CLR,0.00,VWS V14.01,2013-09-27 02:45:00,
2013-09-26 22:46:00,61.2,53.6,30.03,NNE,22,2.9,2.9,76,0.00,,CLR,0.00,VWS V14.01,2013-09-27 02:46:00,
2013-09-26 22:47:00,61.2,53.6,30.03,NNE,22,2.2,2.2,76,0.00,,CLR,0.00,VWS V14.01,2013-09-27 02:47:00,
2013-09-26 22:48:00,61.2,53.6,30.03,North,0,1.6,1.6,76,0.00,,CLR,0.00,VWS V14.01,2013-09-27 02:48:00,
2013-09-26 22:49:00,61.2,53.6,30.03,NNE,22,2.7,2.7,76,0.00,,CLR,0.00,VWS V14.01,2013-09-27 02:49:00,
2013-09-26 22:50:00,61.2,53.6,30.03,NNE,22,2.7,2.7,76,0.00,,CLR,0.00,VWS V14.01,2013-09-27 02:50:00,
2013-09-26 22:51:00,61.2,53.6,30.03,NNE,22,1.3,1.3,76,0.00,,CLR,0.00,VWS V14.01,2013-09-27 02:51:00,
2013-09-26 22:52:00,61.2,53.6,30.03,NNE,22,1.6,1.6,76,0.00,,CLR,0.00,VWS V14.01,2013-09-27 02:52:00,
2013-09-26 22:53:00,61.2,53.6,30.03,NNE,22,2.0,2.0,76,0.00,,CLR,0.00,VWS V14.01,2013-09-27 02:53:00,
2013-09-26 22:54:00,61.2,53.6,30.03,NNE,22,0.9,0.9,76,0.00,,CLR,0.00,VWS V14.01,2013-09-27 02:54:00,
2013-09-26 22:55:00,61.2,53.6,30.03,NNE,22,1.6,1.6,76,0.00,,CLR,0.00,VWS V14.01,2013-09-27 02:55:00,
2013-09-26 22:56:00,61.2,53.6,30.03,NNE,22,1.1,1.1,76,0.00,,CLR,0.00,VWS V14.01,2013-09-27 02:56:00,
2013-09-26 22:57:00,61.0,53.4,30.03,NNE,22,1.6,1.6,76,0.00,,CLR,0.00,VWS V14.01,2013-09-27 02:57:00,
2013-09-26 22:58:00,61.0,53.4,30.03,NNE,22,2.0,2.0,76,0.00,,CLR,0.00,VWS V14.01,2013-09-27 02:58:00,
2013-09-26 22:59:00,61.0,53.4,30.03,NNE,22,2.2,2.2,76,0.00,,CLR,0.00,VWS V14.01,2013-09-27 02:59:00,
2013-09-26 23:00:00,61.0,53.4,30.03,NNE,22,2.7,2.7,76,0.00,,CLR,0.00,VWS V14.01,2013-09-27 03:00:00,
2013-09-26 23:01:00,61.0,53.4,30.03,NNE,22,2.0,2.0,76,0.00,,CLR,0.00,VWS V14.01,2013-09-27 03:01:00,
2013-09-26 23:02:00,61.0,53.4,30.03,NNE,22,1.6,1.6,76,0.00,,CLR,0.00,VWS V14.01,2013-09-27 03:02:00,
2013-09-26 23:03:00,60.7,53.1,30.03,NNE,22,1.6,1.6,76,0.00,,CLR,0.00,VWS V14.01,2013-09-27 03:03:00,
2013-09-26 23:04:00,60.8,53.2,30.03,NNE,22,2.2,2.2,76,0.00,,CLR,0.00,VWS V14.01,2013-09-27 03:04:00,
2013-09-26 23:05:00,60.8,53.2,30.03,NNE,22,2.0,2.0,76,0.00,,CLR,0.00,VWS V14.01,2013-09-27 03:05:00,
2013-09-26 23:06:00,60.7,53.1,30.03,NNE,22,2.0,2.0,76,0.00,,CLR,0.00,VWS V14.01,2013-09-27 03:06:00,
2013-09-26 23:07:00,60.7,53.1,30.03,NNE,22,1.3,1.3,76,0.00,,CLR,0.00,VWS V14.01,2013-09-27 03:07:00,
2013-09-26 23:08:00,60.5,52.9,30.03,NNE,22,1.3,1.3,76,0.00,,CLR,0.00,VWS V14.01,2013-09-27 03:08:00,
2013-09-26 23:09:00,60.5,52.9,30.03,NNE,22,0.9,0.9,76,0.00,,CLR,0.00,VWS V14.01,2013-09-27 03:09:00,
2013-09-26 23:10:00,60.5,52.9,30.03,NNE,22,2.0,2.0,76,0.00,,CLR,0.00,VWS V14.01,2013-09-27 03:10:00,
2013-09-26 23:11:00,60.5,52.9,30.03,NNE,22,1.3,1.3,76,0.00,,CLR,0.00,VWS V14.01,2013-09-27 03:11:00,
2013-09-26 23:12:00,60.5,53.2,30.03,NNE,22,0.0,0.0,77,0.00,,CLR,0.00,VWS V14.01,2013-09-27 03:12:00,
2013-09-26 23:13:00,60.3,53.1,30.03,NNE,22,0.9,0.9,77,0.00,,CLR,0.00,VWS V14.01,2013-09-27 03:13:00,
2013-09-26 23:14:00,60.3,53.1,30.03,NNE,22,2.0,2.0,77,0.00,,CLR,0.00,VWS V14.01,2013-09-27 03:14:00,
2013-09-26 23:15:00,60.3,53.1,30.03,NNE,22,2.0,2.0,77,0.00,,CLR,0.00,VWS V14.01,2013-09-27 03:15:00,
2013-09-26 23:16:00,60.3,53.1,30.03,NNE,22,1.1,1.1,77,0.00,,CLR,0.00,VWS V14.01,2013-09-27 03:16:00,
2013-09-26 23:17:00,60.3,53.1,30.03,NNE,22,1.1,1.1,77,0.00,,CLR,0.00,VWS V14.01,2013-09-27 03:17:00,
2013-09-26 23:18:00,60.3,53.1,30.03,NNE,22,1.3,1.3,77,0.00,,CLR,0.00,VWS V14.01,2013-09-27 03:18:00,
2013-09-26 23:19:00,60.1,52.9,30.03,NNE,22,2.2,2.2,77,0.00,,CLR,0.00,VWS V14.01,2013-09-27 03:19:00,
2013-09-26 23:20:00,60.3,53.1,30.03,NNE,22,1.6,1.6,77,0.00,,CLR,0.00,VWS V14.01,2013-09-27 03:20:00,
2013-09-26 23:21:00,60.3,53.1,30.03,NNE,22,1.3,1.3,77,0.00,,CLR,0.00,VWS V14.01,2013-09-27 03:21:00,
2013-09-26 23:22:00,60.1,52.9,30.03,NNE,22,2.2,2.2,77,0.00,,CLR,0.00,VWS V14.01,2013-09-27 03:22:00,
2013-09-26 23:23:00,60.1,52.9,30.03,NNE,22,2.0,2.0,77,0.00,,CLR,0.00,VWS V14.01,2013-09-27 03:23:00,
2013-09-26 23:24:00,60.1,52.9,30.03,NNE,22,2.0,2.0,77,0.00,,CLR,0.00,VWS V14.01,2013-09-27 03:24:00,
2013-09-26 23:25:00,60.1,52.9,30.03,NNE,22,2.5,2.5,77,0.00,,CLR,0.00,VWS V14.01,2013-09-27 03:25:00,
2013-09-26 23:26:00,60.1,52.9,30.03,NNE,22,2.2,2.2,77,0.00,,CLR,0.00,VWS V14.01,2013-09-27 03:26:00,
2013-09-26 23:27:00,60.1,52.9,30.03,NNE,22,1.3,1.3,77,0.00,,CLR,0.00,VWS V14.01,2013-09-27 03:27:00,
2013-09-26 23:28:00,59.9,52.7,30.03,NNE,22,0.9,0.9,77,0.00,,CLR,0.00,VWS V14.01,2013-09-27 03:28:00,
2013-09-26 23:29:00,59.9,52.7,30.03,NNE,22,0.0,0.0,77,0.00,,CLR,0.00,VWS V14.01,2013-09-27 03:29:00,
2013-09-26 23:30:00,59.9,52.7,30.03,NNE,22,1.3,1.3,77,0.00,,CLR,0.00,VWS V14.01,2013-09-27 03:30:00,
2013-09-26 23:31:00,59.9,52.7,30.03,NNE,22,0.9,0.9,77,0.00,,CLR,0.00,VWS V14.01,2013-09-27 03:31:00,
2013-09-26 23:32:00,59.9,52.7,30.03,NNE,22,2.5,2.5,77,0.00,,CLR,0.00,VWS V14.01,2013-09-27 03:32:00,
2013-09-26 23:33:00,60.1,52.9,30.03,NNE,22,2.5,2.5,77,0.00,,CLR,0.00,VWS V14.01,2013-09-27 03:33:00,
2013-09-26 23:34:00,60.1,52.9,30.03,NNE,22,1.1,1.1,77,0.00,,CLR,0.00,VWS V14.01,2013-09-27 03:34:00,
2013-09-26 23:35:00,59.9,52.7,30.03,NNE,22,2.0,2.0,77,0.00,,CLR,0.00,VWS V14.01,2013-09-27 03:35:00,
2013-09-26 23:36:00,60.1,52.9,30.03,NNE,22,2.5,2.5,77,0.00,,CLR,0.00,VWS V14.01,2013-09-27 03:36:00,
2013-09-26 23:37:00,60.1,52.9,30.03,NNE,22,2.0,2.0,77,0.00,,CLR,0.00,VWS V14.01,2013-09-27 03:37:00,
2013-09-26 23:38:00,60.1,52.9,30.03,NNE,22,3.1,3.1,77,0.00,,CLR,0.00,VWS V14.01,2013-09-27 03:38:00,
2013-09-26 23:39:00,60.1,52.9,30.03,NNE,22,1.3,1.3,77,0.00,,CLR,0.00,VWS V14.01,2013-09-27 03:39:00,
2013-09-26 23:40:00,60.1,52.9,30.03,NNE,22,1.6,1.6,77,0.00,,CLR,0.00,VWS V14.01,2013-09-27 03:40:00,
2013-09-26 23:41:00,60.1,52.9,30.03,NNE,22,3.1,3.1,77,0.00,,CLR,0.00,VWS V14.01,2013-09-27 03:41:00,
2013-09-26 23:42:00,60.1,52.9,30.03,North,0,1.6,1.6,77,0.00,,CLR,0.00,VWS V14.01,2013-09-27 03:42:00,
2013-09-26 23:43:00,60.1,53.2,30.03,NNE,22,2.7,2.7,78,0.00,,CLR,0.00,VWS V14.01,2013-09-27 03:43:00,
2013-09-26 23:44:00,60.1,52.9,30.03,NNE,22,2.5,2.5,77,0.00,,CLR,0.00,VWS V14.01,2013-09-27 03:44:00,
2013-09-26 23:45:00,59.9,52.7,30.03,NNE,22,2.5,2.5,77,0.00,,CLR,0.00,VWS V14.01,2013-09-27 03:45:00,
2013-09-26 23:46:00,60.1,53.2,30.03,NNE,22,2.7,2.7,78,0.00,,CLR,0.00,VWS V14.01,2013-09-27 03:46:00,
2013-09-26 23:47:00,60.1,53.2,30.03,NNE,22,2.5,2.5,78,0.00,,CLR,0.00,VWS V14.01,2013-09-27 03:47:00,
2013-09-26 23:48:00,59.9,53.1,30.03,NNE,22,1.3,1.3,78,0.00,,CLR,0.00,VWS V14.01,2013-09-27 03:48:00,
2013-09-26 23:49:00,60.1,53.2,30.03,NNE,22,1.6,1.6,78,0.00,,CLR,0.00,VWS V14.01,2013-09-27 03:49:00,
2013-09-26 23:50:00,59.9,53.1,30.03,NNE,22,2.2,2.2,78,0.00,,CLR,0.00,VWS V14.01,2013-09-27 03:50:00,
2013-09-26 23:51:00,59.9,53.1,30.03,NNE,22,1.3,1.3,78,0.00,,CLR,0.00,VWS V14.01,2013-09-27 03:51:00,
2013-09-26 23:52:00,59.9,53.1,30.03,North,0,0.0,0.0,78,0.00,,CLR,0.00,VWS V14.01,2013-09-27 03:52:00,
2013-09-26 23:53:00,59.8,52.9,30.03,North,0,2.7,2.7,78,0.00,,CLR,0.00,VWS V14.01,2013-09-27 03:53:00,
2013-09-26 23:54:00,59.8,52.9,30.03,North,0,1.6,1.6,78,0.00,,CLR,0.00,VWS V14.01,2013-09-27 03:54:00,
2013-09-26 23:55:00,59.8,52.9,30.03,North,0,2.0,2.0,78,0.00,,CLR,0.00,VWS V14.01,2013-09-27 03:55:00,
2013-09-26 23:56:00,59.8,52.9,30.03,North,0,2.7,2.7,78,0.00,,CLR,0.00,VWS V14.01,2013-09-27 03:56:00,
2013-09-26 23:57:00,59.6,52.7,30.03,North,0,2.9,2.9,78,0.00,,CLR,0.00,VWS V14.01,2013-09-27 03:57:00,
2013-09-26 23:58:00,59.8,53.2,30.03,NNE,22,3.1,3.1,79,0.00,,CLR,0.00,VWS V14.01,2013-09-27 03:58:00,
2013-09-26 23:59:00,59.8,53.2,30.03,NNW,338,2.7,2.7,79,0.00,,CLR,0.00,VWS V14.01,2013-09-27 03:59:00,